Darstellungsparameter: Aktuell verwendete Einstellungen:
Skalierung der Graphiken ... ?
xyx+y,   Skalierungsfaktor:      Skalierung: Modus: x, Faktor: 1
Darstellungszeitraum ... ?
Vom - - bis: - -   Zeitraum: 08.06.2003 - 07.12.2003
Min/Max/Avg-Anzeige ... ?
Zeige MMA aktuell
Zeige MMA Monat
Zeige MMA alles
Zeige --A aktuell
Zeige --A Monat
Zeige --A alles
Keine MMA-Anzeige
MMA:
Keine MMA-Graphiken
MMA-Basis: 08.06.2003 - 07.12.2003
Quicknavigation für Darstellung... ?
Tage:      1T, 2T, 3T, 5T -1T -2T -3T -5T +1T +2T +3T +5T
Wochen: 1W, 2W, 3W -1W -2W -3W +1W +2W +3W
Monate: 1M, 3M, 6M -1M -3M -6M +1M +3M +6M
Jahre:    1J, 3J, 5J, 10J -1J -3J -5J -10J +1J +3J +5J +10J
Nutze für die Darstellung ... ?
Originaldaten oder Mittelwerte auf ...
Stundenbasis Tagesbasis Wochenbasis
Monatsbasis Jahresbasis      Datenbasis: Original-Daten
Darstellen als:
Statistik (Auto) Statistik J:M      Darstellung:
Zur Graphik,    zurück zur Übersicht aller Sensoren.
 
Tabellarische Datenbersicht: ?
 
Sensor: Nr:Datum:Temp:Abs-Feuchte:Windchill:Wind:
Aussen-T/F 1 08-06-2003 00:05:58 23.3 C 13.38 g/m*3 23.3 C 0 km/h
2 08-06-2003 00:15:58 23.1 C 13.23 g/m*3 23.1 C 0 km/h
3 08-06-2003 00:25:58 22.9 C 13.28 g/m*3 22.9 C 0 km/h
4 08-06-2003 00:35:58 22.7 C 13.33 g/m*3 22.7 C 0 km/h
5 08-06-2003 00:45:58 22.6 C 13.26 g/m*3 22.6 C 0 km/h
6 08-06-2003 00:54:58 22.7 C 13.33 g/m*3 22.7 C 0 km/h
7 08-06-2003 01:04:58 22.4 C 13.11 g/m*3 22.4 C 0 km/h
8 08-06-2003 01:14:58 22.4 C 13.5 g/m*3 22.4 C 0 km/h
9 08-06-2003 01:24:58 22.3 C 13.62 g/m*3 22.3 C 0 km/h
10 08-06-2003 01:44:58 22.1 C 13.47 g/m*3 22.1 C 0 km/h
11 08-06-2003 01:54:58 21.7 C 13.35 g/m*3 21.7 C 0 km/h
12 08-06-2003 02:04:58 21.6 C 13.28 g/m*3 21.6 C 0 km/h
13 08-06-2003 02:14:58 21.3 C 13.23 g/m*3 21.3 C 0 km/h
14 08-06-2003 02:24:58 21.2 C 13.34 g/m*3 21.2 C 0 km/h
15 08-06-2003 02:34:58 21 C 13.19 g/m*3 21 C 0 km/h
16 08-06-2003 02:44:58 20.9 C 13.3 g/m*3 20.9 C 0 km/h
17 08-06-2003 02:54:58 20.6 C 13.24 g/m*3 20.6 C 0 km/h
18 08-06-2003 03:04:58 20.4 C 13.27 g/m*3 20.4 C 0 km/h
19 08-06-2003 03:14:58 20.2 C 13.29 g/m*3 20.2 C 0 km/h
20 08-06-2003 03:24:58 20.2 C 13.29 g/m*3 20.2 C 0 km/h
21 08-06-2003 03:34:58 20.2 C 13.29 g/m*3 20.2 C 0 km/h
22 08-06-2003 03:44:58 20 C 13.13 g/m*3 20 C 0 km/h
23 08-06-2003 03:54:58 20 C 13.13 g/m*3 20 C 0 km/h
24 08-06-2003 04:04:58 19.9 C 13.23 g/m*3 19.9 C 0 km/h
25 08-06-2003 04:14:58 19.8 C 13.32 g/m*3 19.8 C 0 km/h
Sensor: Nr:Datum:Temp:Abs-Feuchte:Windchill:Wind:
Aussen-T/F 26 08-06-2003 04:24:58 19.5 C 13.26 g/m*3 19.5 C 0 km/h
27 08-06-2003 04:34:58 19.5 C 13.09 g/m*3 19.5 C 0 km/h
28 08-06-2003 04:44:58 19.4 C 13.18 g/m*3 19.4 C 0 km/h
29 08-06-2003 04:54:58 19.3 C 13.1 g/m*3 19.3 C 0 km/h
30 08-06-2003 05:04:58 19.3 C 13.1 g/m*3 19.3 C 0 km/h
31 08-06-2003 05:14:58 19.1 C 12.95 g/m*3 19.1 C 0 km/h
32 08-06-2003 05:24:58 19.1 C 12.95 g/m*3 19.1 C 0 km/h
33 08-06-2003 05:34:58 18.9 C 13.12 g/m*3 18.9 C 0 km/h
34 08-06-2003 05:44:58 18.9 C 13.12 g/m*3 18.9 C 0 km/h
35 08-06-2003 05:54:58 18.9 C 13.12 g/m*3 18.9 C 0 km/h
36 08-06-2003 06:04:58 18.9 C 13.12 g/m*3 18.9 C 0 km/h
37 08-06-2003 06:14:58 18.8 C 13.05 g/m*3 18.8 C 0 km/h
38 08-06-2003 06:24:58 18.7 C 13.13 g/m*3 18.7 C 0 km/h
39 08-06-2003 06:34:58 18.7 C 13.13 g/m*3 18.7 C 0 km/h
40 08-06-2003 06:44:58 18.9 C 13.12 g/m*3 18.9 C 0 km/h
41 08-06-2003 06:54:58 19.2 C 13.19 g/m*3 19.2 C 0 km/h
42 08-06-2003 07:04:58 19.1 C 12.95 g/m*3 19.1 C 0 km/h
43 08-06-2003 07:14:58 19.1 C 13.11 g/m*3 19.1 C 0 km/h
44 08-06-2003 07:24:58 19.1 C 12.95 g/m*3 19.1 C 0 km/h
45 08-06-2003 07:34:58 19.3 C 13.1 g/m*3 19.3 C 0 km/h
46 08-06-2003 07:44:58 19.5 C 13.09 g/m*3 19.5 C 0 km/h
47 08-06-2003 07:54:58 19.7 C 13.25 g/m*3 19.7 C 0 km/h
48 08-06-2003 08:04:58 19.8 C 13.32 g/m*3 19.8 C 0 km/h
49 08-06-2003 08:14:58 20.2 C 13.29 g/m*3 20.2 C 0 km/h
50 08-06-2003 08:24:58 20.5 C 13.52 g/m*3 20.5 C 0 km/h
Sensor: Nr:Datum:Temp:Abs-Feuchte:Windchill:Wind:
Aussen-T/F 51 08-06-2003 08:34:58 20.9 C 13.84 g/m*3 20.9 C 0 km/h
52 08-06-2003 08:44:58 21.3 C 13.98 g/m*3 21.3 C 0 km/h
53 08-06-2003 08:54:58 21.6 C 14.03 g/m*3 21.6 C 0 km/h
54 08-06-2003 09:04:58 22.3 C 14.22 g/m*3 22.3 C 0 km/h
55 08-06-2003 09:15:01 22.8 C 14.43 g/m*3 22.8 C 0 km/h
56 08-06-2003 09:25:01 23.4 C 14.51 g/m*3 23.4 C 0 km/h
57 08-06-2003 09:35:01 24.1 C 14.44 g/m*3 24.1 C 0 km/h
58 08-06-2003 09:45:01 24.6 C 14.85 g/m*3 24.6 C 0 km/h
59 08-06-2003 09:55:01 25.2 C 14.67 g/m*3 25.2 C 0 km/h
60 08-06-2003 10:05:02 25.9 C 15.25 g/m*3 25.9 C 0 km/h
61 08-06-2003 10:15:02 26.5 C 14.52 g/m*3 26.5 C 0 km/h
62 08-06-2003 10:25:02 27.3 C 14.39 g/m*3 27.3 C 0 km/h
63 08-06-2003 10:35:01 27.8 C 15.06 g/m*3 27.8 C 0 km/h
64 08-06-2003 10:45:01 28.1 C 14.49 g/m*3 28.1 C 0 km/h
65 08-06-2003 10:55:01 28.1 C 13.95 g/m*3 28.1 C 0 km/h
66 08-06-2003 11:05:01 28.5 C 14.25 g/m*3 28.5 C 0 km/h
67 08-06-2003 11:15:01 29 C 14.36 g/m*3 29 C 0 km/h
68 08-06-2003 11:25:01 29.1 C 14.44 g/m*3 29.1 C 0 km/h
69 08-06-2003 11:35:02 29.7 C 14.02 g/m*3 29.7 C 0 km/h
70 08-06-2003 11:45:02 30.3 C 13.87 g/m*3 30.3 C 0 km/h
71 08-06-2003 11:55:02 30.2 C 14.41 g/m*3 30.2 C 0 km/h
72 08-06-2003 12:05:01 30.8 C 13.61 g/m*3 30.8 C 0 km/h
73 08-06-2003 12:15:01 31.1 C 13.19 g/m*3 31.1 C 0 km/h
74 08-06-2003 12:25:01 30.8 C 12.35 g/m*3 30.8 C 0 km/h
75 08-06-2003 12:35:01 31.6 C 11.9 g/m*3 31.6 C 0 km/h
Sensor: Nr:Datum:Temp:Abs-Feuchte:Windchill:Wind:
Aussen-T/F 76 08-06-2003 12:45:01 31.8 C 11.69 g/m*3 31.8 C 0 km/h
77 08-06-2003 12:55:01 31.5 C 11.18 g/m*3 31.5 C 0 km/h
78 08-06-2003 13:05:02 32 C 11.82 g/m*3 32 C 0 km/h
79 08-06-2003 13:15:02 31.8 C 10.69 g/m*3 31.8 C 0 km/h
80 08-06-2003 13:25:02 32.2 C 9.55 g/m*3 32.2 C 0 km/h
81 08-06-2003 13:35:02 31.2 C 10.03 g/m*3 31.2 C 0 km/h
82 08-06-2003 13:45:02 30.3 C 11.1 g/m*3 30.3 C 0 km/h
83 08-06-2003 13:55:02 30.1 C 11.59 g/m*3 30.1 C 0 km/h
84 08-06-2003 14:05:09 26.6 C 9.57 g/m*3 26.6 C 0 km/h
85 08-06-2003 14:15:56 27.6 C 15.7 g/m*3 27.6 C 0 km/h
86 08-06-2003 14:25:06 27.3 C 15.44 g/m*3 27.3 C 0 km/h
87 08-06-2003 14:35:01 27.3 C 15.96 g/m*3 27.3 C 0 km/h
88 08-06-2003 14:45:01 27.4 C 13.68 g/m*3 27.4 C 0 km/h
89 08-06-2003 14:55:01 27.2 C 14.57 g/m*3 27.2 C 0 km/h
90 08-06-2003 15:05:14 27.1 C 15.27 g/m*3 27.1 C 0 km/h
91 08-06-2003 15:15:01 28.1 C 14.22 g/m*3 28.1 C 0 km/h
92 08-06-2003 15:25:01 30 C 12.43 g/m*3 30 C 0 km/h
93 08-06-2003 15:35:01 30.4 C 11.16 g/m*3 30.4 C 0 km/h
94 08-06-2003 15:45:01 30.8 C 9.81 g/m*3 30.8 C 0 km/h
95 08-06-2003 15:55:01 31.2 C 10.03 g/m*3 31.2 C 0 km/h
96 08-06-2003 16:05:01 31.4 C 9.81 g/m*3 31.4 C 0 km/h
97 08-06-2003 16:15:01 31.5 C 10.19 g/m*3 31.5 C 0 km/h
98 08-06-2003 16:25:01 30.5 C 10.59 g/m*3 30.5 C 0 km/h
99 08-06-2003 16:35:51 30 C 11.22 g/m*3 30 C 0 km/h
100 08-06-2003 16:45:51 26.3 C 10.15 g/m*3 26.3 C 0 km/h
Sensor: Nr:Datum:Temp:Abs-Feuchte:Windchill:Wind:
Aussen-T/F 101 08-06-2003 16:55:01 24.1 C 11.16 g/m*3 24.1 C 0 km/h
102 08-06-2003 17:05:47 22.1 C 13.47 g/m*3 22.1 C 0 km/h
103 08-06-2003 17:15:02 20.8 C 13.94 g/m*3 20.8 C 0 km/h
104 08-06-2003 17:25:02 21 C 14.11 g/m*3 21 C 0 km/h
105 08-06-2003 17:35:18 19.9 C 13.92 g/m*3 19.9 C 0 km/h
106 08-06-2003 17:45:43 17.4 C 12.89 g/m*3 17.4 C 0 km/h
107 08-06-2003 17:55:43 17.3 C 13.26 g/m*3 17.3 C 0 km/h
108 08-06-2003 18:05:46 17.5 C 13.72 g/m*3 17.5 C 0 km/h
109 08-06-2003 18:15:31 17.9 C 14.2 g/m*3 17.9 C 0 km/h
110 08-06-2003 18:26:01 18.2 C 14.3 g/m*3 18.2 C 0 km/h
111 08-06-2003 18:36:01 18.1 C 14.37 g/m*3 18.1 C 0 km/h
112 08-06-2003 18:46:01 17.9 C 14.2 g/m*3 17.9 C 0 km/h
113 08-06-2003 18:56:01 18.3 C 14.54 g/m*3 18.3 C 0 km/h
114 08-06-2003 19:06:01 18.4 C 14.63 g/m*3 18.4 C 0 km/h
115 08-06-2003 19:16:01 18.7 C 14.89 g/m*3 18.7 C 0 km/h
116 08-06-2003 19:26:01 18.7 C 14.73 g/m*3 18.7 C 0 km/h
117 08-06-2003 19:36:01 19.2 C 14.84 g/m*3 19.2 C 0 km/h
118 08-06-2003 19:46:01 19.4 C 14.52 g/m*3 19.4 C 0 km/h
119 08-06-2003 19:56:01 19.6 C 14.69 g/m*3 19.6 C 0 km/h
120 08-06-2003 20:06:01 20 C 14.17 g/m*3 20 C 0 km/h
121 08-06-2003 20:16:01 19.7 C 14.26 g/m*3 19.7 C 0 km/h
122 08-06-2003 20:26:01 20.2 C 14.34 g/m*3 20.2 C 0 km/h
123 08-06-2003 20:36:01 20.4 C 14.33 g/m*3 20.4 C 0 km/h
124 08-06-2003 20:46:01 20.7 C 14.4 g/m*3 20.7 C 0 km/h
125 08-06-2003 20:56:01 20.3 C 13.89 g/m*3 20.3 C 0 km/h
Sensor: Nr:Datum:Temp:Abs-Feuchte:Windchill:Wind:
Aussen-T/F 126 08-06-2003 21:06:01 19.7 C 13.75 g/m*3 19.7 C 0 km/h
127 08-06-2003 21:16:01 19.7 C 13.92 g/m*3 19.7 C 0 km/h
128 08-06-2003 21:26:01 19.5 C 13.93 g/m*3 19.5 C 0 km/h
129 08-06-2003 21:36:01 19.3 C 13.93 g/m*3 19.3 C 0 km/h
130 08-06-2003 21:46:01 19.1 C 13.77 g/m*3 19.1 C 0 km/h
131 08-06-2003 21:56:01 19.2 C 14.02 g/m*3 19.2 C 0 km/h
132 08-06-2003 22:06:01 19.3 C 14.26 g/m*3 19.3 C 0 km/h
133 08-06-2003 22:16:01 19.3 C 14.26 g/m*3 19.3 C 0 km/h
134 08-06-2003 22:26:01 18.9 C 14.09 g/m*3 18.9 C 0 km/h
135 08-06-2003 22:36:01 18.9 C 14.26 g/m*3 18.9 C 0 km/h
136 08-06-2003 22:46:01 18.8 C 14.17 g/m*3 18.8 C 0 km/h
137 08-06-2003 22:56:01 18.8 C 14.17 g/m*3 18.8 C 0 km/h
138 08-06-2003 23:06:01 18.9 C 14.26 g/m*3 18.9 C 0 km/h
139 08-06-2003 23:16:01 19.1 C 14.26 g/m*3 19.1 C 0 km/h
140 08-06-2003 23:26:01 19.1 C 14.26 g/m*3 19.1 C 0 km/h
141 08-06-2003 23:36:01 19.2 C 13.85 g/m*3 19.2 C 0 km/h
142 08-06-2003 23:46:01 19.2 C 13.03 g/m*3 19.2 C 0 km/h
143 08-06-2003 23:56:01 19 C 12.71 g/m*3 19 C 0 km/h
144 09-06-2003 00:06:01 18.8 C 12.08 g/m*3 18.8 C 0 km/h
145 09-06-2003 00:16:01 18.4 C 10.07 g/m*3 18.4 C 0 km/h
146 09-06-2003 00:26:01 18.1 C 9.58 g/m*3 18.1 C 0 km/h
147 09-06-2003 00:36:01 17.8 C 9.71 g/m*3 17.8 C 0 km/h
148 09-06-2003 00:46:01 17.7 C 9.51 g/m*3 17.7 C 0 km/h
149 09-06-2003 00:56:01 17.5 C 9.09 g/m*3 17.5 C 0 km/h
150 09-06-2003 01:06:01 17.3 C 8.4 g/m*3 17.3 C 0 km/h
Sensor: Nr:Datum:Temp:Abs-Feuchte:Windchill:Wind:
Aussen-T/F 151 09-06-2003 01:16:01 16.9 C 9.21 g/m*3 16.9 C 0 km/h
152 09-06-2003 01:26:01 16.8 C 8.86 g/m*3 16.8 C 0 km/h
153 09-06-2003 01:36:01 16.8 C 9.15 g/m*3 16.8 C 0 km/h
154 09-06-2003 01:46:01 16.4 C 9.21 g/m*3 16.4 C 0 km/h
155 09-06-2003 01:56:01 16.2 C 8.55 g/m*3 16.2 C 0 km/h
156 09-06-2003 02:06:01 16.2 C 8.41 g/m*3 16.2 C 0 km/h
157 09-06-2003 02:16:01 16 C 8.58 g/m*3 16 C 0 km/h
158 09-06-2003 02:26:01 15.8 C 8.75 g/m*3 15.8 C 0 km/h
159 09-06-2003 02:36:01 15.5 C 8.33 g/m*3 15.5 C 0 km/h
160 09-06-2003 02:46:01 15.2 C 8.18 g/m*3 15.2 C 0 km/h
161 09-06-2003 02:56:01 14.8 C 8.49 g/m*3 14.8 C 0 km/h
162 09-06-2003 03:06:01 14.6 C 8.76 g/m*3 14.6 C 0 km/h
163 09-06-2003 03:16:01 14.5 C 8.71 g/m*3 14.5 C 0 km/h
164 09-06-2003 03:26:01 14.8 C 8.36 g/m*3 14.8 C 0 km/h
165 09-06-2003 03:36:01 14.7 C 8.31 g/m*3 14.7 C 0 km/h
166 09-06-2003 03:46:01 14.7 C 8.81 g/m*3 14.7 C 0 km/h
167 09-06-2003 03:56:01 14.6 C 8.63 g/m*3 14.6 C 0 km/h
168 09-06-2003 04:06:01 14.5 C 8.71 g/m*3 14.5 C 0 km/h
169 09-06-2003 04:16:01 14.2 C 8.3 g/m*3 14.2 C 0 km/h
170 09-06-2003 04:26:01 14 C 8.08 g/m*3 14 C 0 km/h
171 09-06-2003 04:36:01 13.6 C 8 g/m*3 13.6 C 0 km/h
172 09-06-2003 04:46:01 13.4 C 8.02 g/m*3 13.4 C 0 km/h
173 09-06-2003 04:56:01 13.2 C 8.27 g/m*3 13.2 C 0 km/h
174 09-06-2003 05:06:01 12.8 C 8.29 g/m*3 12.8 C 0 km/h
175 09-06-2003 05:16:01 12.7 C 8.57 g/m*3 12.7 C 0 km/h
Sensor: Nr:Datum:Temp:Abs-Feuchte:Windchill:Wind:
Aussen-T/F 176 09-06-2003 05:26:01 12.6 C 8.52 g/m*3 12.6 C 0 km/h
177 09-06-2003 05:36:01 12.6 C 8.52 g/m*3 12.6 C 0 km/h
178 09-06-2003 05:46:01 12.7 C 8.68 g/m*3 12.7 C 0 km/h
179 09-06-2003 05:56:01 12.6 C 8.63 g/m*3 12.6 C 0 km/h
180 09-06-2003 06:06:01 12.5 C 8.58 g/m*3 12.5 C 0 km/h
181 09-06-2003 06:16:01 12.4 C 8.63 g/m*3 12.4 C 0 km/h
182 09-06-2003 06:26:01 12.4 C 8.74 g/m*3 12.4 C 0 km/h
183 09-06-2003 06:36:01 12.7 C 9.02 g/m*3 12.7 C 0 km/h
184 09-06-2003 06:46:01 12.8 C 8.96 g/m*3 12.8 C 0 km/h
185 09-06-2003 06:56:01 13.3 C 8.9 g/m*3 13.3 C 0 km/h
186 09-06-2003 07:06:01 13.5 C 8.77 g/m*3 13.5 C 0 km/h
187 09-06-2003 07:16:01 13.6 C 8.36 g/m*3 13.6 C 0 km/h
188 09-06-2003 07:26:01 13.5 C 8.07 g/m*3 13.5 C 0 km/h
189 09-06-2003 07:36:01 13.6 C 8.24 g/m*3 13.6 C 0 km/h
190 09-06-2003 07:46:01 13.7 C 8.41 g/m*3 13.7 C 0 km/h
191 09-06-2003 07:56:01 13.7 C 8.05 g/m*3 13.7 C 0 km/h
192 09-06-2003 08:06:01 13.8 C 7.98 g/m*3 13.8 C 0 km/h
193 09-06-2003 08:16:01 13.9 C 7.79 g/m*3 13.9 C 0 km/h
194 09-06-2003 08:26:01 14.1 C 7.77 g/m*3 14.1 C 0 km/h
195 09-06-2003 08:36:01 14.4 C 7.42 g/m*3 14.4 C 0 km/h
196 09-06-2003 08:46:01 14.4 C 7.42 g/m*3 14.4 C 0 km/h
197 09-06-2003 08:56:01 14.7 C 7.3 g/m*3 14.7 C 0 km/h
198 09-06-2003 09:06:01 14.8 C 6.97 g/m*3 14.8 C 0 km/h
199 09-06-2003 09:16:01 15.2 C 7.01 g/m*3 15.2 C 0 km/h
200 09-06-2003 09:26:01 15.4 C 6.96 g/m*3 15.4 C 0 km/h
Sensor: Nr:Datum:Temp:Abs-Feuchte:Windchill:Wind:
Aussen-T/F 201 09-06-2003 09:36:01 15.6 C 6.92 g/m*3 15.6 C 0 km/h
202 09-06-2003 09:46:01 16 C 6.95 g/m*3 16 C 0 km/h
203 09-06-2003 09:56:01 16.4 C 7.26 g/m*3 16.4 C 0 km/h
204 09-06-2003 10:06:00 16.6 C 6.92 g/m*3 16.6 C 0 km/h
205 09-06-2003 10:16:00 16.9 C 7.19 g/m*3 16.9 C 0 km/h
206 09-06-2003 10:26:00 17.4 C 6.97 g/m*3 17.4 C 0 km/h
207 09-06-2003 10:36:08 17.5 C 6.86 g/m*3 17.5 C 0 km/h
208 09-06-2003 10:46:08 18.1 C 7.26 g/m*3 18.1 C 0 km/h
209 09-06-2003 10:56:01 18.3 C 7.19 g/m*3 18.3 C 0 km/h
210 09-06-2003 11:06:01 18.4 C 6.76 g/m*3 18.4 C 0 km/h
211 09-06-2003 11:16:01 18.9 C 6.97 g/m*3 18.9 C 0 km/h
212 09-06-2003 11:26:01 19 C 7.01 g/m*3 19 C 0 km/h
213 09-06-2003 11:36:01 19.3 C 6.97 g/m*3 19.3 C 0 km/h
214 09-06-2003 11:46:01 20.3 C 7.56 g/m*3 20.3 C 0 km/h
215 09-06-2003 11:56:01 20 C 7.09 g/m*3 20 C 0 km/h
216 09-06-2003 12:06:01 20.5 C 6.94 g/m*3 20.5 C 0 km/h
217 09-06-2003 12:16:01 21.3 C 6.9 g/m*3 21.3 C 0 km/h
218 09-06-2003 12:26:01 21.8 C 6.91 g/m*3 21.8 C 0 km/h
219 09-06-2003 12:36:01 21.6 C 6.83 g/m*3 21.6 C 0 km/h
220 09-06-2003 12:46:01 23.1 C 6.61 g/m*3 23.1 C 0 km/h
221 09-06-2003 12:56:01 23.1 C 6.82 g/m*3 23.1 C 0 km/h
222 09-06-2003 13:06:01 24.2 C 6.82 g/m*3 24.2 C 0 km/h
223 09-06-2003 13:16:01 24.4 C 6.68 g/m*3 24.4 C 0 km/h
224 09-06-2003 13:26:01 23.7 C 6.63 g/m*3 23.7 C 0 km/h
225 09-06-2003 13:36:53 23.8 C 6.67 g/m*3 23.8 C 0 km/h
Sensor: Nr:Datum:Temp:Abs-Feuchte:Windchill:Wind:
Aussen-T/F 226 09-06-2003 13:46:53 24.7 C 6.79 g/m*3 24.7 C 0 km/h
227 09-06-2003 13:56:53 24.1 C 6.78 g/m*3 24.1 C 0 km/h
228 09-06-2003 14:06:01 24.2 C 7.26 g/m*3 24.2 C 0 km/h
229 09-06-2003 14:16:01 24.5 C 7.16 g/m*3 24.5 C 0 km/h
230 09-06-2003 14:26:01 24.4 C 6.9 g/m*3 24.4 C 0 km/h
231 09-06-2003 14:36:01 25.3 C 7.49 g/m*3 25.3 C 0 km/h
232 09-06-2003 14:46:01 24.5 C 7.16 g/m*3 24.5 C 0 km/h
233 09-06-2003 14:56:01 25.9 C 7.75 g/m*3 25.9 C 0 km/h
234 09-06-2003 15:06:01 25.1 C 6.94 g/m*3 25.1 C 0 km/h
235 09-06-2003 15:16:01 25.8 C 7.22 g/m*3 25.8 C 0 km/h
236 09-06-2003 15:26:01 26 C 7.3 g/m*3 26 C 0 km/h
237 09-06-2003 15:36:01 26.4 C 6.97 g/m*3 26.4 C 0 km/h
238 09-06-2003 15:46:01 26.2 C 6.89 g/m*3 26.2 C 0 km/h
239 09-06-2003 15:56:01 26.1 C 6.61 g/m*3 26.1 C 0 km/h
240 09-06-2003 16:06:00 26.4 C 7.47 g/m*3 26.4 C 0 km/h
241 09-06-2003 16:16:00 26.7 C 7.59 g/m*3 26.7 C 0 km/h
242 09-06-2003 16:26:00 28.4 C 7.78 g/m*3 28.4 C 0 km/h
243 09-06-2003 16:36:01 28.6 C 7.03 g/m*3 28.6 C 0 km/h
244 09-06-2003 16:46:01 28.2 C 6.6 g/m*3 28.2 C 0 km/h
245 09-06-2003 16:56:01 27.8 C 6.72 g/m*3 27.8 C 0 km/h
246 09-06-2003 17:06:02 28.3 C 7.19 g/m*3 28.3 C 0 km/h
247 09-06-2003 17:16:00 27.6 C 6.92 g/m*3 27.6 C 0 km/h
248 09-06-2003 17:16:02 27.6 C 6.92 g/m*3 27.6 C 0 km/h
249 09-06-2003 17:26:00 28.7 C 7.06 g/m*3 28.7 C 0 km/h
250 09-06-2003 17:36:00 28.4 C 6.67 g/m*3 28.4 C 0 km/h
Sensor: Nr:Datum:Temp:Abs-Feuchte:Windchill:Wind:
Aussen-T/F 251 09-06-2003 17:46:00 27.8 C 6.99 g/m*3 27.8 C 0 km/h
252 09-06-2003 17:56:00 27.8 C 6.99 g/m*3 27.8 C 0 km/h
253 09-06-2003 18:06:01 27.5 C 6.35 g/m*3 27.5 C 0 km/h
254 09-06-2003 18:16:01 28 C 7.07 g/m*3 28 C 0 km/h
255 09-06-2003 18:26:01 27.9 C 6.22 g/m*3 27.9 C 0 km/h
256 09-06-2003 18:36:01 28.5 C 6.15 g/m*3 28.5 C 0 km/h
257 09-06-2003 18:46:01 28.4 C 6.67 g/m*3 28.4 C 0 km/h
258 09-06-2003 18:56:01 28.4 C 7.78 g/m*3 28.4 C 0 km/h
259 09-06-2003 19:06:01 28.3 C 7.74 g/m*3 28.3 C 0 km/h
260 09-06-2003 19:16:01 28.5 C 7.83 g/m*3 28.5 C 0 km/h
261 09-06-2003 19:26:01 27.6 C 7.71 g/m*3 27.6 C 0 km/h
262 09-06-2003 19:36:02 27.3 C 8.63 g/m*3 27.3 C 0 km/h
263 09-06-2003 19:46:02 27.1 C 8.28 g/m*3 27.1 C 0 km/h
264 09-06-2003 19:56:02 26.6 C 8.81 g/m*3 26.6 C 0 km/h
265 09-06-2003 20:06:02 25.9 C 8.96 g/m*3 25.9 C 0 km/h
266 09-06-2003 20:26:02 24.1 C 8.97 g/m*3 24.1 C 0 km/h
267 09-06-2003 20:36:01 23.8 C 9.03 g/m*3 23.8 C 0 km/h
268 09-06-2003 20:46:01 23.8 C 9.03 g/m*3 23.8 C 0 km/h
269 09-06-2003 20:56:01 23.8 C 9.25 g/m*3 23.8 C 0 km/h
270 09-06-2003 21:06:01 23.4 C 9.46 g/m*3 23.4 C 0 km/h
271 09-06-2003 21:16:01 22.4 C 8.74 g/m*3 22.4 C 0 km/h
272 09-06-2003 21:26:01 21.8 C 8.83 g/m*3 21.8 C 0 km/h
273 09-06-2003 21:36:00 21.5 C 8.49 g/m*3 21.5 C 0 km/h
274 09-06-2003 21:46:00 20.6 C 8.41 g/m*3 20.6 C 0 km/h
275 09-06-2003 21:56:00 20.3 C 8.27 g/m*3 20.3 C 0 km/h
Sensor: Nr:Datum:Temp:Abs-Feuchte:Windchill:Wind:
Aussen-T/F 276 09-06-2003 22:06:01 19.9 C 8.42 g/m*3 19.9 C 0 km/h
277 09-06-2003 22:16:01 19.9 C 8.25 g/m*3 19.9 C 0 km/h
278 09-06-2003 22:26:01 19.4 C 8.51 g/m*3 19.4 C 0 km/h
279 09-06-2003 22:36:39 19.3 C 8.63 g/m*3 19.3 C 0 km/h
280 09-06-2003 22:47:01 19 C 8.47 g/m*3 19 C 0 km/h
281 09-06-2003 22:57:01 18.8 C 8.54 g/m*3 18.8 C 0 km/h
282 09-06-2003 23:07:01 18.5 C 8.39 g/m*3 18.5 C 0 km/h
283 09-06-2003 23:17:01 18.3 C 8.6 g/m*3 18.3 C 0 km/h
284 09-06-2003 23:27:01 18.1 C 8.65 g/m*3 18.1 C 0 km/h
285 09-06-2003 23:37:01 17.8 C 8.8 g/m*3 17.8 C 0 km/h
286 09-06-2003 23:47:01 17.8 C 8.8 g/m*3 17.8 C 0 km/h
287 09-06-2003 23:57:01 17.2 C 8.79 g/m*3 17.2 C 0 km/h
288 10-06-2003 00:07:01 17.3 C 8.99 g/m*3 17.3 C 0 km/h
289 10-06-2003 00:17:01 17.1 C 9.03 g/m*3 17.1 C 0 km/h
290 10-06-2003 00:27:01 16.8 C 8.86 g/m*3 16.8 C 0 km/h
291 10-06-2003 00:37:01 16.7 C 8.95 g/m*3 16.7 C 0 km/h
292 10-06-2003 00:47:01 16.5 C 8.85 g/m*3 16.5 C 0 km/h
293 10-06-2003 00:57:01 16.3 C 9.02 g/m*3 16.3 C 0 km/h
294 10-06-2003 01:07:01 16.2 C 9.24 g/m*3 16.2 C 0 km/h
295 10-06-2003 01:17:01 15.9 C 9.21 g/m*3 15.9 C 0 km/h
296 10-06-2003 01:27:01 15.8 C 9.29 g/m*3 15.8 C 0 km/h
297 10-06-2003 01:37:01 15.6 C 9.31 g/m*3 15.6 C 0 km/h
298 10-06-2003 01:47:01 15.5 C 9.52 g/m*3 15.5 C 0 km/h
299 10-06-2003 01:57:01 15.3 C 9.4 g/m*3 15.3 C 0 km/h
300 10-06-2003 02:07:01 15.3 C 9.53 g/m*3 15.3 C 0 km/h
Sensor: Nr:Datum:Temp:Abs-Feuchte:Windchill:Wind:
Aussen-T/F 301 10-06-2003 02:17:01 15.2 C 9.35 g/m*3 15.2 C 0 km/h
302 10-06-2003 02:27:01 15.2 C 9.61 g/m*3 15.2 C 0 km/h
303 10-06-2003 02:37:01 15 C 9.36 g/m*3 15 C 0 km/h
304 10-06-2003 02:47:01 14.9 C 9.43 g/m*3 14.9 C 0 km/h
305 10-06-2003 02:57:01 14.8 C 9.75 g/m*3 14.8 C 0 km/h
306 10-06-2003 03:07:01 14.8 C 9.75 g/m*3 14.8 C 0 km/h
307 10-06-2003 03:17:01 14.7 C 9.82 g/m*3 14.7 C 0 km/h
308 10-06-2003 03:27:01 14.6 C 9.64 g/m*3 14.6 C 0 km/h
309 10-06-2003 03:37:01 14.5 C 9.58 g/m*3 14.5 C 0 km/h
310 10-06-2003 03:47:01 14.3 C 9.46 g/m*3 14.3 C 0 km/h
311 10-06-2003 03:57:01 14.2 C 9.52 g/m*3 14.2 C 0 km/h
312 10-06-2003 04:07:01 14.2 C 9.52 g/m*3 14.2 C 0 km/h
313 10-06-2003 04:17:01 13.9 C 9.47 g/m*3 13.9 C 0 km/h
314 10-06-2003 04:27:01 13.8 C 9.41 g/m*3 13.8 C 0 km/h
315 10-06-2003 04:37:01 13.6 C 9.3 g/m*3 13.6 C 0 km/h
316 10-06-2003 04:47:01 13.6 C 9.53 g/m*3 13.6 C 0 km/h
317 10-06-2003 04:57:01 13.5 C 9.36 g/m*3 13.5 C 0 km/h
318 10-06-2003 05:07:01 13.5 C 9.36 g/m*3 13.5 C 0 km/h
319 10-06-2003 05:17:01 13.4 C 9.65 g/m*3 13.4 C 0 km/h
320 10-06-2003 05:27:01 13.5 C 9.59 g/m*3 13.5 C 0 km/h
321 10-06-2003 05:37:01 13.5 C 9.59 g/m*3 13.5 C 0 km/h
322 10-06-2003 05:47:01 13.5 C 9.47 g/m*3 13.5 C 0 km/h
323 10-06-2003 05:57:01 13.4 C 9.42 g/m*3 13.4 C 0 km/h
324 10-06-2003 06:07:01 13.4 C 9.42 g/m*3 13.4 C 0 km/h
325 10-06-2003 06:17:01 13.4 C 9.53 g/m*3 13.4 C 0 km/h
Sensor: Nr:Datum:Temp:Abs-Feuchte:Windchill:Wind:
Aussen-T/F 326 10-06-2003 06:27:01 13.4 C 9.42 g/m*3 13.4 C 0 km/h
327 10-06-2003 06:37:01 13.6 C 9.65 g/m*3 13.6 C 0 km/h
328 10-06-2003 06:47:01 13.9 C 9.71 g/m*3 13.9 C 0 km/h
329 10-06-2003 06:57:01 14.3 C 9.83 g/m*3 14.3 C 0 km/h
330 10-06-2003 07:07:01 14.4 C 9.77 g/m*3 14.4 C 0 km/h
331 10-06-2003 07:17:01 14.3 C 9.83 g/m*3 14.3 C 0 km/h
332 10-06-2003 07:27:01 14.4 C 9.89 g/m*3 14.4 C 0 km/h
333 10-06-2003 07:37:01 14.6 C 9.89 g/m*3 14.6 C 0 km/h
334 10-06-2003 07:47:01 14.9 C 9.94 g/m*3 14.9 C 0 km/h
335 10-06-2003 07:57:01 15.1 C 9.93 g/m*3 15.1 C 0 km/h
336 10-06-2003 08:07:01 15.4 C 9.72 g/m*3 15.4 C 0 km/h
337 10-06-2003 08:17:01 16.1 C 9.87 g/m*3 16.1 C 0 km/h
338 10-06-2003 08:27:01 16.7 C 9.95 g/m*3 16.7 C 0 km/h
339 10-06-2003 08:37:01 17.2 C 10.1 g/m*3 17.2 C 0 km/h
340 10-06-2003 08:47:01 17.8 C 10.17 g/m*3 17.8 C 0 km/h
341 10-06-2003 08:57:01 18.4 C 10.22 g/m*3 18.4 C 0 km/h
342 10-06-2003 09:07:02 18.9 C 10.21 g/m*3 18.9 C 0 km/h
343 10-06-2003 09:17:02 19.2 C 9.56 g/m*3 19.2 C 0 km/h
344 10-06-2003 09:27:02 19.4 C 9.84 g/m*3 19.4 C 0 km/h
345 10-06-2003 09:37:01 20.1 C 10.08 g/m*3 20.1 C 0 km/h
346 10-06-2003 09:47:01 20.8 C 9.96 g/m*3 20.8 C 0 km/h
347 10-06-2003 09:57:01 21.8 C 10.17 g/m*3 21.8 C 0 km/h
348 10-06-2003 10:07:01 22.6 C 9.84 g/m*3 22.6 C 0 km/h
349 10-06-2003 10:17:01 22.8 C 9.75 g/m*3 22.8 C 0 km/h
350 10-06-2003 10:27:01 23.2 C 9.56 g/m*3 23.2 C 0 km/h
Sensor: Nr:Datum:Temp:Abs-Feuchte:Windchill:Wind:
Aussen-T/F 351 10-06-2003 10:37:01 24 C 10.01 g/m*3 24 C 0 km/h
352 10-06-2003 10:47:01 24 C 11.1 g/m*3 24 C 0 km/h
353 10-06-2003 10:57:01 24.2 C 9.9 g/m*3 24.2 C 0 km/h
354 10-06-2003 11:07:00 25.1 C 10.65 g/m*3 25.1 C 0 km/h
355 10-06-2003 11:17:00 25.3 C 11 g/m*3 25.3 C 0 km/h
356 10-06-2003 11:27:00 25.5 C 11.13 g/m*3 25.5 C 0 km/h
357 10-06-2003 11:37:01 25.9 C 11.62 g/m*3 25.9 C 0 km/h
358 10-06-2003 11:47:01 26.6 C 12.33 g/m*3 26.6 C 0 km/h
359 10-06-2003 11:57:01 27.6 C 12.77 g/m*3 27.6 C 0 km/h
360 10-06-2003 12:07:02 28.5 C 11.18 g/m*3 28.5 C 0 km/h
361 10-06-2003 12:17:02 29.2 C 11.91 g/m*3 29.2 C 0 km/h
362 10-06-2003 12:27:02 29.2 C 10.74 g/m*3 29.2 C 0 km/h
363 10-06-2003 12:37:01 30.1 C 12.2 g/m*3 30.1 C 0 km/h
364 10-06-2003 12:47:01 30.6 C 10.96 g/m*3 30.6 C 0 km/h
365 10-06-2003 12:57:01 31.2 C 10.67 g/m*3 31.2 C 0 km/h
366 10-06-2003 13:07:01 31.2 C 10.67 g/m*3 31.2 C 0 km/h
367 10-06-2003 13:17:01 31.4 C 10.14 g/m*3 31.4 C 0 km/h
368 10-06-2003 13:27:01 31.9 C 9.4 g/m*3 31.9 C 0 km/h
369 10-06-2003 13:37:02 32.1 C 9.5 g/m*3 32.1 C 0 km/h
370 10-06-2003 13:47:02 32 C 9.45 g/m*3 32 C 0 km/h
371 10-06-2003 13:57:02 32 C 10.13 g/m*3 32 C 0 km/h
372 10-06-2003 14:07:01 31.8 C 10.35 g/m*3 31.8 C 0 km/h
373 10-06-2003 14:17:01 31.9 C 10.41 g/m*3 31.9 C 0 km/h
374 10-06-2003 14:27:01 32 C 10.13 g/m*3 32 C 0 km/h
375 10-06-2003 14:37:01 32.1 C 11.54 g/m*3 32.1 C 0 km/h
Sensor: Nr:Datum:Temp:Abs-Feuchte:Windchill:Wind:
Aussen-T/F 376 10-06-2003 14:47:01 32 C 10.8 g/m*3 32 C 0 km/h
377 10-06-2003 14:57:01 32 C 10.8 g/m*3 32 C 0 km/h
378 10-06-2003 15:07:01 32.2 C 10.58 g/m*3 32.2 C 0 km/h
379 10-06-2003 15:17:01 32.4 C 10.35 g/m*3 32.4 C 0 km/h
380 10-06-2003 15:27:01 32.3 C 10.63 g/m*3 32.3 C 0 km/h
381 10-06-2003 15:37:01 32.3 C 10.98 g/m*3 32.3 C 0 km/h
382 10-06-2003 15:47:01 32.3 C 12.35 g/m*3 32.3 C 0 km/h
383 10-06-2003 15:57:01 32 C 13.17 g/m*3 32 C 0 km/h
384 10-06-2003 16:07:02 31.6 C 13.55 g/m*3 31.6 C 0 km/h
385 10-06-2003 16:17:02 31.3 C 13.98 g/m*3 31.3 C 0 km/h
386 10-06-2003 16:27:02 30.9 C 14.32 g/m*3 30.9 C 0 km/h
387 10-06-2003 16:37:01 30.5 C 14.64 g/m*3 30.5 C 0 km/h
388 10-06-2003 16:47:01 30.1 C 13.72 g/m*3 30.1 C 0 km/h
389 10-06-2003 16:57:01 30.2 C 14.1 g/m*3 30.2 C 0 km/h
390 10-06-2003 17:07:02 30.3 C 14.49 g/m*3 30.3 C 0 km/h
391 10-06-2003 17:17:02 30.4 C 13.94 g/m*3 30.4 C 0 km/h
392 10-06-2003 17:27:02 30.9 C 13.37 g/m*3 30.9 C 0 km/h
393 10-06-2003 17:37:02 30.9 C 14.64 g/m*3 30.9 C 0 km/h
394 10-06-2003 17:47:02 30.2 C 14.71 g/m*3 30.2 C 0 km/h
395 10-06-2003 17:57:02 29.2 C 15.1 g/m*3 29.2 C 0 km/h
396 10-06-2003 18:07:02 28 C 14.96 g/m*3 28 C 0 km/h
397 10-06-2003 18:17:02 26.6 C 15.1 g/m*3 26.6 C 0 km/h
398 10-06-2003 18:27:02 25.5 C 15.86 g/m*3 25.5 C 0 km/h
399 10-06-2003 18:37:02 25.1 C 15.51 g/m*3 25.1 C 0 km/h
400 10-06-2003 18:47:02 25 C 15.42 g/m*3 25 C 0 km/h
Sensor: Nr:Datum:Temp:Abs-Feuchte:Windchill:Wind:
Aussen-T/F 401 10-06-2003 18:57:02 25.3 C 15.22 g/m*3 25.3 C 0 km/h
402 10-06-2003 19:07:02 24.8 C 16.84 g/m*3 24.8 C 0 km/h
403 10-06-2003 19:17:02 21.3 C 13.61 g/m*3 21.3 C 0 km/h
404 10-06-2003 19:27:02 19.9 C 15.29 g/m*3 19.9 C 0 km/h
405 10-06-2003 19:37:02 19.9 C 15.63 g/m*3 19.9 C 0 km/h
406 10-06-2003 19:47:02 19.8 C 15.71 g/m*3 19.8 C 0 km/h
407 10-06-2003 19:57:01 19.7 C 15.62 g/m*3 19.7 C 0 km/h
408 10-06-2003 20:07:33 19.5 C 15.44 g/m*3 19.5 C 0 km/h
409 10-06-2003 20:17:07 20.1 C 15.99 g/m*3 20.1 C 0 km/h
410 10-06-2003 20:27:01 20 C 15.9 g/m*3 20 C 0 km/h
411 10-06-2003 20:37:01 20.3 C 16.18 g/m*3 20.3 C 0 km/h
412 10-06-2003 20:47:01 20.6 C 16.47 g/m*3 20.6 C 0 km/h
413 10-06-2003 20:57:01 20.4 C 16.28 g/m*3 20.4 C 0 km/h
414 10-06-2003 21:07:01 20.1 C 15.82 g/m*3 20.1 C 0 km/h
415 10-06-2003 21:17:01 20.1 C 15.99 g/m*3 20.1 C 0 km/h
416 10-06-2003 21:27:01 19.8 C 15.71 g/m*3 19.8 C 0 km/h
417 10-06-2003 21:37:01 19.7 C 15.62 g/m*3 19.7 C 0 km/h
418 10-06-2003 21:47:01 19.7 C 15.62 g/m*3 19.7 C 0 km/h
419 10-06-2003 21:57:01 19.6 C 15.53 g/m*3 19.6 C 0 km/h
420 10-06-2003 22:08:01 19.5 C 15.27 g/m*3 19.5 C 0 km/h
421 10-06-2003 22:18:01 19.5 C 15.27 g/m*3 19.5 C 0 km/h
422 10-06-2003 22:28:01 19.5 C 15.27 g/m*3 19.5 C 0 km/h
423 10-06-2003 22:38:01 19.5 C 15.27 g/m*3 19.5 C 0 km/h
424 10-06-2003 22:48:01 19.4 C 15.18 g/m*3 19.4 C 0 km/h
425 10-06-2003 22:58:01 19.3 C 15.09 g/m*3 19.3 C 0 km/h
Sensor: Nr:Datum:Temp:Abs-Feuchte:Windchill:Wind:
Aussen-T/F 426 10-06-2003 23:08:01 19.2 C 15.01 g/m*3 19.2 C 0 km/h
427 10-06-2003 23:18:01 19.3 C 15.09 g/m*3 19.3 C 0 km/h
428 10-06-2003 23:28:01 19.1 C 14.92 g/m*3 19.1 C 0 km/h
429 10-06-2003 23:38:01 19.1 C 14.92 g/m*3 19.1 C 0 km/h
430 10-06-2003 23:48:01 19.2 C 15.01 g/m*3 19.2 C 0 km/h
431 10-06-2003 23:58:01 19.2 C 15.01 g/m*3 19.2 C 0 km/h
432 11-06-2003 00:08:01 19.2 C 15.01 g/m*3 19.2 C 0 km/h
433 11-06-2003 00:18:01 19.2 C 14.84 g/m*3 19.2 C 0 km/h
434 11-06-2003 00:28:01 19.1 C 14.75 g/m*3 19.1 C 0 km/h
435 11-06-2003 00:38:01 19.3 C 14.93 g/m*3 19.3 C 0 km/h
436 11-06-2003 00:48:01 19.2 C 14.68 g/m*3 19.2 C 0 km/h
437 11-06-2003 00:58:01 19.2 C 14.68 g/m*3 19.2 C 0 km/h
438 11-06-2003 01:08:01 19.1 C 14.59 g/m*3 19.1 C 0 km/h
439 11-06-2003 01:18:01 19.1 C 14.59 g/m*3 19.1 C 0 km/h
440 11-06-2003 01:28:01 19.1 C 14.75 g/m*3 19.1 C 0 km/h
441 11-06-2003 01:38:01 19.2 C 14.84 g/m*3 19.2 C 0 km/h
442 11-06-2003 01:48:01 19.3 C 14.93 g/m*3 19.3 C 0 km/h
443 11-06-2003 01:58:01 19 C 14.67 g/m*3 19 C 0 km/h
444 11-06-2003 02:08:01 18.9 C 14.74 g/m*3 18.9 C 0 km/h
445 11-06-2003 02:18:01 18.9 C 14.74 g/m*3 18.9 C 0 km/h
446 11-06-2003 02:28:01 18.8 C 14.66 g/m*3 18.8 C 0 km/h
447 11-06-2003 02:38:01 18.8 C 14.66 g/m*3 18.8 C 0 km/h
448 11-06-2003 02:48:01 18.9 C 14.74 g/m*3 18.9 C 0 km/h
449 11-06-2003 02:58:01 18.9 C 14.74 g/m*3 18.9 C 0 km/h
450 11-06-2003 03:08:01 18.9 C 14.74 g/m*3 18.9 C 0 km/h
Sensor: Nr:Datum:Temp:Abs-Feuchte:Windchill:Wind:
Aussen-T/F 451 11-06-2003 03:18:01 18.9 C 14.74 g/m*3 18.9 C 0 km/h
452 11-06-2003 03:28:01 18.9 C 14.74 g/m*3 18.9 C 0 km/h
453 11-06-2003 03:38:01 18.9 C 14.74 g/m*3 18.9 C 0 km/h
454 11-06-2003 03:48:01 18.9 C 14.74 g/m*3 18.9 C 0 km/h
455 11-06-2003 03:58:01 18.8 C 14.66 g/m*3 18.8 C 0 km/h
456 11-06-2003 04:08:01 18.8 C 14.66 g/m*3 18.8 C 0 km/h
457 11-06-2003 04:18:01 18.8 C 14.66 g/m*3 18.8 C 0 km/h
458 11-06-2003 04:28:01 18.7 C 14.57 g/m*3 18.7 C 0 km/h
459 11-06-2003 04:38:01 18.6 C 14.48 g/m*3 18.6 C 0 km/h
460 11-06-2003 04:48:01 18.6 C 14.48 g/m*3 18.6 C 0 km/h
461 11-06-2003 04:58:01 18.6 C 14.48 g/m*3 18.6 C 0 km/h
462 11-06-2003 05:08:01 18.6 C 14.48 g/m*3 18.6 C 0 km/h
463 11-06-2003 05:18:01 18.7 C 14.57 g/m*3 18.7 C 0 km/h
464 11-06-2003 05:28:01 18.8 C 14.66 g/m*3 18.8 C 0 km/h
465 11-06-2003 05:38:01 19 C 14.67 g/m*3 19 C 0 km/h
466 11-06-2003 05:48:01 18.9 C 14.58 g/m*3 18.9 C 0 km/h
467 11-06-2003 05:58:01 19.3 C 14.76 g/m*3 19.3 C 0 km/h
468 11-06-2003 06:08:01 19.2 C 14.51 g/m*3 19.2 C 0 km/h
469 11-06-2003 06:18:01 19.2 C 14.51 g/m*3 19.2 C 0 km/h
470 11-06-2003 06:28:01 19.2 C 14.51 g/m*3 19.2 C 0 km/h
471 11-06-2003 06:38:01 19.3 C 14.6 g/m*3 19.3 C 0 km/h
472 11-06-2003 06:48:01 19.3 C 14.6 g/m*3 19.3 C 0 km/h
473 11-06-2003 06:58:01 19.4 C 14.52 g/m*3 19.4 C 0 km/h
474 11-06-2003 07:08:01 19.6 C 14.69 g/m*3 19.6 C 0 km/h
475 11-06-2003 07:18:01 19.7 C 14.77 g/m*3 19.7 C 0 km/h
Sensor: Nr:Datum:Temp:Abs-Feuchte:Windchill:Wind:
Aussen-T/F 476 11-06-2003 07:28:01 19.7 C 14.77 g/m*3 19.7 C 0 km/h
477 11-06-2003 07:38:01 19.7 C 14.77 g/m*3 19.7 C 0 km/h
478 11-06-2003 07:48:01 19.9 C 14.6 g/m*3 19.9 C 0 km/h
479 11-06-2003 07:58:01 20 C 14.52 g/m*3 20 C 0 km/h
480 11-06-2003 08:08:02 20.1 C 14.6 g/m*3 20.1 C 0 km/h
481 11-06-2003 08:18:02 20.1 C 14.6 g/m*3 20.1 C 0 km/h
482 11-06-2003 08:28:02 20.5 C 14.77 g/m*3 20.5 C 0 km/h
483 11-06-2003 08:58:02 20.9 C 14.39 g/m*3 20.9 C 0 km/h
484 11-06-2003 09:08:01 21.4 C 14.25 g/m*3 21.4 C 0 km/h
485 11-06-2003 09:08:02 21.4 C 14.25 g/m*3 21.4 C 0 km/h
486 11-06-2003 09:18:01 21.7 C 14.5 g/m*3 21.7 C 0 km/h
487 11-06-2003 09:28:01 22 C 13.78 g/m*3 22 C 0 km/h
488 11-06-2003 09:38:01 22.4 C 13.7 g/m*3 22.4 C 0 km/h
489 11-06-2003 09:48:01 22.7 C 13.54 g/m*3 22.7 C 0 km/h
490 11-06-2003 09:58:01 22.5 C 13.38 g/m*3 22.5 C 0 km/h
491 11-06-2003 10:08:01 22.8 C 13.41 g/m*3 22.8 C 0 km/h
492 11-06-2003 10:18:01 22.7 C 13.54 g/m*3 22.7 C 0 km/h
493 11-06-2003 10:28:01 23 C 13.77 g/m*3 23 C 0 km/h
494 11-06-2003 10:38:01 23.5 C 13.53 g/m*3 23.5 C 0 km/h
495 11-06-2003 10:48:01 24.2 C 12.98 g/m*3 24.2 C 0 km/h
496 11-06-2003 10:58:01 24.7 C 13.13 g/m*3 24.7 C 0 km/h
497 11-06-2003 11:08:01 25.1 C 12.5 g/m*3 25.1 C 0 km/h
498 11-06-2003 11:18:01 25.6 C 11.67 g/m*3 25.6 C 0 km/h
499 11-06-2003 11:28:01 25.3 C 11.71 g/m*3 25.3 C 0 km/h
500 11-06-2003 11:38:01 25.6 C 11.67 g/m*3 25.6 C 0 km/h
Sensor: Nr:Datum:Temp:Abs-Feuchte:Windchill:Wind:
Aussen-T/F 501 11-06-2003 11:48:01 25.1 C 10.88 g/m*3 25.1 C 0 km/h
502 11-06-2003 11:58:01 26.1 C 11.26 g/m*3 26.1 C 0 km/h
503 11-06-2003 12:08:01 25.9 C 10.65 g/m*3 25.9 C 0 km/h
504 11-06-2003 12:18:01 26.2 C 10.59 g/m*3 26.2 C 0 km/h
505 11-06-2003 12:28:01 27.5 C 10.58 g/m*3 27.5 C 0 km/h
506 11-06-2003 12:38:01 26.9 C 9.47 g/m*3 26.9 C 0 km/h
507 11-06-2003 12:48:01 27.3 C 9.16 g/m*3 27.3 C 0 km/h
508 11-06-2003 12:58:01 26.9 C 8.7 g/m*3 26.9 C 0 km/h
509 11-06-2003 13:08:01 27.7 C 8.83 g/m*3 27.7 C 0 km/h
510 11-06-2003 13:18:01 28.8 C 9.38 g/m*3 28.8 C 0 km/h
511 11-06-2003 13:28:01 27.8 C 8.61 g/m*3 27.8 C 0 km/h
512 11-06-2003 13:38:00 28.9 C 9.14 g/m*3 28.9 C 0 km/h
513 11-06-2003 13:48:00 28.3 C 9.12 g/m*3 28.3 C 0 km/h
514 11-06-2003 13:58:00 28 C 8.43 g/m*3 28 C 0 km/h
515 11-06-2003 14:08:01 27.7 C 8.83 g/m*3 27.7 C 0 km/h
516 11-06-2003 14:18:01 28.1 C 9.57 g/m*3 28.1 C 0 km/h
517 11-06-2003 14:28:01 28.3 C 9.4 g/m*3 28.3 C 0 km/h
518 11-06-2003 14:38:00 27.9 C 9.47 g/m*3 27.9 C 0 km/h
519 11-06-2003 14:48:00 28.1 C 9.3 g/m*3 28.1 C 0 km/h
520 11-06-2003 15:08:01 29.3 C 9.34 g/m*3 29.3 C 0 km/h
521 11-06-2003 15:18:01 29.4 C 9.1 g/m*3 29.4 C 0 km/h
522 11-06-2003 15:28:01 29.5 C 9.15 g/m*3 29.5 C 0 km/h
523 11-06-2003 15:38:01 29.2 C 9.29 g/m*3 29.2 C 0 km/h
524 11-06-2003 15:48:01 29.6 C 9.2 g/m*3 29.6 C 0 km/h
525 11-06-2003 15:58:01 29.5 C 8.85 g/m*3 29.5 C 0 km/h
Sensor: Nr:Datum:Temp:Abs-Feuchte:Windchill:Wind:
Aussen-T/F 526 11-06-2003 16:08:01 29.5 C 8.85 g/m*3 29.5 C 0 km/h
527 11-06-2003 16:18:01 29.6 C 8.9 g/m*3 29.6 C 0 km/h
528 11-06-2003 16:28:01 30 C 9.4 g/m*3 30 C 0 km/h
529 11-06-2003 16:38:02 30.1 C 9.15 g/m*3 30.1 C 0 km/h
530 11-06-2003 16:48:02 30.3 C 9.25 g/m*3 30.3 C 0 km/h
531 11-06-2003 16:58:02 30.6 C 9.4 g/m*3 30.6 C 0 km/h
532 11-06-2003 17:08:01 30.8 C 8.86 g/m*3 30.8 C 0 km/h
533 11-06-2003 17:18:01 30.3 C 8.94 g/m*3 30.3 C 0 km/h
534 11-06-2003 17:28:01 30.1 C 9.15 g/m*3 30.1 C 0 km/h
535 11-06-2003 17:38:02 30.1 C 9.45 g/m*3 30.1 C 0 km/h
536 11-06-2003 17:48:02 30 C 9.1 g/m*3 30 C 0 km/h
537 11-06-2003 17:58:02 30 C 8.79 g/m*3 30 C 0 km/h
538 11-06-2003 18:08:02 30.1 C 9.15 g/m*3 30.1 C 0 km/h
539 11-06-2003 18:18:02 30 C 8.79 g/m*3 30 C 0 km/h
540 11-06-2003 18:28:02 29.7 C 8.95 g/m*3 29.7 C 0 km/h
541 11-06-2003 18:38:01 29.4 C 9.39 g/m*3 29.4 C 0 km/h
542 11-06-2003 18:48:01 30 C 9.4 g/m*3 30 C 0 km/h
543 11-06-2003 18:58:01 29.9 C 9.35 g/m*3 29.9 C 0 km/h
544 11-06-2003 19:08:00 30 C 9.4 g/m*3 30 C 0 km/h
545 11-06-2003 19:18:00 30 C 9.4 g/m*3 30 C 0 km/h
546 11-06-2003 19:28:00 30 C 10.31 g/m*3 30 C 0 km/h
547 11-06-2003 19:37:44 30.3 C 10.48 g/m*3 30.3 C 0 km/h
548 11-06-2003 19:43:44 29.7 C 9.85 g/m*3 29.7 C 0 km/h
549 11-06-2003 19:49:44 29.9 C 10.56 g/m*3 29.9 C 0 km/h
550 11-06-2003 19:55:44 29 C 10.63 g/m*3 29 C 0 km/h
Sensor: Nr:Datum:Temp:Abs-Feuchte:Windchill:Wind:
Aussen-T/F 551 11-06-2003 20:01:01 29.2 C 11.03 g/m*3 29.2 C 0 km/h
552 11-06-2003 20:07:01 29.1 C 10.97 g/m*3 29.1 C 0 km/h
553 11-06-2003 20:13:01 29 C 11.2 g/m*3 29 C 0 km/h
554 11-06-2003 20:19:01 29 C 11.2 g/m*3 29 C 0 km/h
555 11-06-2003 20:25:01 28.4 C 11.12 g/m*3 28.4 C 0 km/h
556 11-06-2003 20:31:01 28.2 C 11.27 g/m*3 28.2 C 0 km/h
557 11-06-2003 20:37:02 28 C 11.42 g/m*3 28 C 0 km/h
558 11-06-2003 20:43:02 27.5 C 11.38 g/m*3 27.5 C 0 km/h
559 11-06-2003 20:49:02 27.3 C 11.51 g/m*3 27.3 C 0 km/h
560 11-06-2003 20:55:02 27.3 C 11.77 g/m*3 27.3 C 0 km/h
561 11-06-2003 21:01:02 26.8 C 11.71 g/m*3 26.8 C 0 km/h
562 11-06-2003 21:07:02 26.4 C 12.2 g/m*3 26.4 C 0 km/h
563 11-06-2003 21:19:02 25.6 C 12.62 g/m*3 25.6 C 0 km/h
564 11-06-2003 21:25:02 25.1 C 12.27 g/m*3 25.1 C 0 km/h
565 11-06-2003 21:31:02 24.8 C 12.29 g/m*3 24.8 C 0 km/h
566 11-06-2003 21:37:01 24.4 C 12.24 g/m*3 24.4 C 0 km/h
567 11-06-2003 21:43:01 23.9 C 12.11 g/m*3 23.9 C 0 km/h
568 11-06-2003 21:49:01 23.6 C 12.34 g/m*3 23.6 C 0 km/h
569 11-06-2003 21:55:01 23.5 C 12.48 g/m*3 23.5 C 0 km/h
570 11-06-2003 22:01:01 23.5 C 12.69 g/m*3 23.5 C 0 km/h
571 11-06-2003 22:08:02 23.2 C 12.27 g/m*3 23.2 C 0 km/h
572 11-06-2003 22:14:02 22.9 C 12.06 g/m*3 22.9 C 0 km/h
573 11-06-2003 22:20:02 22.7 C 11.92 g/m*3 22.7 C 0 km/h
574 11-06-2003 22:26:02 22.5 C 11.98 g/m*3 22.5 C 0 km/h
575 11-06-2003 22:32:02 22.1 C 11.91 g/m*3 22.1 C 0 km/h
Sensor: Nr:Datum:Temp:Abs-Feuchte:Windchill:Wind:
Aussen-T/F 576 11-06-2003 22:38:02 22 C 12.23 g/m*3 22 C 0 km/h
577 11-06-2003 22:44:02 21.9 C 11.96 g/m*3 21.9 C 0 km/h
578 11-06-2003 22:50:02 21.9 C 11.96 g/m*3 21.9 C 0 km/h
579 11-06-2003 22:56:02 21.7 C 12.02 g/m*3 21.7 C 0 km/h
580 11-06-2003 23:02:02 21.6 C 12.14 g/m*3 21.6 C 0 km/h
581 11-06-2003 23:08:02 21.6 C 12.14 g/m*3 21.6 C 0 km/h
582 11-06-2003 23:14:02 21.6 C 12.14 g/m*3 21.6 C 0 km/h
583 11-06-2003 23:20:02 21.6 C 11.95 g/m*3 21.6 C 0 km/h
584 11-06-2003 23:26:02 21.6 C 11.95 g/m*3 21.6 C 0 km/h
585 11-06-2003 23:32:02 21.6 C 11.95 g/m*3 21.6 C 0 km/h
586 11-06-2003 23:38:02 21.3 C 12.12 g/m*3 21.3 C 0 km/h
587 11-06-2003 23:44:02 21.2 C 12.05 g/m*3 21.2 C 0 km/h
588 11-06-2003 23:50:02 21 C 11.91 g/m*3 21 C 0 km/h
589 11-06-2003 23:56:02 20.8 C 12.13 g/m*3 20.8 C 0 km/h
590 12-06-2003 00:02:02 20.7 C 12.06 g/m*3 20.7 C 0 km/h
591 12-06-2003 00:08:02 20.6 C 12.17 g/m*3 20.6 C 0 km/h
592 12-06-2003 00:14:02 20.4 C 12.03 g/m*3 20.4 C 0 km/h
593 12-06-2003 00:20:02 20.4 C 12.03 g/m*3 20.4 C 0 km/h
594 12-06-2003 00:26:02 20.3 C 11.96 g/m*3 20.3 C 0 km/h
595 12-06-2003 00:32:02 20.1 C 12.17 g/m*3 20.1 C 0 km/h
596 12-06-2003 00:38:02 20 C 12.1 g/m*3 20 C 0 km/h
597 12-06-2003 00:44:02 19.8 C 12.3 g/m*3 19.8 C 0 km/h
598 12-06-2003 00:50:02 19.6 C 12.32 g/m*3 19.6 C 0 km/h
599 12-06-2003 00:56:02 19.5 C 12.25 g/m*3 19.5 C 0 km/h
600 12-06-2003 01:02:02 19.5 C 12.25 g/m*3 19.5 C 0 km/h
Sensor: Nr:Datum:Temp:Abs-Feuchte:Windchill:Wind:
Aussen-T/F 601 12-06-2003 01:08:02 19.5 C 12.25 g/m*3 19.5 C 0 km/h
602 12-06-2003 01:14:02 19.4 C 12.18 g/m*3 19.4 C 0 km/h
603 12-06-2003 01:20:02 19.3 C 12.11 g/m*3 19.3 C 0 km/h
604 12-06-2003 01:26:02 19.3 C 12.11 g/m*3 19.3 C 0 km/h
605 12-06-2003 01:32:02 19.2 C 12.04 g/m*3 19.2 C 0 km/h
606 12-06-2003 01:38:02 19.2 C 12.2 g/m*3 19.2 C 0 km/h
607 12-06-2003 01:44:02 19 C 12.22 g/m*3 19 C 0 km/h
608 12-06-2003 01:50:02 19 C 12.39 g/m*3 19 C 0 km/h
609 12-06-2003 01:56:02 18.7 C 12.33 g/m*3 18.7 C 0 km/h
610 12-06-2003 02:02:02 18.7 C 12.33 g/m*3 18.7 C 0 km/h
611 12-06-2003 02:08:02 18.5 C 12.34 g/m*3 18.5 C 0 km/h
612 12-06-2003 02:14:02 18.5 C 12.34 g/m*3 18.5 C 0 km/h
613 12-06-2003 02:20:02 18.4 C 12.27 g/m*3 18.4 C 0 km/h
614 12-06-2003 02:26:02 18.4 C 12.27 g/m*3 18.4 C 0 km/h
615 12-06-2003 02:32:02 18.2 C 12.28 g/m*3 18.2 C 0 km/h
616 12-06-2003 02:38:02 18.2 C 12.28 g/m*3 18.2 C 0 km/h
617 12-06-2003 02:44:02 18 C 12.13 g/m*3 18 C 0 km/h
618 12-06-2003 02:50:02 18.1 C 12.21 g/m*3 18.1 C 0 km/h
619 12-06-2003 02:56:02 18 C 12.13 g/m*3 18 C 0 km/h
620 12-06-2003 03:02:02 18 C 12.13 g/m*3 18 C 0 km/h
621 12-06-2003 03:08:02 18 C 12.13 g/m*3 18 C 0 km/h
622 12-06-2003 03:14:02 17.9 C 12.21 g/m*3 17.9 C 0 km/h
623 12-06-2003 03:20:02 17.9 C 12.21 g/m*3 17.9 C 0 km/h
624 12-06-2003 03:26:02 17.8 C 12.29 g/m*3 17.8 C 0 km/h
625 12-06-2003 03:32:02 17.7 C 12.22 g/m*3 17.7 C 0 km/h
Sensor: Nr:Datum:Temp:Abs-Feuchte:Windchill:Wind:
Aussen-T/F 626 12-06-2003 03:38:02 17.6 C 12.15 g/m*3 17.6 C 0 km/h
627 12-06-2003 03:44:02 17.5 C 12.23 g/m*3 17.5 C 0 km/h
628 12-06-2003 03:50:02 17.4 C 12.15 g/m*3 17.4 C 0 km/h
629 12-06-2003 03:56:02 17.3 C 11.93 g/m*3 17.3 C 0 km/h
630 12-06-2003 04:02:02 17.5 C 12.08 g/m*3 17.5 C 0 km/h
631 12-06-2003 04:08:02 17.4 C 12.15 g/m*3 17.4 C 0 km/h
632 12-06-2003 04:14:02 17.4 C 12.15 g/m*3 17.4 C 0 km/h
633 12-06-2003 04:20:02 17.3 C 12.08 g/m*3 17.3 C 0 km/h
634 12-06-2003 04:26:02 17.2 C 11.86 g/m*3 17.2 C 0 km/h
635 12-06-2003 04:32:02 17.2 C 11.86 g/m*3 17.2 C 0 km/h
636 12-06-2003 04:38:02 17.2 C 11.86 g/m*3 17.2 C 0 km/h
637 12-06-2003 04:44:02 17 C 11.72 g/m*3 17 C 0 km/h
638 12-06-2003 04:50:02 17 C 11.72 g/m*3 17 C 0 km/h
639 12-06-2003 04:56:02 16.9 C 11.94 g/m*3 16.9 C 0 km/h
640 12-06-2003 05:02:02 16.9 C 12.08 g/m*3 16.9 C 0 km/h
641 12-06-2003 05:08:02 16.7 C 11.94 g/m*3 16.7 C 0 km/h
642 12-06-2003 05:14:02 16.7 C 11.94 g/m*3 16.7 C 0 km/h
643 12-06-2003 05:20:02 16.7 C 11.94 g/m*3 16.7 C 0 km/h
644 12-06-2003 05:26:02 16.7 C 11.94 g/m*3 16.7 C 0 km/h
645 12-06-2003 05:32:02 16.7 C 11.94 g/m*3 16.7 C 0 km/h
646 12-06-2003 05:38:02 16.6 C 12.01 g/m*3 16.6 C 0 km/h
647 12-06-2003 05:44:02 16.6 C 11.87 g/m*3 16.6 C 0 km/h
648 12-06-2003 05:50:02 16.6 C 11.87 g/m*3 16.6 C 0 km/h
649 12-06-2003 05:56:02 16.7 C 12.08 g/m*3 16.7 C 0 km/h
650 12-06-2003 06:02:02 16.8 C 12.01 g/m*3 16.8 C 0 km/h
Sensor: Nr:Datum:Temp:Abs-Feuchte:Windchill:Wind:
Aussen-T/F 651 12-06-2003 06:08:02 16.9 C 12.08 g/m*3 16.9 C 0 km/h
652 12-06-2003 06:14:02 16.9 C 11.94 g/m*3 16.9 C 0 km/h
653 12-06-2003 06:20:02 17 C 12.01 g/m*3 17 C 0 km/h
654 12-06-2003 06:26:02 16.9 C 12.08 g/m*3 16.9 C 0 km/h
655 12-06-2003 06:32:02 16.8 C 12.01 g/m*3 16.8 C 0 km/h
656 12-06-2003 06:38:02 16.8 C 12.01 g/m*3 16.8 C 0 km/h
657 12-06-2003 06:44:02 16.7 C 11.94 g/m*3 16.7 C 0 km/h
658 12-06-2003 06:50:02 16.7 C 11.94 g/m*3 16.7 C 0 km/h
659 12-06-2003 06:56:02 16.8 C 12.15 g/m*3 16.8 C 0 km/h
660 12-06-2003 07:02:02 16.8 C 12.15 g/m*3 16.8 C 0 km/h
661 12-06-2003 07:08:02 17 C 12.15 g/m*3 17 C 0 km/h
662 12-06-2003 07:14:02 17.1 C 12.23 g/m*3 17.1 C 0 km/h
663 12-06-2003 07:20:02 17.2 C 12.3 g/m*3 17.2 C 0 km/h
664 12-06-2003 07:26:02 17.3 C 12.23 g/m*3 17.3 C 0 km/h
665 12-06-2003 07:32:01 17.4 C 12.15 g/m*3 17.4 C 0 km/h
666 12-06-2003 07:38:01 17.4 C 12.15 g/m*3 17.4 C 0 km/h
667 12-06-2003 07:44:01 17.6 C 12.3 g/m*3 17.6 C 0 km/h
668 12-06-2003 07:50:01 17.5 C 12.23 g/m*3 17.5 C 0 km/h
669 12-06-2003 07:56:01 17.7 C 12.22 g/m*3 17.7 C 0 km/h
670 12-06-2003 08:02:00 18 C 12.29 g/m*3 18 C 0 km/h
671 12-06-2003 08:08:00 18.1 C 12.36 g/m*3 18.1 C 0 km/h
672 12-06-2003 08:14:00 18.3 C 12.51 g/m*3 18.3 C 0 km/h
673 12-06-2003 08:20:00 18.5 C 12.5 g/m*3 18.5 C 0 km/h
674 12-06-2003 08:26:00 18.6 C 12.57 g/m*3 18.6 C 0 km/h
675 12-06-2003 08:32:01 18.7 C 12.49 g/m*3 18.7 C 0 km/h
Sensor: Nr:Datum:Temp:Abs-Feuchte:Windchill:Wind:
Aussen-T/F 676 12-06-2003 08:38:01 18.8 C 12.4 g/m*3 18.8 C 0 km/h
677 12-06-2003 08:44:01 19 C 12.39 g/m*3 19 C 0 km/h
678 12-06-2003 08:50:01 19.2 C 12.53 g/m*3 19.2 C 0 km/h
679 12-06-2003 08:56:01 19.4 C 12.51 g/m*3 19.4 C 0 km/h
680 12-06-2003 09:02:01 19.6 C 12.49 g/m*3 19.6 C 0 km/h
681 12-06-2003 09:08:01 19.9 C 12.54 g/m*3 19.9 C 0 km/h
682 12-06-2003 09:14:01 20.3 C 12.49 g/m*3 20.3 C 0 km/h
683 12-06-2003 09:20:01 20.8 C 12.86 g/m*3 20.8 C 0 km/h
684 12-06-2003 09:26:01 21.2 C 12.6 g/m*3 21.2 C 0 km/h
685 12-06-2003 09:32:02 21.5 C 12.07 g/m*3 21.5 C 0 km/h
686 12-06-2003 09:38:02 22 C 12.03 g/m*3 22 C 0 km/h
687 12-06-2003 09:44:02 22.3 C 12.05 g/m*3 22.3 C 0 km/h
688 12-06-2003 09:50:02 22.7 C 11.92 g/m*3 22.7 C 0 km/h
689 12-06-2003 09:56:02 22.9 C 12.06 g/m*3 22.9 C 0 km/h
690 12-06-2003 10:02:02 23.4 C 11.99 g/m*3 23.4 C 0 km/h
691 12-06-2003 10:08:02 23.8 C 12.05 g/m*3 23.8 C 0 km/h
692 12-06-2003 10:14:02 24.1 C 12.25 g/m*3 24.1 C 0 km/h
693 12-06-2003 10:20:02 24.1 C 11.6 g/m*3 24.1 C 0 km/h
694 12-06-2003 10:26:02 24.4 C 12.46 g/m*3 24.4 C 0 km/h
695 12-06-2003 10:32:01 24.8 C 12.97 g/m*3 24.8 C 0 km/h
696 12-06-2003 10:38:01 25 C 12.2 g/m*3 25 C 0 km/h
697 12-06-2003 10:44:01 25.3 C 12.17 g/m*3 25.3 C 0 km/h
698 12-06-2003 10:50:01 25.7 C 12.45 g/m*3 25.7 C 0 km/h
699 12-06-2003 10:56:01 26 C 12.17 g/m*3 26 C 0 km/h
700 12-06-2003 11:02:02 26.3 C 12.63 g/m*3 26.3 C 0 km/h
Sensor: Nr:Datum:Temp:Abs-Feuchte:Windchill:Wind:
Aussen-T/F 701 12-06-2003 11:08:02 26.6 C 12.59 g/m*3 26.6 C 0 km/h
702 12-06-2003 11:14:02 26.7 C 11.9 g/m*3 26.7 C 0 km/h
703 12-06-2003 11:20:02 27 C 12.1 g/m*3 27 C 0 km/h
704 12-06-2003 11:26:02 27.2 C 12.49 g/m*3 27.2 C 0 km/h
705 12-06-2003 11:32:01 27.5 C 12.7 g/m*3 27.5 C 0 km/h
706 12-06-2003 11:38:01 27.9 C 12.44 g/m*3 27.9 C 0 km/h
707 12-06-2003 11:44:01 27.9 C 12.17 g/m*3 27.9 C 0 km/h
708 12-06-2003 11:50:01 28.6 C 11.8 g/m*3 28.6 C 0 km/h
709 12-06-2003 11:56:01 29 C 12.35 g/m*3 29 C 0 km/h
710 12-06-2003 12:02:02 29.5 C 11.81 g/m*3 29.5 C 0 km/h
711 12-06-2003 12:08:02 29.7 C 11.34 g/m*3 29.7 C 0 km/h
712 12-06-2003 12:14:02 30 C 10.61 g/m*3 30 C 0 km/h
713 12-06-2003 12:20:02 30.4 C 10.85 g/m*3 30.4 C 0 km/h
714 12-06-2003 12:26:02 30.6 C 10.34 g/m*3 30.6 C 0 km/h
715 12-06-2003 12:32:01 30.9 C 10.5 g/m*3 30.9 C 0 km/h
716 12-06-2003 12:38:01 31 C 10.56 g/m*3 31 C 0 km/h
717 12-06-2003 12:44:01 30.9 C 9.55 g/m*3 30.9 C 0 km/h
718 12-06-2003 12:50:01 30.6 C 9.4 g/m*3 30.6 C 0 km/h
719 12-06-2003 12:56:01 31 C 9.28 g/m*3 31 C 0 km/h
720 12-06-2003 13:02:01 31.5 C 8.88 g/m*3 31.5 C 0 km/h
721 12-06-2003 13:08:01 31.6 C 8.26 g/m*3 31.6 C 0 km/h
722 12-06-2003 13:14:01 32 C 8.44 g/m*3 32 C 0 km/h
723 12-06-2003 13:20:01 32.2 C 8.53 g/m*3 32.2 C 0 km/h
724 12-06-2003 13:26:01 31.6 C 9.58 g/m*3 31.6 C 0 km/h
725 12-06-2003 13:32:01 32 C 9.11 g/m*3 32 C 0 km/h
Sensor: Nr:Datum:Temp:Abs-Feuchte:Windchill:Wind:
Aussen-T/F 726 12-06-2003 13:38:01 31.9 C 8.73 g/m*3 31.9 C 0 km/h
727 12-06-2003 13:44:01 32.3 C 8.58 g/m*3 32.3 C 0 km/h
728 12-06-2003 13:50:01 31.9 C 8.73 g/m*3 31.9 C 0 km/h
729 12-06-2003 13:56:01 31.7 C 8.97 g/m*3 31.7 C 0 km/h
730 12-06-2003 14:02:02 31.5 C 8.88 g/m*3 31.5 C 0 km/h
731 12-06-2003 14:08:02 31.3 C 9.43 g/m*3 31.3 C 0 km/h
732 12-06-2003 14:14:02 31.5 C 9.86 g/m*3 31.5 C 0 km/h
733 12-06-2003 14:20:02 31.8 C 10.02 g/m*3 31.8 C 0 km/h
734 12-06-2003 14:26:02 31.9 C 9.74 g/m*3 31.9 C 0 km/h
735 12-06-2003 14:32:01 31.8 C 9.69 g/m*3 31.8 C 0 km/h
736 12-06-2003 14:38:01 31.8 C 9.35 g/m*3 31.8 C 0 km/h
737 12-06-2003 14:44:01 31.8 C 9.69 g/m*3 31.8 C 0 km/h
738 12-06-2003 14:50:01 32 C 9.79 g/m*3 32 C 0 km/h
739 12-06-2003 14:56:01 32 C 9.79 g/m*3 32 C 0 km/h
740 12-06-2003 15:02:02 32.3 C 9.6 g/m*3 32.3 C 0 km/h
741 12-06-2003 15:08:02 32 C 9.11 g/m*3 32 C 0 km/h
742 12-06-2003 15:14:02 32 C 9.79 g/m*3 32 C 0 km/h
743 12-06-2003 15:20:02 31.8 C 9.35 g/m*3 31.8 C 0 km/h
744 12-06-2003 15:26:02 32.1 C 10.18 g/m*3 32.1 C 0 km/h
745 12-06-2003 15:32:01 32.1 C 9.84 g/m*3 32.1 C 0 km/h
746 12-06-2003 15:38:01 32 C 9.45 g/m*3 32 C 0 km/h
747 12-06-2003 15:44:01 32.1 C 9.84 g/m*3 32.1 C 0 km/h
748 12-06-2003 15:50:01 32.3 C 9.6 g/m*3 32.3 C 0 km/h
749 12-06-2003 15:56:01 32.5 C 9.71 g/m*3 32.5 C 0 km/h
750 12-06-2003 16:02:01 32.8 C 9.51 g/m*3 32.8 C 0 km/h
Sensor: Nr:Datum:Temp:Abs-Feuchte:Windchill:Wind:
Aussen-T/F 751 12-06-2003 16:08:01 32.8 C 9.16 g/m*3 32.8 C 0 km/h
752 12-06-2003 16:14:01 32.8 C 9.16 g/m*3 32.8 C 0 km/h
753 12-06-2003 16:20:01 32.5 C 9.71 g/m*3 32.5 C 0 km/h
754 12-06-2003 16:26:01 32 C 10.47 g/m*3 32 C 0 km/h
755 12-06-2003 16:32:20 31.5 C 10.52 g/m*3 31.5 C 0 km/h
756 12-06-2003 16:38:20 31 C 11.2 g/m*3 31 C 0 km/h
757 12-06-2003 16:44:20 30.6 C 11.59 g/m*3 30.6 C 0 km/h
758 12-06-2003 16:50:20 29.7 C 12.23 g/m*3 29.7 C 0 km/h
759 12-06-2003 16:56:45 27.4 C 13.94 g/m*3 27.4 C 0 km/h
760 12-06-2003 17:02:45 24.2 C 16.06 g/m*3 24.2 C 0 km/h
761 12-06-2003 17:08:45 23.1 C 16.54 g/m*3 23.1 C 0 km/h
762 12-06-2003 17:14:01 22.9 C 16.96 g/m*3 22.9 C 0 km/h
763 12-06-2003 17:20:01 23.1 C 17.78 g/m*3 23.1 C 0 km/h
764 12-06-2003 17:26:01 23.4 C 17.87 g/m*3 23.4 C 0 km/h
765 12-06-2003 17:32:21 23.8 C 17.85 g/m*3 23.8 C 0 km/h
766 12-06-2003 17:38:21 24.1 C 17.29 g/m*3 24.1 C 0 km/h
767 12-06-2003 17:50:02 24.4 C 17.36 g/m*3 24.4 C 0 km/h
768 12-06-2003 17:56:02 24.4 C 16.91 g/m*3 24.4 C 0 km/h
769 12-06-2003 18:03:02 24.5 C 17.46 g/m*3 24.5 C 0 km/h
770 12-06-2003 18:09:02 25.1 C 17.59 g/m*3 25.1 C 0 km/h
771 12-06-2003 18:15:02 25.4 C 17.42 g/m*3 25.4 C 0 km/h
772 12-06-2003 18:21:02 25.4 C 17.42 g/m*3 25.4 C 0 km/h
773 12-06-2003 18:27:02 25.7 C 17.72 g/m*3 25.7 C 0 km/h
774 12-06-2003 18:33:02 25.8 C 17.82 g/m*3 25.8 C 0 km/h
775 12-06-2003 18:39:02 25.6 C 17.14 g/m*3 25.6 C 0 km/h
Sensor: Nr:Datum:Temp:Abs-Feuchte:Windchill:Wind:
Aussen-T/F 776 12-06-2003 18:45:02 25.3 C 17.32 g/m*3 25.3 C 0 km/h
777 12-06-2003 18:51:02 25.2 C 17.23 g/m*3 25.2 C 0 km/h
778 12-06-2003 18:57:02 24.9 C 16.71 g/m*3 24.9 C 0 km/h
779 12-06-2003 19:03:02 24.8 C 17.3 g/m*3 24.8 C 0 km/h
780 12-06-2003 19:09:02 24.6 C 16.43 g/m*3 24.6 C 0 km/h
781 12-06-2003 19:15:02 24.6 C 16.66 g/m*3 24.6 C 0 km/h
782 12-06-2003 19:21:02 24.5 C 16.56 g/m*3 24.5 C 0 km/h
783 12-06-2003 19:27:02 24 C 16.32 g/m*3 24 C 0 km/h
784 12-06-2003 19:33:02 23.6 C 16.16 g/m*3 23.6 C 0 km/h
785 12-06-2003 19:39:02 23.3 C 15.47 g/m*3 23.3 C 0 km/h
786 12-06-2003 19:45:02 23.2 C 15.38 g/m*3 23.2 C 0 km/h
787 12-06-2003 19:51:02 22.9 C 15.33 g/m*3 22.9 C 0 km/h
788 12-06-2003 19:57:02 22.8 C 15.24 g/m*3 22.8 C 0 km/h
789 12-06-2003 20:03:02 23.2 C 15.8 g/m*3 23.2 C 0 km/h
790 12-06-2003 20:09:02 23.2 C 15.8 g/m*3 23.2 C 0 km/h
791 12-06-2003 20:15:02 23.3 C 15.89 g/m*3 23.3 C 0 km/h
792 12-06-2003 20:21:02 23.2 C 15.8 g/m*3 23.2 C 0 km/h
793 12-06-2003 20:27:02 23.1 C 15.92 g/m*3 23.1 C 0 km/h
794 12-06-2003 20:33:02 23.2 C 16.22 g/m*3 23.2 C 0 km/h
795 12-06-2003 20:39:02 23.1 C 16.33 g/m*3 23.1 C 0 km/h
796 12-06-2003 20:45:02 23.1 C 16.33 g/m*3 23.1 C 0 km/h
797 12-06-2003 20:51:02 23 C 16.24 g/m*3 23 C 0 km/h
798 12-06-2003 20:57:02 23 C 16.24 g/m*3 23 C 0 km/h
799 12-06-2003 21:03:02 22.8 C 16.26 g/m*3 22.8 C 0 km/h
800 12-06-2003 21:09:02 22.6 C 16.27 g/m*3 22.6 C 0 km/h
Sensor: Nr:Datum:Temp:Abs-Feuchte:Windchill:Wind:
Aussen-T/F 801 12-06-2003 21:15:02 22.5 C 16.38 g/m*3 22.5 C 0 km/h
802 12-06-2003 21:21:02 22.4 C 16.28 g/m*3 22.4 C 0 km/h
803 12-06-2003 21:27:02 22.5 C 16.58 g/m*3 22.5 C 0 km/h
804 12-06-2003 21:33:02 22.5 C 16.98 g/m*3 22.5 C 0 km/h
805 12-06-2003 21:39:02 22 C 16.89 g/m*3 22 C 0 km/h
806 12-06-2003 21:45:02 21.8 C 17.08 g/m*3 21.8 C 0 km/h
807 12-06-2003 21:51:02 21.3 C 16.78 g/m*3 21.3 C 0 km/h
808 12-06-2003 21:57:02 21.4 C 17.06 g/m*3 21.4 C 0 km/h
809 12-06-2003 22:03:02 21.1 C 16.77 g/m*3 21.1 C 0 km/h
810 12-06-2003 22:09:02 20.8 C 16.48 g/m*3 20.8 C 0 km/h
811 12-06-2003 22:15:02 20.7 C 16.38 g/m*3 20.7 C 0 km/h
812 12-06-2003 22:21:02 20.8 C 16.48 g/m*3 20.8 C 0 km/h
813 12-06-2003 22:27:02 20.7 C 16.38 g/m*3 20.7 C 0 km/h
814 12-06-2003 22:33:02 20.6 C 16.29 g/m*3 20.6 C 0 km/h
815 12-06-2003 22:39:02 20.4 C 16.1 g/m*3 20.4 C 0 km/h
816 12-06-2003 22:45:02 20.4 C 16.1 g/m*3 20.4 C 0 km/h
817 12-06-2003 22:57:02 20.1 C 15.82 g/m*3 20.1 C 0 km/h
818 12-06-2003 23:03:02 20 C 15.55 g/m*3 20 C 0 km/h
819 12-06-2003 23:09:02 20 C 15.55 g/m*3 20 C 0 km/h
820 12-06-2003 23:15:02 20 C 15.55 g/m*3 20 C 0 km/h
821 12-06-2003 23:21:02 19.9 C 15.63 g/m*3 19.9 C 0 km/h
822 12-06-2003 23:27:02 19.9 C 15.63 g/m*3 19.9 C 0 km/h
823 12-06-2003 23:33:02 20 C 15.55 g/m*3 20 C 0 km/h
824 12-06-2003 23:39:02 19.9 C 15.63 g/m*3 19.9 C 0 km/h
825 12-06-2003 23:45:02 19.9 C 15.63 g/m*3 19.9 C 0 km/h
Sensor: Nr:Datum:Temp:Abs-Feuchte:Windchill:Wind:
Aussen-T/F 826 12-06-2003 23:51:02 19.8 C 15.54 g/m*3 19.8 C 0 km/h
827 12-06-2003 23:57:02 19.8 C 15.54 g/m*3 19.8 C 0 km/h
828 13-06-2003 00:03:02 19.8 C 15.54 g/m*3 19.8 C 0 km/h
829 13-06-2003 00:09:02 19.8 C 15.54 g/m*3 19.8 C 0 km/h
830 13-06-2003 00:15:02 19.8 C 15.54 g/m*3 19.8 C 0 km/h
831 13-06-2003 00:21:02 19.7 C 15.45 g/m*3 19.7 C 0 km/h
832 13-06-2003 00:27:02 19.7 C 15.45 g/m*3 19.7 C 0 km/h
833 13-06-2003 00:33:02 19.7 C 15.45 g/m*3 19.7 C 0 km/h
834 13-06-2003 00:39:02 19.7 C 15.79 g/m*3 19.7 C 0 km/h
835 13-06-2003 00:45:02 19.7 C 15.45 g/m*3 19.7 C 0 km/h
836 13-06-2003 00:51:02 19.5 C 15.27 g/m*3 19.5 C 0 km/h
837 13-06-2003 00:57:02 19.5 C 15.27 g/m*3 19.5 C 0 km/h
838 13-06-2003 01:03:02 19.4 C 15.02 g/m*3 19.4 C 0 km/h
839 13-06-2003 01:09:02 19.3 C 14.93 g/m*3 19.3 C 0 km/h
840 13-06-2003 01:15:02 19.3 C 14.93 g/m*3 19.3 C 0 km/h
841 13-06-2003 01:21:02 19.2 C 14.84 g/m*3 19.2 C 0 km/h
842 13-06-2003 01:27:02 19 C 14.5 g/m*3 19 C 0 km/h
843 13-06-2003 01:33:02 18.9 C 14.42 g/m*3 18.9 C 0 km/h
844 13-06-2003 01:39:02 18.7 C 13.93 g/m*3 18.7 C 0 km/h
845 13-06-2003 01:45:02 18.6 C 13.85 g/m*3 18.6 C 0 km/h
846 13-06-2003 01:51:02 18.5 C 13.77 g/m*3 18.5 C 0 km/h
847 13-06-2003 01:57:02 18.4 C 13.68 g/m*3 18.4 C 0 km/h
848 13-06-2003 02:03:02 18.3 C 13.6 g/m*3 18.3 C 0 km/h
849 13-06-2003 02:09:02 18.2 C 13.37 g/m*3 18.2 C 0 km/h
850 13-06-2003 02:15:02 18.2 C 13.37 g/m*3 18.2 C 0 km/h
Sensor: Nr:Datum:Temp:Abs-Feuchte:Windchill:Wind:
Aussen-T/F 851 13-06-2003 02:21:02 18.2 C 13.37 g/m*3 18.2 C 0 km/h
852 13-06-2003 02:27:02 18.1 C 13.13 g/m*3 18.1 C 0 km/h
853 13-06-2003 02:33:02 18 C 12.75 g/m*3 18 C 0 km/h
854 13-06-2003 02:39:02 17.9 C 12.98 g/m*3 17.9 C 0 km/h
855 13-06-2003 02:45:02 17.6 C 12.75 g/m*3 17.6 C 0 km/h
856 13-06-2003 02:51:02 17.5 C 12.67 g/m*3 17.5 C 0 km/h
857 13-06-2003 02:57:02 17.4 C 12.6 g/m*3 17.4 C 0 km/h
858 13-06-2003 03:03:02 17.3 C 12.52 g/m*3 17.3 C 0 km/h
859 13-06-2003 03:09:02 17.4 C 12.45 g/m*3 17.4 C 0 km/h
860 13-06-2003 03:15:02 17.2 C 12.45 g/m*3 17.2 C 0 km/h
861 13-06-2003 03:21:02 17.2 C 12.3 g/m*3 17.2 C 0 km/h
862 13-06-2003 03:27:02 17 C 12.15 g/m*3 17 C 0 km/h
863 13-06-2003 03:33:02 16.9 C 12.37 g/m*3 16.9 C 0 km/h
864 13-06-2003 03:39:02 16.9 C 12.37 g/m*3 16.9 C 0 km/h
865 13-06-2003 03:45:02 16.8 C 12.3 g/m*3 16.8 C 0 km/h
866 13-06-2003 03:51:02 16.7 C 12.22 g/m*3 16.7 C 0 km/h
867 13-06-2003 03:57:02 16.7 C 12.22 g/m*3 16.7 C 0 km/h
868 13-06-2003 04:03:02 16.7 C 12.36 g/m*3 16.7 C 0 km/h
869 13-06-2003 04:09:02 16.7 C 12.36 g/m*3 16.7 C 0 km/h
870 13-06-2003 04:15:02 16.7 C 12.22 g/m*3 16.7 C 0 km/h
871 13-06-2003 04:21:02 16.8 C 12.01 g/m*3 16.8 C 0 km/h
872 13-06-2003 04:27:02 16.8 C 12.01 g/m*3 16.8 C 0 km/h
873 13-06-2003 04:33:02 16.6 C 12.01 g/m*3 16.6 C 0 km/h
874 13-06-2003 04:39:02 16.6 C 11.87 g/m*3 16.6 C 0 km/h
875 13-06-2003 04:45:02 16.6 C 11.87 g/m*3 16.6 C 0 km/h
Sensor: Nr:Datum:Temp:Abs-Feuchte:Windchill:Wind:
Aussen-T/F 876 13-06-2003 04:51:02 16.7 C 11.8 g/m*3 16.7 C 0 km/h
877 13-06-2003 04:57:02 16.7 C 11.8 g/m*3 16.7 C 0 km/h
878 13-06-2003 05:03:02 16.6 C 11.87 g/m*3 16.6 C 0 km/h
879 13-06-2003 05:09:02 16.6 C 11.87 g/m*3 16.6 C 0 km/h
880 13-06-2003 05:15:02 16.6 C 11.72 g/m*3 16.6 C 0 km/h
881 13-06-2003 05:21:02 16.6 C 11.58 g/m*3 16.6 C 0 km/h
882 13-06-2003 05:27:02 16.6 C 11.58 g/m*3 16.6 C 0 km/h
883 13-06-2003 05:33:02 16.6 C 11.72 g/m*3 16.6 C 0 km/h
884 13-06-2003 05:39:02 16.6 C 11.58 g/m*3 16.6 C 0 km/h
885 13-06-2003 05:45:02 16.5 C 11.65 g/m*3 16.5 C 0 km/h
886 13-06-2003 05:51:02 16.6 C 11.72 g/m*3 16.6 C 0 km/h
887 13-06-2003 05:57:02 16.6 C 11.58 g/m*3 16.6 C 0 km/h
888 13-06-2003 06:03:02 16.7 C 11.65 g/m*3 16.7 C 0 km/h
889 13-06-2003 06:09:02 16.7 C 11.8 g/m*3 16.7 C 0 km/h
890 13-06-2003 06:15:02 16.7 C 11.8 g/m*3 16.7 C 0 km/h
891 13-06-2003 06:21:02 16.6 C 11.72 g/m*3 16.6 C 0 km/h
892 13-06-2003 06:27:02 16.6 C 11.87 g/m*3 16.6 C 0 km/h
893 13-06-2003 06:33:02 16.6 C 11.87 g/m*3 16.6 C 0 km/h
894 13-06-2003 06:39:02 16.6 C 11.87 g/m*3 16.6 C 0 km/h
895 13-06-2003 06:45:02 16.7 C 11.94 g/m*3 16.7 C 0 km/h
896 13-06-2003 06:51:02 16.8 C 12.01 g/m*3 16.8 C 0 km/h
897 13-06-2003 06:57:02 16.9 C 12.23 g/m*3 16.9 C 0 km/h
898 13-06-2003 07:03:02 17 C 12.15 g/m*3 17 C 0 km/h
899 13-06-2003 07:09:02 17 C 12.15 g/m*3 17 C 0 km/h
900 13-06-2003 07:15:02 17.1 C 12.23 g/m*3 17.1 C 0 km/h
Sensor: Nr:Datum:Temp:Abs-Feuchte:Windchill:Wind:
Aussen-T/F 901 13-06-2003 07:21:02 17.2 C 12.15 g/m*3 17.2 C 0 km/h
902 13-06-2003 07:27:02 17.3 C 12.23 g/m*3 17.3 C 0 km/h
903 13-06-2003 07:33:00 17.4 C 12.15 g/m*3 17.4 C 0 km/h
904 13-06-2003 07:39:00 17.6 C 12.3 g/m*3 17.6 C 0 km/h
905 13-06-2003 07:45:00 17.5 C 12.08 g/m*3 17.5 C 0 km/h
906 13-06-2003 07:51:00 17.7 C 12.07 g/m*3 17.7 C 0 km/h
907 13-06-2003 07:57:00 17.7 C 11.77 g/m*3 17.7 C 0 km/h
908 13-06-2003 08:03:01 17.6 C 11.7 g/m*3 17.6 C 0 km/h
909 13-06-2003 08:09:01 17.6 C 11.85 g/m*3 17.6 C 0 km/h
910 13-06-2003 08:15:01 17.9 C 11.91 g/m*3 17.9 C 0 km/h
911 13-06-2003 08:21:01 18 C 11.52 g/m*3 18 C 0 km/h
912 13-06-2003 08:27:01 18.2 C 11.66 g/m*3 18.2 C 0 km/h
913 13-06-2003 08:39:01 18.6 C 11.78 g/m*3 18.6 C 0 km/h
914 13-06-2003 08:45:01 18.6 C 11.78 g/m*3 18.6 C 0 km/h
915 13-06-2003 08:51:01 18.8 C 11.92 g/m*3 18.8 C 0 km/h
916 13-06-2003 08:57:01 19.1 C 11.97 g/m*3 19.1 C 0 km/h
917 13-06-2003 09:03:01 19.4 C 11.85 g/m*3 19.4 C 0 km/h
918 13-06-2003 09:09:01 19.6 C 11.65 g/m*3 19.6 C 0 km/h
919 13-06-2003 09:15:01 19.2 C 11.54 g/m*3 19.2 C 0 km/h
920 13-06-2003 09:21:01 19.3 C 11.78 g/m*3 19.3 C 0 km/h
921 13-06-2003 09:27:01 19.6 C 12.15 g/m*3 19.6 C 0 km/h
922 13-06-2003 09:33:01 19.8 C 11.79 g/m*3 19.8 C 0 km/h
923 13-06-2003 09:39:01 20 C 11.75 g/m*3 20 C 0 km/h
924 13-06-2003 09:45:01 19.9 C 11.51 g/m*3 19.9 C 0 km/h
925 13-06-2003 09:51:01 19.7 C 11.38 g/m*3 19.7 C 0 km/h
Sensor: Nr:Datum:Temp:Abs-Feuchte:Windchill:Wind:
Aussen-T/F 926 13-06-2003 09:57:01 19.8 C 11.44 g/m*3 19.8 C 0 km/h
927 13-06-2003 10:09:55 20.5 C 11.74 g/m*3 20.5 C 0 km/h
928 13-06-2003 10:15:03 20.8 C 11.59 g/m*3 20.8 C 0 km/h
929 13-06-2003 10:21:03 21.6 C 12.14 g/m*3 21.6 C 0 km/h
930 13-06-2003 10:27:03 21.8 C 11.7 g/m*3 21.8 C 0 km/h
931 13-06-2003 10:33:01 21.6 C 11.57 g/m*3 21.6 C 0 km/h
932 13-06-2003 10:39:01 21.7 C 11.45 g/m*3 21.7 C 0 km/h
933 13-06-2003 10:45:01 21.9 C 11.58 g/m*3 21.9 C 0 km/h
934 13-06-2003 10:51:01 22.5 C 12.18 g/m*3 22.5 C 0 km/h
935 13-06-2003 10:57:01 22.5 C 11.58 g/m*3 22.5 C 0 km/h
936 13-06-2003 11:03:01 22.7 C 11.72 g/m*3 22.7 C 0 km/h
937 13-06-2003 11:09:01 22.9 C 11.85 g/m*3 22.9 C 0 km/h
938 13-06-2003 11:15:01 23.4 C 11.99 g/m*3 23.4 C 0 km/h
939 13-06-2003 11:21:01 22.9 C 11.85 g/m*3 22.9 C 0 km/h
940 13-06-2003 11:27:01 23.2 C 11.85 g/m*3 23.2 C 0 km/h
941 13-06-2003 11:33:01 23.6 C 12.34 g/m*3 23.6 C 0 km/h
942 13-06-2003 11:39:01 23.1 C 11.37 g/m*3 23.1 C 0 km/h
943 13-06-2003 11:45:01 23.7 C 12.19 g/m*3 23.7 C 0 km/h
944 13-06-2003 11:51:01 23.5 C 11.42 g/m*3 23.5 C 0 km/h
945 13-06-2003 11:57:01 23.5 C 11.84 g/m*3 23.5 C 0 km/h
946 13-06-2003 12:03:02 23.6 C 11.7 g/m*3 23.6 C 0 km/h
947 13-06-2003 12:09:02 24.4 C 11.79 g/m*3 24.4 C 0 km/h
948 13-06-2003 12:15:02 25.2 C 12.57 g/m*3 25.2 C 0 km/h
949 13-06-2003 12:21:02 25.9 C 12.1 g/m*3 25.9 C 0 km/h
950 13-06-2003 12:27:02 25.1 C 11.34 g/m*3 25.1 C 0 km/h
Sensor: Nr:Datum:Temp:Abs-Feuchte:Windchill:Wind:
Aussen-T/F 951 13-06-2003 12:33:01 25.7 C 11.49 g/m*3 25.7 C 0 km/h
952 13-06-2003 12:39:01 25.9 C 11.14 g/m*3 25.9 C 0 km/h
953 13-06-2003 12:45:01 25.3 C 11 g/m*3 25.3 C 0 km/h
954 13-06-2003 12:51:01 26.9 C 11.52 g/m*3 26.9 C 0 km/h
955 13-06-2003 12:57:01 27.7 C 11.23 g/m*3 27.7 C 0 km/h
956 13-06-2003 13:03:01 28.5 C 11.74 g/m*3 28.5 C 0 km/h
957 13-06-2003 13:09:01 28.3 C 10.78 g/m*3 28.3 C 0 km/h
958 13-06-2003 13:15:01 28.3 C 10.78 g/m*3 28.3 C 0 km/h
959 13-06-2003 13:21:01 28.3 C 9.95 g/m*3 28.3 C 0 km/h
960 13-06-2003 13:27:01 27.9 C 11.09 g/m*3 27.9 C 0 km/h
961 13-06-2003 13:33:01 27.8 C 10.49 g/m*3 27.8 C 0 km/h
962 13-06-2003 13:39:01 27.8 C 10.22 g/m*3 27.8 C 0 km/h
963 13-06-2003 13:45:01 28.6 C 10.4 g/m*3 28.6 C 0 km/h
964 13-06-2003 13:51:01 26.7 C 10.38 g/m*3 26.7 C 0 km/h
965 13-06-2003 13:57:01 26.3 C 10.4 g/m*3 26.3 C 0 km/h
966 13-06-2003 14:03:02 26.8 C 10.18 g/m*3 26.8 C 0 km/h
967 13-06-2003 14:09:02 27.4 C 9.74 g/m*3 27.4 C 0 km/h
968 13-06-2003 14:15:02 27.5 C 10.05 g/m*3 27.5 C 0 km/h
969 13-06-2003 14:21:02 27.5 C 10.05 g/m*3 27.5 C 0 km/h
970 13-06-2003 14:27:02 27.4 C 10 g/m*3 27.4 C 0 km/h
971 13-06-2003 14:33:01 27.9 C 10.82 g/m*3 27.9 C 0 km/h
972 13-06-2003 14:39:01 27.9 C 10.01 g/m*3 27.9 C 0 km/h
973 13-06-2003 14:45:01 28.5 C 10.06 g/m*3 28.5 C 0 km/h
974 13-06-2003 14:51:01 28.9 C 10 g/m*3 28.9 C 0 km/h
975 13-06-2003 14:57:01 28.3 C 9.68 g/m*3 28.3 C 0 km/h
Sensor: Nr:Datum:Temp:Abs-Feuchte:Windchill:Wind:
Aussen-T/F 976 13-06-2003 15:03:01 28.9 C 10 g/m*3 28.9 C 0 km/h
977 13-06-2003 15:09:01 28.4 C 9.73 g/m*3 28.4 C 0 km/h
978 13-06-2003 15:15:01 28.8 C 9.94 g/m*3 28.8 C 0 km/h
979 13-06-2003 15:21:01 29.3 C 9.34 g/m*3 29.3 C 0 km/h
980 13-06-2003 15:27:01 29.7 C 9.55 g/m*3 29.7 C 0 km/h
981 13-06-2003 15:33:01 30.3 C 9.55 g/m*3 30.3 C 0 km/h
982 13-06-2003 15:39:01 30.4 C 9.3 g/m*3 30.4 C 0 km/h
983 13-06-2003 15:45:01 30.6 C 9.4 g/m*3 30.6 C 0 km/h
984 13-06-2003 15:51:01 30.9 C 9.23 g/m*3 30.9 C 0 km/h
985 13-06-2003 15:57:01 30.4 C 8.68 g/m*3 30.4 C 0 km/h
986 13-06-2003 16:03:01 30.6 C 8.46 g/m*3 30.6 C 0 km/h
987 13-06-2003 16:09:01 30.3 C 8.94 g/m*3 30.3 C 0 km/h
988 13-06-2003 16:15:01 30.1 C 8.54 g/m*3 30.1 C 0 km/h
989 13-06-2003 16:21:01 30.1 C 8.84 g/m*3 30.1 C 0 km/h
990 13-06-2003 16:27:01 30.3 C 9.25 g/m*3 30.3 C 0 km/h
991 13-06-2003 16:33:00 31 C 8.64 g/m*3 31 C 0 km/h
992 13-06-2003 16:39:00 31.2 C 8.09 g/m*3 31.2 C 0 km/h
993 13-06-2003 16:45:00 30.8 C 8.23 g/m*3 30.8 C 0 km/h
994 13-06-2003 16:51:00 30.6 C 7.83 g/m*3 30.6 C 0 km/h
995 13-06-2003 16:57:00 30.8 C 8.23 g/m*3 30.8 C 0 km/h
996 13-06-2003 17:03:08 30.8 C 8.23 g/m*3 30.8 C 0 km/h
997 13-06-2003 17:09:08 30.6 C 8.14 g/m*3 30.6 C 0 km/h
998 13-06-2003 17:15:08 30.3 C 7.7 g/m*3 30.3 C 0 km/h
999 13-06-2003 17:21:08 30.6 C 7.83 g/m*3 30.6 C 0 km/h
1000 13-06-2003 17:27:02 31 C 8 g/m*3 31 C 0 km/h
Sensor: Nr:Datum:Temp:Abs-Feuchte:Windchill:Wind:
Aussen-T/F 1001 13-06-2003 17:33:00 31 C 7.68 g/m*3 31 C 0 km/h
1002 13-06-2003 17:39:00 30 C 7.58 g/m*3 30 C 0 km/h
1003 13-06-2003 17:45:00 30.3 C 8.01 g/m*3 30.3 C 0 km/h
1004 13-06-2003 17:51:00 30.4 C 8.37 g/m*3 30.4 C 0 km/h
1005 13-06-2003 17:57:00 30.9 C 7.96 g/m*3 30.9 C 0 km/h
1006 13-06-2003 18:03:01 30.7 C 7.56 g/m*3 30.7 C 0 km/h
1007 13-06-2003 18:09:01 30.4 C 7.75 g/m*3 30.4 C 0 km/h
1008 13-06-2003 18:15:01 30.4 C 7.75 g/m*3 30.4 C 0 km/h
1009 13-06-2003 18:21:01 30.4 C 8.06 g/m*3 30.4 C 0 km/h
1010 13-06-2003 18:27:01 31 C 7.36 g/m*3 31 C 0 km/h
1011 13-06-2003 18:33:01 31.3 C 7.48 g/m*3 31.3 C 0 km/h
1012 13-06-2003 18:39:01 31.4 C 7.19 g/m*3 31.4 C 0 km/h
1013 13-06-2003 18:45:01 31.3 C 7.15 g/m*3 31.3 C 0 km/h
1014 13-06-2003 18:51:01 30.7 C 7.24 g/m*3 30.7 C 0 km/h
1015 13-06-2003 18:57:01 30.5 C 7.17 g/m*3 30.5 C 0 km/h
1016 13-06-2003 19:03:01 30.6 C 7.2 g/m*3 30.6 C 0 km/h
1017 13-06-2003 19:09:01 30.4 C 7.44 g/m*3 30.4 C 0 km/h
1018 13-06-2003 19:15:01 30.4 C 7.75 g/m*3 30.4 C 0 km/h
1019 13-06-2003 19:21:01 30.4 C 7.75 g/m*3 30.4 C 0 km/h
1020 13-06-2003 19:27:01 30 C 7.28 g/m*3 30 C 0 km/h
1021 13-06-2003 19:33:00 30 C 7.28 g/m*3 30 C 0 km/h
1022 13-06-2003 19:39:00 30.4 C 7.75 g/m*3 30.4 C 0 km/h
1023 13-06-2003 19:45:00 30.4 C 7.13 g/m*3 30.4 C 0 km/h
1024 13-06-2003 19:51:00 30.3 C 7.4 g/m*3 30.3 C 0 km/h
1025 13-06-2003 19:57:00 30.1 C 7.32 g/m*3 30.1 C 0 km/h
Sensor: Nr:Datum:Temp:Abs-Feuchte:Windchill:Wind:
Aussen-T/F 1026 13-06-2003 20:03:00 29.8 C 7.2 g/m*3 29.8 C 0 km/h
1027 13-06-2003 20:09:00 29.2 C 7.55 g/m*3 29.2 C 0 km/h
1028 13-06-2003 20:15:00 29.1 C 7.22 g/m*3 29.1 C 0 km/h
1029 13-06-2003 20:21:00 28.5 C 6.99 g/m*3 28.5 C 0 km/h
1030 13-06-2003 20:27:00 28.1 C 7.11 g/m*3 28.1 C 0 km/h
1031 13-06-2003 20:33:02 28.1 C 8.75 g/m*3 28.1 C 0 km/h
1032 13-06-2003 20:39:02 28.1 C 9.57 g/m*3 28.1 C 0 km/h
1033 13-06-2003 20:45:02 27.7 C 9.9 g/m*3 27.7 C 0 km/h
1034 13-06-2003 20:51:02 27.1 C 9.83 g/m*3 27.1 C 0 km/h
1035 13-06-2003 20:57:02 26.3 C 9.41 g/m*3 26.3 C 0 km/h
1036 13-06-2003 21:03:01 25.1 C 9.49 g/m*3 25.1 C 0 km/h
1037 13-06-2003 21:09:01 24.6 C 9.45 g/m*3 24.6 C 0 km/h
1038 13-06-2003 21:15:01 24 C 8.92 g/m*3 24 C 0 km/h
1039 13-06-2003 21:21:01 23.4 C 8.83 g/m*3 23.4 C 0 km/h
1040 13-06-2003 21:27:01 23 C 8.84 g/m*3 23 C 0 km/h
1041 13-06-2003 21:33:01 22.8 C 8.53 g/m*3 22.8 C 0 km/h
1042 13-06-2003 21:39:01 22.4 C 8.54 g/m*3 22.4 C 0 km/h
1043 13-06-2003 21:45:01 22.1 C 8.2 g/m*3 22.1 C 0 km/h
1044 13-06-2003 21:51:01 21.8 C 8.63 g/m*3 21.8 C 0 km/h
1045 13-06-2003 21:57:01 21.6 C 8.53 g/m*3 21.6 C 0 km/h
1046 13-06-2003 22:04:01 21.3 C 8.57 g/m*3 21.3 C 0 km/h
1047 13-06-2003 22:10:01 21.1 C 9.21 g/m*3 21.1 C 0 km/h
1048 13-06-2003 22:16:01 21.2 C 8.9 g/m*3 21.2 C 0 km/h
1049 13-06-2003 22:22:01 20.9 C 8.74 g/m*3 20.9 C 0 km/h
1050 13-06-2003 22:28:01 20.8 C 9.05 g/m*3 20.8 C 0 km/h
Sensor: Nr:Datum:Temp:Abs-Feuchte:Windchill:Wind:
Aussen-T/F 1051 13-06-2003 22:34:01 20.6 C 9.13 g/m*3 20.6 C 0 km/h
1052 13-06-2003 22:40:01 20.3 C 8.79 g/m*3 20.3 C 0 km/h
1053 13-06-2003 22:46:01 20.4 C 9.02 g/m*3 20.4 C 0 km/h
1054 13-06-2003 22:52:01 20.2 C 8.92 g/m*3 20.2 C 0 km/h
1055 13-06-2003 22:58:01 20 C 8.99 g/m*3 20 C 0 km/h
1056 13-06-2003 23:04:01 20.1 C 9.21 g/m*3 20.1 C 0 km/h
1057 13-06-2003 23:10:01 19.7 C 9 g/m*3 19.7 C 0 km/h
1058 13-06-2003 23:16:01 19.6 C 8.95 g/m*3 19.6 C 0 km/h
1059 13-06-2003 23:22:01 19.6 C 9.12 g/m*3 19.6 C 0 km/h
1060 13-06-2003 23:28:01 19.5 C 9.23 g/m*3 19.5 C 0 km/h
1061 13-06-2003 23:34:01 19.5 C 9.06 g/m*3 19.5 C 0 km/h
1062 13-06-2003 23:40:01 19.5 C 8.73 g/m*3 19.5 C 0 km/h
1063 13-06-2003 23:46:01 19.4 C 8.84 g/m*3 19.4 C 0 km/h
1064 13-06-2003 23:52:01 19.2 C 8.74 g/m*3 19.2 C 0 km/h
1065 13-06-2003 23:58:01 19.1 C 8.85 g/m*3 19.1 C 0 km/h
1066 14-06-2003 00:04:01 19 C 9.29 g/m*3 19 C 0 km/h
1067 14-06-2003 00:10:01 18.7 C 8.81 g/m*3 18.7 C 0 km/h
1068 14-06-2003 00:16:01 18.7 C 8.97 g/m*3 18.7 C 0 km/h
1069 14-06-2003 00:22:01 18.6 C 8.91 g/m*3 18.6 C 0 km/h
1070 14-06-2003 00:34:01 18.5 C 9.18 g/m*3 18.5 C 0 km/h
1071 14-06-2003 00:40:01 18.3 C 9.07 g/m*3 18.3 C 0 km/h
1072 14-06-2003 00:46:01 18.1 C 9.12 g/m*3 18.1 C 0 km/h
1073 14-06-2003 00:52:01 18 C 9.22 g/m*3 18 C 0 km/h
1074 14-06-2003 00:58:01 17.7 C 9.35 g/m*3 17.7 C 0 km/h
1075 14-06-2003 01:04:01 17.7 C 9.35 g/m*3 17.7 C 0 km/h
Sensor: Nr:Datum:Temp:Abs-Feuchte:Windchill:Wind:
Aussen-T/F 1076 14-06-2003 01:10:01 17.6 C 9.45 g/m*3 17.6 C 0 km/h
1077 14-06-2003 01:16:01 17.4 C 9.19 g/m*3 17.4 C 0 km/h
1078 14-06-2003 01:22:01 17.3 C 9.28 g/m*3 17.3 C 0 km/h
1079 14-06-2003 01:28:01 17.2 C 9.23 g/m*3 17.2 C 0 km/h
1080 14-06-2003 01:34:01 17.1 C 9.32 g/m*3 17.1 C 0 km/h
1081 14-06-2003 01:40:01 17 C 9.26 g/m*3 17 C 0 km/h
1082 14-06-2003 01:46:01 16.9 C 9.35 g/m*3 16.9 C 0 km/h
1083 14-06-2003 01:52:01 16.9 C 9.49 g/m*3 16.9 C 0 km/h
1084 14-06-2003 01:58:01 16.8 C 9.44 g/m*3 16.8 C 0 km/h
1085 14-06-2003 02:04:01 16.8 C 9.44 g/m*3 16.8 C 0 km/h
1086 14-06-2003 02:10:01 16.6 C 9.32 g/m*3 16.6 C 0 km/h
1087 14-06-2003 02:16:01 16.6 C 9.46 g/m*3 16.6 C 0 km/h
1088 14-06-2003 02:22:01 16.4 C 9.35 g/m*3 16.4 C 0 km/h
1089 14-06-2003 02:28:01 16.2 C 9.38 g/m*3 16.2 C 0 km/h
1090 14-06-2003 02:34:01 16.3 C 9.43 g/m*3 16.3 C 0 km/h
1091 14-06-2003 02:40:01 16.2 C 9.38 g/m*3 16.2 C 0 km/h
1092 14-06-2003 02:46:01 16.1 C 9.46 g/m*3 16.1 C 0 km/h
1093 14-06-2003 02:52:01 15.9 C 9.34 g/m*3 15.9 C 0 km/h
1094 14-06-2003 02:58:01 15.9 C 9.62 g/m*3 15.9 C 0 km/h
1095 14-06-2003 03:04:01 15.8 C 9.69 g/m*3 15.8 C 0 km/h
1096 14-06-2003 03:10:01 15.6 C 9.44 g/m*3 15.6 C 0 km/h
1097 14-06-2003 03:16:01 15.4 C 9.46 g/m*3 15.4 C 0 km/h
1098 14-06-2003 03:22:01 15.4 C 9.46 g/m*3 15.4 C 0 km/h
1099 14-06-2003 03:28:01 15.4 C 9.46 g/m*3 15.4 C 0 km/h
1100 14-06-2003 03:34:01 15.3 C 9.66 g/m*3 15.3 C 0 km/h
Sensor: Nr:Datum:Temp:Abs-Feuchte:Windchill:Wind:
Aussen-T/F 1101 14-06-2003 03:40:01 15.3 C 9.53 g/m*3 15.3 C 0 km/h
1102 14-06-2003 03:46:01 15.3 C 9.53 g/m*3 15.3 C 0 km/h
1103 14-06-2003 03:52:01 15.4 C 9.59 g/m*3 15.4 C 0 km/h
1104 14-06-2003 03:58:01 15.3 C 9.53 g/m*3 15.3 C 0 km/h
1105 14-06-2003 04:04:01 15.2 C 9.48 g/m*3 15.2 C 0 km/h
1106 14-06-2003 04:10:01 15.1 C 9.29 g/m*3 15.1 C 0 km/h
1107 14-06-2003 04:16:01 15.1 C 9.42 g/m*3 15.1 C 0 km/h
1108 14-06-2003 04:22:01 15 C 9.36 g/m*3 15 C 0 km/h
1109 14-06-2003 04:28:01 15 C 9.36 g/m*3 15 C 0 km/h
1110 14-06-2003 04:34:01 15 C 9.49 g/m*3 15 C 0 km/h
1111 14-06-2003 04:40:01 14.8 C 9.5 g/m*3 14.8 C 0 km/h
1112 14-06-2003 04:46:01 14.8 C 9.5 g/m*3 14.8 C 0 km/h
1113 14-06-2003 04:52:01 14.6 C 9.39 g/m*3 14.6 C 0 km/h
1114 14-06-2003 04:58:01 14.5 C 9.58 g/m*3 14.5 C 0 km/h
1115 14-06-2003 05:04:01 14.4 C 9.52 g/m*3 14.4 C 0 km/h
1116 14-06-2003 05:10:01 14.5 C 9.58 g/m*3 14.5 C 0 km/h
1117 14-06-2003 05:16:01 14.5 C 9.58 g/m*3 14.5 C 0 km/h
1118 14-06-2003 05:22:01 14.4 C 9.64 g/m*3 14.4 C 0 km/h
1119 14-06-2003 05:28:01 14.4 C 9.52 g/m*3 14.4 C 0 km/h
1120 14-06-2003 05:34:01 14.3 C 9.58 g/m*3 14.3 C 0 km/h
1121 14-06-2003 05:40:01 14.3 C 9.58 g/m*3 14.3 C 0 km/h
1122 14-06-2003 05:46:01 14.4 C 9.64 g/m*3 14.4 C 0 km/h
1123 14-06-2003 05:52:01 14.4 C 9.64 g/m*3 14.4 C 0 km/h
1124 14-06-2003 05:58:01 14.5 C 9.58 g/m*3 14.5 C 0 km/h
1125 14-06-2003 06:04:01 14.5 C 9.7 g/m*3 14.5 C 0 km/h
Sensor: Nr:Datum:Temp:Abs-Feuchte:Windchill:Wind:
Aussen-T/F 1126 14-06-2003 06:10:01 14.5 C 9.7 g/m*3 14.5 C 0 km/h
1127 14-06-2003 06:16:01 14.5 C 9.83 g/m*3 14.5 C 0 km/h
1128 14-06-2003 06:22:01 14.4 C 9.89 g/m*3 14.4 C 0 km/h
1129 14-06-2003 06:28:01 14.5 C 9.95 g/m*3 14.5 C 0 km/h
1130 14-06-2003 06:34:01 14.5 C 9.95 g/m*3 14.5 C 0 km/h
1131 14-06-2003 06:40:01 14.5 C 9.95 g/m*3 14.5 C 0 km/h
1132 14-06-2003 06:46:01 14.5 C 9.95 g/m*3 14.5 C 0 km/h
1133 14-06-2003 06:52:01 14.5 C 9.95 g/m*3 14.5 C 0 km/h
1134 14-06-2003 06:58:01 14.5 C 9.95 g/m*3 14.5 C 0 km/h
1135 14-06-2003 07:04:01 14.6 C 10.01 g/m*3 14.6 C 0 km/h
1136 14-06-2003 07:10:01 14.6 C 10.01 g/m*3 14.6 C 0 km/h
1137 14-06-2003 07:16:01 14.5 C 9.95 g/m*3 14.5 C 0 km/h
1138 14-06-2003 07:22:01 14.7 C 10.07 g/m*3 14.7 C 0 km/h
1139 14-06-2003 07:28:01 14.7 C 10.07 g/m*3 14.7 C 0 km/h
1140 14-06-2003 07:34:01 14.8 C 10.01 g/m*3 14.8 C 0 km/h
1141 14-06-2003 07:40:01 14.9 C 10.07 g/m*3 14.9 C 0 km/h
1142 14-06-2003 07:46:01 15 C 10 g/m*3 15 C 0 km/h
1143 14-06-2003 07:52:01 15.2 C 10.12 g/m*3 15.2 C 0 km/h
1144 14-06-2003 07:58:01 15.4 C 10.12 g/m*3 15.4 C 0 km/h
1145 14-06-2003 08:04:01 15.7 C 10.17 g/m*3 15.7 C 0 km/h
1146 14-06-2003 08:10:01 15.9 C 10.16 g/m*3 15.9 C 0 km/h
1147 14-06-2003 08:16:01 16.2 C 10.07 g/m*3 16.2 C 0 km/h
1148 14-06-2003 08:22:01 16.5 C 10.11 g/m*3 16.5 C 0 km/h
1149 14-06-2003 08:28:01 16.8 C 10.01 g/m*3 16.8 C 0 km/h
1150 14-06-2003 08:34:01 17 C 9.98 g/m*3 17 C 0 km/h
Sensor: Nr:Datum:Temp:Abs-Feuchte:Windchill:Wind:
Aussen-T/F 1151 14-06-2003 08:40:01 17.1 C 9.9 g/m*3 17.1 C 0 km/h
1152 14-06-2003 08:46:01 17.4 C 10.08 g/m*3 17.4 C 0 km/h
1153 14-06-2003 08:52:01 17.7 C 10.26 g/m*3 17.7 C 0 km/h
1154 14-06-2003 08:58:01 18.2 C 10.41 g/m*3 18.2 C 0 km/h
1155 14-06-2003 09:04:01 18.5 C 10.44 g/m*3 18.5 C 0 km/h
1156 14-06-2003 09:10:01 18.7 C 10.57 g/m*3 18.7 C 0 km/h
1157 14-06-2003 09:16:01 18.9 C 10.53 g/m*3 18.9 C 0 km/h
1158 14-06-2003 09:22:01 19.2 C 10.55 g/m*3 19.2 C 0 km/h
1159 14-06-2003 09:28:01 19.5 C 10.57 g/m*3 19.5 C 0 km/h
1160 14-06-2003 09:34:01 19.8 C 10.42 g/m*3 19.8 C 0 km/h
1161 14-06-2003 09:40:01 20.2 C 10.14 g/m*3 20.2 C 0 km/h
1162 14-06-2003 09:46:01 20.5 C 10.32 g/m*3 20.5 C 0 km/h
1163 14-06-2003 09:52:01 21.1 C 10.5 g/m*3 21.1 C 0 km/h
1164 14-06-2003 09:58:01 21.6 C 10.43 g/m*3 21.6 C 0 km/h
1165 14-06-2003 10:04:00 21.9 C 10.03 g/m*3 21.9 C 0 km/h
1166 14-06-2003 10:10:00 22.2 C 10.01 g/m*3 22.2 C 0 km/h
1167 14-06-2003 10:16:00 22.7 C 10.3 g/m*3 22.7 C 0 km/h
1168 14-06-2003 10:22:00 23.4 C 10.3 g/m*3 23.4 C 0 km/h
1169 14-06-2003 10:28:00 23.7 C 10.05 g/m*3 23.7 C 0 km/h
1170 14-06-2003 10:34:01 23.9 C 10.38 g/m*3 23.9 C 0 km/h
1171 14-06-2003 10:40:01 24.1 C 10.5 g/m*3 24.1 C 0 km/h
1172 14-06-2003 10:46:01 24 C 10.23 g/m*3 24 C 0 km/h
1173 14-06-2003 10:52:01 23.8 C 10.11 g/m*3 23.8 C 0 km/h
1174 14-06-2003 10:58:01 23.7 C 10.48 g/m*3 23.7 C 0 km/h
1175 14-06-2003 11:04:01 24.3 C 10.4 g/m*3 24.3 C 0 km/h
Sensor: Nr:Datum:Temp:Abs-Feuchte:Windchill:Wind:
Aussen-T/F 1176 14-06-2003 11:10:01 25.1 C 10.65 g/m*3 25.1 C 0 km/h
1177 14-06-2003 11:16:01 25.7 C 10.77 g/m*3 25.7 C 0 km/h
1178 14-06-2003 11:22:01 26 C 10.47 g/m*3 26 C 0 km/h
1179 14-06-2003 11:28:01 26.3 C 10.15 g/m*3 26.3 C 0 km/h
1180 14-06-2003 11:34:02 26.3 C 10.15 g/m*3 26.3 C 0 km/h
1181 14-06-2003 11:40:02 26.4 C 10.46 g/m*3 26.4 C 0 km/h
1182 14-06-2003 11:46:02 26.5 C 11.01 g/m*3 26.5 C 0 km/h
1183 14-06-2003 11:52:02 26.4 C 11.45 g/m*3 26.4 C 0 km/h
1184 14-06-2003 11:58:02 26.3 C 11.39 g/m*3 26.3 C 0 km/h
1185 14-06-2003 12:04:01 26 C 10.47 g/m*3 26 C 0 km/h
1186 14-06-2003 12:10:01 25.3 C 11 g/m*3 25.3 C 0 km/h
1187 14-06-2003 12:16:01 24.7 C 12.22 g/m*3 24.7 C 0 km/h
1188 14-06-2003 12:22:01 24 C 12.62 g/m*3 24 C 0 km/h
1189 14-06-2003 12:28:01 23.5 C 12.27 g/m*3 23.5 C 0 km/h
1190 14-06-2003 12:34:01 23.1 C 12.82 g/m*3 23.1 C 0 km/h
1191 14-06-2003 12:40:01 22.8 C 13 g/m*3 22.8 C 0 km/h
1192 14-06-2003 12:46:01 22.5 C 12.78 g/m*3 22.5 C 0 km/h
1193 14-06-2003 12:52:01 22.2 C 12.96 g/m*3 22.2 C 0 km/h
1194 14-06-2003 12:58:01 21.9 C 13.12 g/m*3 21.9 C 0 km/h
1195 14-06-2003 13:04:03 21.8 C 13.24 g/m*3 21.8 C 0 km/h
1196 14-06-2003 13:10:03 21 C 12.09 g/m*3 21 C 0 km/h
1197 14-06-2003 13:16:01 20.7 C 11.88 g/m*3 20.7 C 0 km/h
1198 14-06-2003 13:22:01 20.2 C 11.89 g/m*3 20.2 C 0 km/h
1199 14-06-2003 13:28:01 19.5 C 12.42 g/m*3 19.5 C 0 km/h
1200 14-06-2003 13:34:02 18.9 C 12.47 g/m*3 18.9 C 0 km/h
Sensor: Nr:Datum:Temp:Abs-Feuchte:Windchill:Wind:
Aussen-T/F 1201 14-06-2003 13:40:02 18.3 C 12.2 g/m*3 18.3 C 0 km/h
1202 14-06-2003 13:46:02 17.8 C 12.45 g/m*3 17.8 C 0 km/h
1203 14-06-2003 13:52:02 17.4 C 12.45 g/m*3 17.4 C 0 km/h
1204 14-06-2003 13:58:02 17.2 C 12.45 g/m*3 17.2 C 0 km/h
1205 14-06-2003 14:04:02 17 C 12.59 g/m*3 17 C 0 km/h
1206 14-06-2003 14:10:02 16.6 C 12.43 g/m*3 16.6 C 0 km/h
1207 14-06-2003 14:16:02 16.8 C 12.72 g/m*3 16.8 C 0 km/h
1208 14-06-2003 14:22:02 17 C 12.88 g/m*3 17 C 0 km/h
1209 14-06-2003 14:28:02 17.3 C 13.26 g/m*3 17.3 C 0 km/h
1210 14-06-2003 14:34:02 17.6 C 13.5 g/m*3 17.6 C 0 km/h
1211 14-06-2003 14:40:02 18.6 C 14.17 g/m*3 18.6 C 0 km/h
1212 14-06-2003 14:46:02 18.8 C 14.01 g/m*3 18.8 C 0 km/h
1213 14-06-2003 14:52:02 18.8 C 13.37 g/m*3 18.8 C 0 km/h
1214 14-06-2003 14:58:02 19 C 13.36 g/m*3 19 C 0 km/h
1215 14-06-2003 15:04:01 19.6 C 14.01 g/m*3 19.6 C 0 km/h
1216 14-06-2003 15:10:01 20 C 14 g/m*3 20 C 0 km/h
1217 14-06-2003 15:16:01 20.4 C 14.15 g/m*3 20.4 C 0 km/h
1218 14-06-2003 15:22:01 20.7 C 14.04 g/m*3 20.7 C 0 km/h
1219 14-06-2003 15:28:01 21 C 13.56 g/m*3 21 C 0 km/h
1220 14-06-2003 15:34:00 21.2 C 13.16 g/m*3 21.2 C 0 km/h
1221 14-06-2003 15:40:00 21.3 C 13.61 g/m*3 21.3 C 0 km/h
1222 14-06-2003 15:46:00 21.6 C 13.09 g/m*3 21.6 C 0 km/h
1223 14-06-2003 15:52:00 21.8 C 13.24 g/m*3 21.8 C 0 km/h
1224 14-06-2003 15:58:00 22 C 13.39 g/m*3 22 C 0 km/h
1225 14-06-2003 16:04:01 22.2 C 13.15 g/m*3 22.2 C 0 km/h
Sensor: Nr:Datum:Temp:Abs-Feuchte:Windchill:Wind:
Aussen-T/F 1226 14-06-2003 16:10:01 22.4 C 13.11 g/m*3 22.4 C 0 km/h
1227 14-06-2003 16:16:01 23.3 C 12.75 g/m*3 23.3 C 0 km/h
1228 14-06-2003 16:22:01 23.3 C 12.34 g/m*3 23.3 C 0 km/h
1229 14-06-2003 16:28:01 23.4 C 12.41 g/m*3 23.4 C 0 km/h
1230 14-06-2003 16:34:02 24.7 C 12.68 g/m*3 24.7 C 0 km/h
1231 14-06-2003 16:40:02 24.6 C 12.6 g/m*3 24.6 C 0 km/h
1232 14-06-2003 16:46:02 23.9 C 12.33 g/m*3 23.9 C 0 km/h
1233 14-06-2003 16:52:02 23.3 C 11.92 g/m*3 23.3 C 0 km/h
1234 14-06-2003 16:58:02 22.8 C 11.99 g/m*3 22.8 C 0 km/h
1235 14-06-2003 17:04:02 22.8 C 12.4 g/m*3 22.8 C 0 km/h
1236 14-06-2003 17:10:02 22.9 C 12.47 g/m*3 22.9 C 0 km/h
1237 14-06-2003 17:16:02 22.9 C 12.47 g/m*3 22.9 C 0 km/h
1238 14-06-2003 17:22:02 23.3 C 12.55 g/m*3 23.3 C 0 km/h
1239 14-06-2003 17:28:02 23.8 C 12.91 g/m*3 23.8 C 0 km/h
1240 14-06-2003 17:34:01 24.1 C 12.03 g/m*3 24.1 C 0 km/h
1241 14-06-2003 17:40:01 24.3 C 11.95 g/m*3 24.3 C 0 km/h
1242 14-06-2003 17:46:01 24.3 C 12.39 g/m*3 24.3 C 0 km/h
1243 14-06-2003 17:52:01 23.7 C 11.98 g/m*3 23.7 C 0 km/h
1244 14-06-2003 17:58:01 23.5 C 12.27 g/m*3 23.5 C 0 km/h
1245 14-06-2003 18:04:01 24.2 C 12.76 g/m*3 24.2 C 0 km/h
1246 14-06-2003 18:10:01 24.1 C 12.25 g/m*3 24.1 C 0 km/h
1247 14-06-2003 18:16:01 23.7 C 12.62 g/m*3 23.7 C 0 km/h
1248 14-06-2003 18:22:01 23.7 C 12.62 g/m*3 23.7 C 0 km/h
1249 14-06-2003 18:28:01 23.7 C 13.26 g/m*3 23.7 C 0 km/h
1250 14-06-2003 18:34:01 23.7 C 13.69 g/m*3 23.7 C 0 km/h
Sensor: Nr:Datum:Temp:Abs-Feuchte:Windchill:Wind:
Aussen-T/F 1251 14-06-2003 18:40:01 23.3 C 13.59 g/m*3 23.3 C 0 km/h
1252 14-06-2003 18:46:01 23 C 13.57 g/m*3 23 C 0 km/h
1253 14-06-2003 18:52:01 22.7 C 13.74 g/m*3 22.7 C 0 km/h
1254 14-06-2003 18:58:01 22.5 C 13.58 g/m*3 22.5 C 0 km/h
1255 14-06-2003 19:04:02 22 C 13.2 g/m*3 22 C 0 km/h
1256 14-06-2003 19:10:02 21.6 C 13.47 g/m*3 21.6 C 0 km/h
1257 14-06-2003 19:16:02 21.4 C 13.5 g/m*3 21.4 C 0 km/h
1258 14-06-2003 19:22:02 21.4 C 13.5 g/m*3 21.4 C 0 km/h
1259 14-06-2003 19:28:02 21.6 C 13.66 g/m*3 21.6 C 0 km/h
1260 14-06-2003 19:34:02 21.7 C 13.73 g/m*3 21.7 C 0 km/h
1261 14-06-2003 19:40:02 21.8 C 13.81 g/m*3 21.8 C 0 km/h
1262 14-06-2003 19:46:02 21.7 C 13.73 g/m*3 21.7 C 0 km/h
1263 14-06-2003 19:52:02 21.7 C 13.93 g/m*3 21.7 C 0 km/h
1264 14-06-2003 19:58:02 21.4 C 13.87 g/m*3 21.4 C 0 km/h
1265 14-06-2003 20:04:00 21.3 C 13.79 g/m*3 21.3 C 0 km/h
1266 14-06-2003 20:10:00 21.3 C 13.98 g/m*3 21.3 C 0 km/h
1267 14-06-2003 20:16:00 21.1 C 13.63 g/m*3 21.1 C 0 km/h
1268 14-06-2003 20:22:00 20.9 C 13.48 g/m*3 20.9 C 0 km/h
1269 14-06-2003 20:28:00 20.8 C 13.58 g/m*3 20.8 C 0 km/h
1270 14-06-2003 20:34:00 20.6 C 13.24 g/m*3 20.6 C 0 km/h
1271 14-06-2003 20:40:00 20.4 C 13.27 g/m*3 20.4 C 0 km/h
1272 14-06-2003 20:46:00 20.4 C 13.27 g/m*3 20.4 C 0 km/h
1273 14-06-2003 20:52:00 20.3 C 13.19 g/m*3 20.3 C 0 km/h
1274 14-06-2003 20:58:00 20.2 C 13.29 g/m*3 20.2 C 0 km/h
1275 14-06-2003 21:04:02 20.2 C 13.29 g/m*3 20.2 C 0 km/h
Sensor: Nr:Datum:Temp:Abs-Feuchte:Windchill:Wind:
Aussen-T/F 1276 14-06-2003 21:10:02 20.1 C 13.39 g/m*3 20.1 C 0 km/h
1277 14-06-2003 21:16:02 20.1 C 13.21 g/m*3 20.1 C 0 km/h
1278 14-06-2003 21:22:02 20.1 C 13.21 g/m*3 20.1 C 0 km/h
1279 14-06-2003 21:28:02 20.1 C 13.21 g/m*3 20.1 C 0 km/h
1280 14-06-2003 21:34:00 20 C 13.31 g/m*3 20 C 0 km/h
1281 14-06-2003 21:40:00 20 C 13.31 g/m*3 20 C 0 km/h
1282 14-06-2003 21:46:00 19.9 C 13.4 g/m*3 19.9 C 0 km/h
1283 14-06-2003 21:52:00 19.9 C 13.4 g/m*3 19.9 C 0 km/h
1284 14-06-2003 21:58:00 19.8 C 13.32 g/m*3 19.8 C 0 km/h
1285 14-06-2003 22:04:01 19.8 C 13.32 g/m*3 19.8 C 0 km/h
1286 14-06-2003 22:10:01 19.8 C 13.32 g/m*3 19.8 C 0 km/h
1287 14-06-2003 22:16:01 19.5 C 13.26 g/m*3 19.5 C 0 km/h
1288 14-06-2003 22:22:01 19.4 C 13.18 g/m*3 19.4 C 0 km/h
1289 14-06-2003 22:28:01 19.3 C 13.1 g/m*3 19.3 C 0 km/h
1290 14-06-2003 22:35:02 19.3 C 12.94 g/m*3 19.3 C 0 km/h
1291 14-06-2003 22:41:02 19.3 C 12.94 g/m*3 19.3 C 0 km/h
1292 14-06-2003 22:47:02 19.3 C 13.1 g/m*3 19.3 C 0 km/h
1293 14-06-2003 22:53:02 19.2 C 13.19 g/m*3 19.2 C 0 km/h
1294 14-06-2003 22:59:02 19.1 C 12.95 g/m*3 19.1 C 0 km/h
1295 14-06-2003 23:05:02 19.1 C 12.79 g/m*3 19.1 C 0 km/h
1296 14-06-2003 23:11:02 18.9 C 12.8 g/m*3 18.9 C 0 km/h
1297 14-06-2003 23:17:02 18.8 C 12.72 g/m*3 18.8 C 0 km/h
1298 14-06-2003 23:23:02 18.8 C 12.72 g/m*3 18.8 C 0 km/h
1299 14-06-2003 23:29:02 18.7 C 12.81 g/m*3 18.7 C 0 km/h
1300 14-06-2003 23:35:02 18.6 C 12.73 g/m*3 18.6 C 0 km/h
Sensor: Nr:Datum:Temp:Abs-Feuchte:Windchill:Wind:
Aussen-T/F 1301 14-06-2003 23:41:02 18.5 C 12.66 g/m*3 18.5 C 0 km/h
1302 14-06-2003 23:47:02 18.3 C 12.51 g/m*3 18.3 C 0 km/h
1303 14-06-2003 23:53:02 18.2 C 12.43 g/m*3 18.2 C 0 km/h
1304 14-06-2003 23:59:02 18.1 C 12.36 g/m*3 18.1 C 0 km/h
1305 15-06-2003 00:05:02 18 C 12.13 g/m*3 18 C 0 km/h
1306 15-06-2003 00:11:02 18 C 11.98 g/m*3 18 C 0 km/h
1307 15-06-2003 00:17:02 18 C 11.98 g/m*3 18 C 0 km/h
1308 15-06-2003 00:23:02 17.9 C 11.91 g/m*3 17.9 C 0 km/h
1309 15-06-2003 00:29:02 17.8 C 11.99 g/m*3 17.8 C 0 km/h
1310 15-06-2003 00:35:02 17.7 C 11.92 g/m*3 17.7 C 0 km/h
1311 15-06-2003 00:41:02 17.6 C 11.85 g/m*3 17.6 C 0 km/h
1312 15-06-2003 00:47:02 17.5 C 11.93 g/m*3 17.5 C 0 km/h
1313 15-06-2003 00:53:02 17.4 C 11.86 g/m*3 17.4 C 0 km/h
1314 15-06-2003 00:59:02 17.4 C 11.86 g/m*3 17.4 C 0 km/h
1315 15-06-2003 01:05:02 17.2 C 11.72 g/m*3 17.2 C 0 km/h
1316 15-06-2003 01:11:02 17.2 C 11.72 g/m*3 17.2 C 0 km/h
1317 15-06-2003 01:17:02 17.3 C 11.79 g/m*3 17.3 C 0 km/h
1318 15-06-2003 01:23:02 17.3 C 11.79 g/m*3 17.3 C 0 km/h
1319 15-06-2003 01:29:02 17.4 C 11.86 g/m*3 17.4 C 0 km/h
1320 15-06-2003 01:35:02 17.4 C 11.86 g/m*3 17.4 C 0 km/h
1321 15-06-2003 01:41:02 17.5 C 11.93 g/m*3 17.5 C 0 km/h
1322 15-06-2003 01:47:02 17.5 C 11.93 g/m*3 17.5 C 0 km/h
1323 15-06-2003 01:53:02 17.3 C 11.79 g/m*3 17.3 C 0 km/h
1324 15-06-2003 01:59:02 17.2 C 11.57 g/m*3 17.2 C 0 km/h
1325 15-06-2003 02:11:02 16.9 C 11.65 g/m*3 16.9 C 0 km/h
Sensor: Nr:Datum:Temp:Abs-Feuchte:Windchill:Wind:
Aussen-T/F 1326 15-06-2003 02:17:02 16.8 C 11.58 g/m*3 16.8 C 0 km/h
1327 15-06-2003 02:23:02 16.8 C 11.72 g/m*3 16.8 C 0 km/h
1328 15-06-2003 02:29:02 16.6 C 11.58 g/m*3 16.6 C 0 km/h
1329 15-06-2003 02:35:02 16.6 C 11.44 g/m*3 16.6 C 0 km/h
1330 15-06-2003 02:41:02 16.6 C 11.3 g/m*3 16.6 C 0 km/h
1331 15-06-2003 02:47:02 16.6 C 11.16 g/m*3 16.6 C 0 km/h
1332 15-06-2003 02:53:02 16.7 C 11.23 g/m*3 16.7 C 0 km/h
1333 15-06-2003 02:59:02 16.6 C 11.16 g/m*3 16.6 C 0 km/h
1334 15-06-2003 03:05:02 16.4 C 11.17 g/m*3 16.4 C 0 km/h
1335 15-06-2003 03:11:02 16.2 C 10.89 g/m*3 16.2 C 0 km/h
1336 15-06-2003 03:17:02 16.1 C 10.83 g/m*3 16.1 C 0 km/h
1337 15-06-2003 03:23:02 16 C 10.9 g/m*3 16 C 0 km/h
1338 15-06-2003 03:29:02 15.8 C 10.9 g/m*3 15.8 C 0 km/h
1339 15-06-2003 03:35:02 15.7 C 10.97 g/m*3 15.7 C 0 km/h
1340 15-06-2003 03:41:02 15.6 C 10.91 g/m*3 15.6 C 0 km/h
1341 15-06-2003 03:47:02 15.6 C 10.91 g/m*3 15.6 C 0 km/h
1342 15-06-2003 03:53:02 15.6 C 10.91 g/m*3 15.6 C 0 km/h
1343 15-06-2003 03:59:02 15.7 C 10.97 g/m*3 15.7 C 0 km/h
1344 15-06-2003 04:05:02 15.8 C 10.9 g/m*3 15.8 C 0 km/h
1345 15-06-2003 04:11:02 15.9 C 10.97 g/m*3 15.9 C 0 km/h
1346 15-06-2003 04:17:02 16 C 10.76 g/m*3 16 C 0 km/h
1347 15-06-2003 04:23:02 16 C 10.63 g/m*3 16 C 0 km/h
1348 15-06-2003 04:29:02 16 C 10.63 g/m*3 16 C 0 km/h
1349 15-06-2003 04:35:02 16 C 10.63 g/m*3 16 C 0 km/h
1350 15-06-2003 04:41:02 15.9 C 10.7 g/m*3 15.9 C 0 km/h
Sensor: Nr:Datum:Temp:Abs-Feuchte:Windchill:Wind:
Aussen-T/F 1351 15-06-2003 04:47:02 15.8 C 10.77 g/m*3 15.8 C 0 km/h
1352 15-06-2003 04:53:02 15.7 C 10.84 g/m*3 15.7 C 0 km/h
1353 15-06-2003 04:59:02 15.6 C 10.77 g/m*3 15.6 C 0 km/h
1354 15-06-2003 05:05:02 15.5 C 10.71 g/m*3 15.5 C 0 km/h
1355 15-06-2003 05:11:02 15.4 C 10.64 g/m*3 15.4 C 0 km/h
1356 15-06-2003 05:17:02 15.4 C 10.77 g/m*3 15.4 C 0 km/h
1357 15-06-2003 05:23:02 15.2 C 10.64 g/m*3 15.2 C 0 km/h
1358 15-06-2003 05:29:02 15.1 C 10.58 g/m*3 15.1 C 0 km/h
1359 15-06-2003 05:35:02 15 C 10.51 g/m*3 15 C 0 km/h
1360 15-06-2003 05:41:02 15 C 10.51 g/m*3 15 C 0 km/h
1361 15-06-2003 05:47:02 15 C 10.51 g/m*3 15 C 0 km/h
1362 15-06-2003 05:53:02 14.9 C 10.71 g/m*3 14.9 C 0 km/h
1363 15-06-2003 05:59:02 14.9 C 10.58 g/m*3 14.9 C 0 km/h
1364 15-06-2003 06:05:02 14.8 C 10.51 g/m*3 14.8 C 0 km/h
1365 15-06-2003 06:11:02 14.9 C 10.58 g/m*3 14.9 C 0 km/h
1366 15-06-2003 06:17:02 14.9 C 10.58 g/m*3 14.9 C 0 km/h
1367 15-06-2003 06:23:02 14.9 C 10.58 g/m*3 14.9 C 0 km/h
1368 15-06-2003 06:29:02 14.9 C 10.58 g/m*3 14.9 C 0 km/h
1369 15-06-2003 06:35:02 15 C 10.64 g/m*3 15 C 0 km/h
1370 15-06-2003 06:41:02 15.1 C 10.45 g/m*3 15.1 C 0 km/h
1371 15-06-2003 06:47:02 15.1 C 10.58 g/m*3 15.1 C 0 km/h
1372 15-06-2003 06:53:02 15.1 C 10.45 g/m*3 15.1 C 0 km/h
1373 15-06-2003 06:59:02 15.2 C 10.64 g/m*3 15.2 C 0 km/h
1374 15-06-2003 07:05:02 15.2 C 10.64 g/m*3 15.2 C 0 km/h
1375 15-06-2003 07:11:02 15.3 C 10.58 g/m*3 15.3 C 0 km/h
Sensor: Nr:Datum:Temp:Abs-Feuchte:Windchill:Wind:
Aussen-T/F 1376 15-06-2003 07:17:02 15.4 C 10.64 g/m*3 15.4 C 0 km/h
1377 15-06-2003 07:23:02 15.6 C 10.64 g/m*3 15.6 C 0 km/h
1378 15-06-2003 07:29:02 15.6 C 10.64 g/m*3 15.6 C 0 km/h
1379 15-06-2003 07:35:02 15.6 C 10.51 g/m*3 15.6 C 0 km/h
1380 15-06-2003 07:41:02 15.6 C 10.51 g/m*3 15.6 C 0 km/h
1381 15-06-2003 07:47:02 15.8 C 10.63 g/m*3 15.8 C 0 km/h
1382 15-06-2003 07:53:02 15.9 C 10.7 g/m*3 15.9 C 0 km/h
1383 15-06-2003 07:59:02 16 C 10.63 g/m*3 16 C 0 km/h
1384 15-06-2003 08:05:02 16.2 C 10.76 g/m*3 16.2 C 0 km/h
1385 15-06-2003 08:11:02 16.3 C 10.68 g/m*3 16.3 C 0 km/h
1386 15-06-2003 08:17:02 16.4 C 10.89 g/m*3 16.4 C 0 km/h
1387 15-06-2003 08:23:02 16.5 C 10.81 g/m*3 16.5 C 0 km/h
1388 15-06-2003 08:29:02 16.6 C 10.88 g/m*3 16.6 C 0 km/h
1389 15-06-2003 08:35:02 16.7 C 10.94 g/m*3 16.7 C 0 km/h
1390 15-06-2003 08:41:02 16.9 C 10.93 g/m*3 16.9 C 0 km/h
1391 15-06-2003 08:47:02 17.1 C 11.06 g/m*3 17.1 C 0 km/h
1392 15-06-2003 08:53:02 17.3 C 10.9 g/m*3 17.3 C 0 km/h
1393 15-06-2003 08:59:02 17.6 C 10.8 g/m*3 17.6 C 0 km/h
1394 15-06-2003 09:05:02 17.8 C 11.08 g/m*3 17.8 C 0 km/h
1395 15-06-2003 09:11:02 17.9 C 10.99 g/m*3 17.9 C 0 km/h
1396 15-06-2003 09:17:02 18.3 C 11.1 g/m*3 18.3 C 0 km/h
1397 15-06-2003 09:23:02 18.6 C 11.14 g/m*3 18.6 C 0 km/h
1398 15-06-2003 09:29:02 18.9 C 11.34 g/m*3 18.9 C 0 km/h
1399 15-06-2003 09:35:01 19.1 C 10.98 g/m*3 19.1 C 0 km/h
1400 15-06-2003 09:41:01 19.4 C 11.18 g/m*3 19.4 C 0 km/h
Sensor: Nr:Datum:Temp:Abs-Feuchte:Windchill:Wind:
Aussen-T/F 1401 15-06-2003 09:47:01 19.7 C 10.87 g/m*3 19.7 C 0 km/h
1402 15-06-2003 09:53:01 19.9 C 11 g/m*3 19.9 C 0 km/h
1403 15-06-2003 09:59:01 20.3 C 10.73 g/m*3 20.3 C 0 km/h
1404 15-06-2003 10:05:02 20.5 C 10.68 g/m*3 20.5 C 0 km/h
1405 15-06-2003 10:11:02 20.8 C 10.86 g/m*3 20.8 C 0 km/h
1406 15-06-2003 10:17:02 21.1 C 10.69 g/m*3 21.1 C 0 km/h
1407 15-06-2003 10:23:02 21.6 C 10.81 g/m*3 21.6 C 0 km/h
1408 15-06-2003 10:29:02 22 C 10.87 g/m*3 22 C 0 km/h
1409 15-06-2003 10:35:02 21.8 C 10.55 g/m*3 21.8 C 0 km/h
1410 15-06-2003 10:41:02 22.3 C 10.86 g/m*3 22.3 C 0 km/h
1411 15-06-2003 10:47:02 22.7 C 11.11 g/m*3 22.7 C 0 km/h
1412 15-06-2003 10:53:02 22.5 C 10.39 g/m*3 22.5 C 0 km/h
1413 15-06-2003 10:59:02 23 C 10.69 g/m*3 23 C 0 km/h
1414 15-06-2003 11:05:01 23.1 C 10.34 g/m*3 23.1 C 0 km/h
1415 15-06-2003 11:11:01 23.4 C 10.3 g/m*3 23.4 C 0 km/h
1416 15-06-2003 11:17:01 23.4 C 10.09 g/m*3 23.4 C 0 km/h
1417 15-06-2003 11:23:01 24 C 10.23 g/m*3 24 C 0 km/h
1418 15-06-2003 11:29:01 23.8 C 10.11 g/m*3 23.8 C 0 km/h
1419 15-06-2003 11:35:01 24.3 C 10.18 g/m*3 24.3 C 0 km/h
1420 15-06-2003 11:41:01 24.7 C 10.19 g/m*3 24.7 C 0 km/h
1421 15-06-2003 11:47:01 24.9 C 10.07 g/m*3 24.9 C 0 km/h
1422 15-06-2003 11:53:01 25.1 C 9.49 g/m*3 25.1 C 0 km/h
1423 15-06-2003 11:59:01 25.9 C 10.41 g/m*3 25.9 C 0 km/h
1424 15-06-2003 12:05:01 26.7 C 9.62 g/m*3 26.7 C 0 km/h
1425 15-06-2003 12:11:01 26.6 C 9.31 g/m*3 26.6 C 0 km/h
Sensor: Nr:Datum:Temp:Abs-Feuchte:Windchill:Wind:
Aussen-T/F 1426 15-06-2003 12:17:01 26.5 C 9.76 g/m*3 26.5 C 0 km/h
1427 15-06-2003 12:23:01 27.2 C 9.63 g/m*3 27.2 C 0 km/h
1428 15-06-2003 12:29:01 27.4 C 9.74 g/m*3 27.4 C 0 km/h
1429 15-06-2003 12:35:01 27.3 C 9.94 g/m*3 27.3 C 0 km/h
1430 15-06-2003 12:41:01 27 C 9.01 g/m*3 27 C 0 km/h
1431 15-06-2003 12:47:01 27.7 C 9.09 g/m*3 27.7 C 0 km/h
1432 15-06-2003 12:53:01 28.8 C 8.81 g/m*3 28.8 C 0 km/h
1433 15-06-2003 12:59:01 27.5 C 9.79 g/m*3 27.5 C 0 km/h
1434 15-06-2003 13:05:00 28.3 C 8.85 g/m*3 28.3 C 0 km/h
1435 15-06-2003 13:11:00 27.5 C 9.26 g/m*3 27.5 C 0 km/h
1436 15-06-2003 13:17:00 26.7 C 9.11 g/m*3 26.7 C 0 km/h
1437 15-06-2003 13:23:00 26.4 C 9.46 g/m*3 26.4 C 0 km/h
1438 15-06-2003 13:29:00 26.3 C 9.9 g/m*3 26.3 C 0 km/h
1439 15-06-2003 13:35:02 26 C 9.49 g/m*3 26 C 0 km/h
1440 15-06-2003 13:41:02 25.8 C 10.83 g/m*3 25.8 C 0 km/h
1441 15-06-2003 13:47:02 25.7 C 11.01 g/m*3 25.7 C 0 km/h
1442 15-06-2003 13:53:02 27.2 C 9.37 g/m*3 27.2 C 0 km/h
1443 15-06-2003 13:59:02 26.9 C 9.73 g/m*3 26.9 C 0 km/h
1444 15-06-2003 14:05:01 27.2 C 9.37 g/m*3 27.2 C 0 km/h
1445 15-06-2003 14:11:01 27.3 C 10.2 g/m*3 27.3 C 0 km/h
1446 15-06-2003 14:17:01 27.2 C 9.89 g/m*3 27.2 C 0 km/h
1447 15-06-2003 14:23:01 27.3 C 10.47 g/m*3 27.3 C 0 km/h
1448 15-06-2003 14:29:01 27.1 C 10.35 g/m*3 27.1 C 0 km/h
1449 15-06-2003 14:35:01 27.1 C 11.13 g/m*3 27.1 C 0 km/h
1450 15-06-2003 14:41:01 27.6 C 10.11 g/m*3 27.6 C 0 km/h
Sensor: Nr:Datum:Temp:Abs-Feuchte:Windchill:Wind:
Aussen-T/F 1451 15-06-2003 14:47:01 28 C 10.33 g/m*3 28 C 0 km/h
1452 15-06-2003 14:53:01 29.3 C 9.93 g/m*3 29.3 C 0 km/h
1453 15-06-2003 14:59:01 30 C 9.7 g/m*3 30 C 0 km/h
1454 15-06-2003 15:05:02 29.9 C 9.95 g/m*3 29.9 C 0 km/h
1455 15-06-2003 15:11:02 30 C 9.7 g/m*3 30 C 0 km/h
1456 15-06-2003 15:17:02 29.9 C 9.65 g/m*3 29.9 C 0 km/h
1457 15-06-2003 15:23:02 29.6 C 9.5 g/m*3 29.6 C 0 km/h
1458 15-06-2003 15:29:02 29.3 C 9.34 g/m*3 29.3 C 0 km/h
1459 15-06-2003 15:35:02 29.4 C 9.39 g/m*3 29.4 C 0 km/h
1460 15-06-2003 15:41:02 29.8 C 9.3 g/m*3 29.8 C 0 km/h
1461 15-06-2003 15:47:02 30 C 9.4 g/m*3 30 C 0 km/h
1462 15-06-2003 15:53:02 30 C 9.4 g/m*3 30 C 0 km/h
1463 15-06-2003 15:59:02 30 C 9.4 g/m*3 30 C 0 km/h
1464 15-06-2003 16:05:02 30.2 C 9.2 g/m*3 30.2 C 0 km/h
1465 15-06-2003 16:11:02 30.1 C 9.45 g/m*3 30.1 C 0 km/h
1466 15-06-2003 16:17:02 30 C 9.1 g/m*3 30 C 0 km/h
1467 15-06-2003 16:23:02 30.3 C 9.55 g/m*3 30.3 C 0 km/h
1468 15-06-2003 16:29:02 30.3 C 9.55 g/m*3 30.3 C 0 km/h
1469 15-06-2003 16:35:01 30.9 C 9.23 g/m*3 30.9 C 0 km/h
1470 15-06-2003 16:41:01 30.6 C 9.4 g/m*3 30.6 C 0 km/h
1471 15-06-2003 16:47:01 30.1 C 9.15 g/m*3 30.1 C 0 km/h
1472 15-06-2003 16:53:01 29.3 C 9.34 g/m*3 29.3 C 0 km/h
1473 15-06-2003 16:59:01 29.2 C 9 g/m*3 29.2 C 0 km/h
1474 15-06-2003 17:05:00 28.4 C 8.9 g/m*3 28.4 C 0 km/h
1475 15-06-2003 17:11:00 28.8 C 9.09 g/m*3 28.8 C 0 km/h
Sensor: Nr:Datum:Temp:Abs-Feuchte:Windchill:Wind:
Aussen-T/F 1476 15-06-2003 17:17:00 29.5 C 9.15 g/m*3 29.5 C 0 km/h
1477 15-06-2003 17:23:00 28.9 C 9.43 g/m*3 28.9 C 0 km/h
1478 15-06-2003 17:29:00 28.9 C 8.86 g/m*3 28.9 C 0 km/h
1479 15-06-2003 17:35:01 29.4 C 9.69 g/m*3 29.4 C 0 km/h
1480 15-06-2003 17:41:01 30 C 10.31 g/m*3 30 C 0 km/h
1481 15-06-2003 17:47:01 30 C 10.31 g/m*3 30 C 0 km/h
1482 15-06-2003 17:53:01 30.1 C 10.06 g/m*3 30.1 C 0 km/h
1483 15-06-2003 17:59:01 30.4 C 9.3 g/m*3 30.4 C 0 km/h
1484 15-06-2003 18:05:01 30.4 C 8.68 g/m*3 30.4 C 0 km/h
1485 15-06-2003 18:11:01 30.5 C 9.03 g/m*3 30.5 C 0 km/h
1486 15-06-2003 18:17:01 30.6 C 10.02 g/m*3 30.6 C 0 km/h
1487 15-06-2003 18:23:01 30.6 C 9.4 g/m*3 30.6 C 0 km/h
1488 15-06-2003 18:29:01 30 C 9.1 g/m*3 30 C 0 km/h
1489 15-06-2003 18:35:01 29.9 C 8.75 g/m*3 29.9 C 0 km/h
1490 15-06-2003 18:41:01 30.1 C 10.06 g/m*3 30.1 C 0 km/h
1491 15-06-2003 18:47:01 30.2 C 10.12 g/m*3 30.2 C 0 km/h
1492 15-06-2003 18:53:01 30.3 C 9.25 g/m*3 30.3 C 0 km/h
1493 15-06-2003 18:59:01 30.3 C 9.25 g/m*3 30.3 C 0 km/h
1494 15-06-2003 19:05:01 30 C 8.49 g/m*3 30 C 0 km/h
1495 15-06-2003 19:11:01 29.5 C 9.74 g/m*3 29.5 C 0 km/h
1496 15-06-2003 19:17:01 29 C 9.48 g/m*3 29 C 0 km/h
1497 15-06-2003 19:23:01 28.4 C 9.73 g/m*3 28.4 C 0 km/h
1498 15-06-2003 19:29:01 28 C 11.42 g/m*3 28 C 0 km/h
1499 15-06-2003 19:35:01 27.4 C 11.31 g/m*3 27.4 C 0 km/h
1500 15-06-2003 19:41:01 26.9 C 11.52 g/m*3 26.9 C 0 km/h
Sensor: Nr:Datum:Temp:Abs-Feuchte:Windchill:Wind:
Aussen-T/F 1501 15-06-2003 19:47:01 26.5 C 11.51 g/m*3 26.5 C 0 km/h
1502 15-06-2003 19:53:01 26.1 C 11.75 g/m*3 26.1 C 0 km/h
1503 15-06-2003 19:59:01 25.8 C 12.04 g/m*3 25.8 C 0 km/h
1504 15-06-2003 20:05:01 25.5 C 12.07 g/m*3 25.5 C 0 km/h
1505 15-06-2003 20:11:01 25 C 11.51 g/m*3 25 C 0 km/h
1506 15-06-2003 20:17:01 24.9 C 11.45 g/m*3 24.9 C 0 km/h
1507 15-06-2003 20:23:01 24.5 C 11.64 g/m*3 24.5 C 0 km/h
1508 15-06-2003 20:29:01 24.3 C 11.29 g/m*3 24.3 C 0 km/h
1509 15-06-2003 20:50:00 23.4 C 11.14 g/m*3 23.4 C 0 km/h
1510 15-06-2003 21:12:02 23.3 C 11.29 g/m*3 23.3 C 0 km/h
1511 15-06-2003 21:34:00 22.6 C 11.05 g/m*3 22.6 C 0 km/h
1512 15-06-2003 21:56:00 22.6 C 10.25 g/m*3 22.6 C 0 km/h
1513 15-06-2003 22:32:11 22.4 C 10.33 g/m*3 22.4 C 0 km/h
1514 15-06-2003 22:54:11 22 C 10.09 g/m*3 22 C 0 km/h
1515 15-06-2003 23:16:11 21.4 C 9.94 g/m*3 21.4 C 0 km/h
1516 15-06-2003 23:38:11 20.7 C 9.72 g/m*3 20.7 C 0 km/h
1517 16-06-2003 00:00:11 20.4 C 10.26 g/m*3 20.4 C 0 km/h
1518 16-06-2003 00:22:11 19.8 C 10.25 g/m*3 19.8 C 0 km/h
1519 16-06-2003 00:44:11 19.4 C 10.18 g/m*3 19.4 C 0 km/h
1520 16-06-2003 01:06:11 19 C 9.78 g/m*3 19 C 0 km/h
1521 16-06-2003 01:28:11 18.5 C 9.81 g/m*3 18.5 C 0 km/h
1522 16-06-2003 01:50:11 18.4 C 10.07 g/m*3 18.4 C 0 km/h
1523 16-06-2003 02:12:11 18.6 C 10.03 g/m*3 18.6 C 0 km/h
1524 16-06-2003 02:34:11 18.4 C 9.59 g/m*3 18.4 C 0 km/h
1525 16-06-2003 03:18:11 17.4 C 9.63 g/m*3 17.4 C 0 km/h
Sensor: Nr:Datum:Temp:Abs-Feuchte:Windchill:Wind:
Aussen-T/F 1526 16-06-2003 03:40:11 17.3 C 9.72 g/m*3 17.3 C 0 km/h
1527 16-06-2003 04:02:11 17.2 C 9.96 g/m*3 17.2 C 0 km/h
1528 16-06-2003 04:24:11 16.8 C 9.87 g/m*3 16.8 C 0 km/h
1529 16-06-2003 04:46:11 16.3 C 9.57 g/m*3 16.3 C 0 km/h
1530 16-06-2003 05:08:11 15.8 C 9.42 g/m*3 15.8 C 0 km/h
1531 16-06-2003 05:30:11 15.6 C 9.31 g/m*3 15.6 C 0 km/h
1532 16-06-2003 05:52:11 15.5 C 9.39 g/m*3 15.5 C 0 km/h
1533 16-06-2003 06:14:11 15.3 C 9.4 g/m*3 15.3 C 0 km/h
1534 16-06-2003 06:36:11 15.2 C 9.48 g/m*3 15.2 C 0 km/h
1535 16-06-2003 06:58:11 15.3 C 9.92 g/m*3 15.3 C 0 km/h
1536 16-06-2003 07:20:11 15.6 C 10.11 g/m*3 15.6 C 0 km/h
1537 16-06-2003 07:42:11 15.6 C 9.97 g/m*3 15.6 C 0 km/h
1538 16-06-2003 08:04:11 16 C 9.81 g/m*3 16 C 0 km/h
1539 16-06-2003 08:26:11 16.5 C 9.69 g/m*3 16.5 C 0 km/h
1540 16-06-2003 08:48:11 17 C 9.84 g/m*3 17 C 0 km/h
1541 16-06-2003 09:10:11 17.7 C 9.96 g/m*3 17.7 C 0 km/h
1542 16-06-2003 09:32:11 18.5 C 10.28 g/m*3 18.5 C 0 km/h
1543 16-06-2003 09:54:11 19.7 C 9.68 g/m*3 19.7 C 0 km/h
1544 16-06-2003 10:16:11 20.8 C 9.42 g/m*3 20.8 C 0 km/h
1545 16-06-2003 10:38:11 21.7 C 8.77 g/m*3 21.7 C 0 km/h
1546 16-06-2003 11:00:11 22.8 C 8.74 g/m*3 22.8 C 0 km/h
1547 16-06-2003 11:22:11 23.7 C 7.91 g/m*3 23.7 C 0 km/h
1548 16-06-2003 11:44:11 23.9 C 7.36 g/m*3 23.9 C 0 km/h
1549 16-06-2003 12:06:11 24.8 C 6.83 g/m*3 24.8 C 0 km/h
1550 16-06-2003 12:28:11 25 C 6.22 g/m*3 25 C 0 km/h
Sensor: Nr:Datum:Temp:Abs-Feuchte:Windchill:Wind:
Aussen-T/F 1551 16-06-2003 12:50:11 26.9 C 7.17 g/m*3 26.9 C 0 km/h
1552 16-06-2003 13:12:11 26.6 C 5.79 g/m*3 26.6 C 0 km/h
1553 16-06-2003 13:34:11 27.5 C 5.82 g/m*3 27.5 C 0 km/h
1554 16-06-2003 13:56:11 28.5 C 5.87 g/m*3 28.5 C 0 km/h
1555 16-06-2003 14:18:11 27.9 C 5.68 g/m*3 27.9 C 0 km/h
1556 16-06-2003 14:40:11 28.1 C 5.74 g/m*3 28.1 C 0 km/h
1557 16-06-2003 15:02:11 27.3 C 6.02 g/m*3 27.3 C 0 km/h
1558 16-06-2003 15:24:11 29.2 C 6.1 g/m*3 29.2 C 0 km/h
1559 16-06-2003 15:24:25 29.2 C 6.1 g/m*3 29.2 C 0 km/h
1560 16-06-2003 15:46:25 29.3 C 6.42 g/m*3 29.3 C 0 km/h
1561 16-06-2003 16:08:25 29.7 C 6.27 g/m*3 29.7 C 0 km/h
1562 16-06-2003 16:30:25 29.4 C 5.87 g/m*3 29.4 C 0 km/h
1563 16-06-2003 16:52:25 29.6 C 6.23 g/m*3 29.6 C 0 km/h
1564 16-06-2003 17:14:25 30.6 C 6.26 g/m*3 30.6 C 0 km/h
1565 16-06-2003 17:36:25 30.4 C 6.51 g/m*3 30.4 C 0 km/h
1566 16-06-2003 17:58:25 30.1 C 6.71 g/m*3 30.1 C 0 km/h
1567 16-06-2003 18:20:25 30 C 6.67 g/m*3 30 C 0 km/h
1568 16-06-2003 18:42:25 30.4 C 6.51 g/m*3 30.4 C 0 km/h
1569 16-06-2003 19:04:25 30.1 C 7.01 g/m*3 30.1 C 0 km/h
1570 16-06-2003 19:26:25 30.5 C 6.85 g/m*3 30.5 C 0 km/h
1571 16-06-2003 19:48:25 30 C 6.37 g/m*3 30 C 0 km/h
1572 16-06-2003 20:10:25 29.2 C 7.55 g/m*3 29.2 C 0 km/h
1573 16-06-2003 20:32:25 28.5 C 7.27 g/m*3 28.5 C 0 km/h
1574 16-06-2003 20:54:25 27.8 C 9.41 g/m*3 27.8 C 0 km/h
1575 16-06-2003 21:16:25 25.9 C 9.2 g/m*3 25.9 C 0 km/h
Sensor: Nr:Datum:Temp:Abs-Feuchte:Windchill:Wind:
Aussen-T/F 1576 16-06-2003 21:38:25 23.1 C 8.89 g/m*3 23.1 C 0 km/h
1577 16-06-2003 22:00:25 22.7 C 9.29 g/m*3 22.7 C 0 km/h
1578 16-06-2003 22:22:25 21.5 C 8.86 g/m*3 21.5 C 0 km/h
1579 16-06-2003 22:44:25 20.9 C 9.11 g/m*3 20.9 C 0 km/h
1580 16-06-2003 23:06:25 20.7 C 9 g/m*3 20.7 C 0 km/h
1581 16-06-2003 23:28:25 20.2 C 9.62 g/m*3 20.2 C 0 km/h
1582 16-06-2003 23:50:25 19.7 C 9.34 g/m*3 19.7 C 0 km/h
1583 17-06-2003 00:12:25 19.1 C 9.34 g/m*3 19.1 C 0 km/h
1584 17-06-2003 00:34:25 18.8 C 9.5 g/m*3 18.8 C 0 km/h
1585 17-06-2003 00:56:25 18.2 C 9.48 g/m*3 18.2 C 0 km/h
1586 17-06-2003 01:18:25 17.4 C 9.63 g/m*3 17.4 C 0 km/h
1587 17-06-2003 01:40:25 17.3 C 9.58 g/m*3 17.3 C 0 km/h
1588 17-06-2003 02:02:25 16.8 C 9.72 g/m*3 16.8 C 0 km/h
1589 17-06-2003 02:24:25 16.2 C 9.65 g/m*3 16.2 C 0 km/h
1590 17-06-2003 02:46:25 16.3 C 9.85 g/m*3 16.3 C 0 km/h
1591 17-06-2003 03:08:25 16 C 10.08 g/m*3 16 C 0 km/h
1592 17-06-2003 03:30:25 15.5 C 9.78 g/m*3 15.5 C 0 km/h
1593 17-06-2003 03:52:25 15.2 C 9.73 g/m*3 15.2 C 0 km/h
1594 17-06-2003 04:14:25 15 C 9.75 g/m*3 15 C 0 km/h
1595 17-06-2003 04:36:25 14.6 C 9.64 g/m*3 14.6 C 0 km/h
1596 17-06-2003 04:58:25 14.5 C 9.7 g/m*3 14.5 C 0 km/h
1597 17-06-2003 05:20:25 14.3 C 9.46 g/m*3 14.3 C 0 km/h
1598 17-06-2003 05:42:25 14.2 C 9.52 g/m*3 14.2 C 0 km/h
1599 17-06-2003 06:04:25 14 C 9.41 g/m*3 14 C 0 km/h
1600 17-06-2003 06:26:25 14.1 C 9.59 g/m*3 14.1 C 0 km/h
Sensor: Nr:Datum:Temp:Abs-Feuchte:Windchill:Wind:
Aussen-T/F 1601 17-06-2003 06:48:25 14.2 C 9.77 g/m*3 14.2 C 0 km/h
1602 17-06-2003 07:10:25 14.4 C 9.77 g/m*3 14.4 C 0 km/h
1603 17-06-2003 07:32:25 14.8 C 9.88 g/m*3 14.8 C 0 km/h
1604 17-06-2003 07:54:25 15.3 C 9.92 g/m*3 15.3 C 0 km/h
1605 17-06-2003 08:16:25 15.6 C 9.97 g/m*3 15.6 C 0 km/h
1606 17-06-2003 08:38:25 16.4 C 10.05 g/m*3 16.4 C 0 km/h
1607 17-06-2003 09:00:25 17.2 C 10.1 g/m*3 17.2 C 0 km/h
1608 17-06-2003 09:22:25 17.9 C 10.08 g/m*3 17.9 C 0 km/h
1609 17-06-2003 09:44:25 19.7 C 10.02 g/m*3 19.7 C 0 km/h
1610 17-06-2003 10:06:25 20.8 C 9.6 g/m*3 20.8 C 0 km/h
1611 17-06-2003 10:28:25 22 C 9.32 g/m*3 22 C 0 km/h
1612 17-06-2003 10:50:25 23.6 C 9.78 g/m*3 23.6 C 0 km/h
1613 17-06-2003 11:12:25 24.6 C 9.45 g/m*3 24.6 C 0 km/h
1614 17-06-2003 11:34:25 25.4 C 9.42 g/m*3 25.4 C 0 km/h
1615 17-06-2003 11:56:25 26.4 C 9.21 g/m*3 26.4 C 0 km/h
1616 17-06-2003 12:18:25 28 C 9.52 g/m*3 28 C 0 km/h
1617 17-06-2003 12:40:25 28.8 C 8.81 g/m*3 28.8 C 0 km/h
1618 17-06-2003 13:02:25 30 C 8.79 g/m*3 30 C 0 km/h
1619 17-06-2003 13:24:25 29.4 C 7.93 g/m*3 29.4 C 0 km/h
1620 17-06-2003 13:46:25 30.5 C 9.35 g/m*3 30.5 C 0 km/h
1621 17-06-2003 14:08:25 31.3 C 7.48 g/m*3 31.3 C 0 km/h
1622 17-06-2003 14:30:25 30.3 C 8.32 g/m*3 30.3 C 0 km/h
1623 17-06-2003 14:52:25 30.3 C 8.32 g/m*3 30.3 C 0 km/h
1624 17-06-2003 15:14:25 30.6 C 8.14 g/m*3 30.6 C 0 km/h
1625 17-06-2003 15:36:25 31.2 C 7.76 g/m*3 31.2 C 0 km/h
Sensor: Nr:Datum:Temp:Abs-Feuchte:Windchill:Wind:
Aussen-T/F 1626 17-06-2003 15:58:25 31.7 C 7.31 g/m*3 31.7 C 0 km/h
1627 17-06-2003 16:20:25 31.4 C 7.85 g/m*3 31.4 C 0 km/h
1628 17-06-2003 16:42:25 32.3 C 7.55 g/m*3 32.3 C 0 km/h
1629 17-06-2003 17:04:25 32.7 C 7.71 g/m*3 32.7 C 0 km/h
1630 17-06-2003 17:26:25 32.1 C 7.47 g/m*3 32.1 C 0 km/h
1631 17-06-2003 17:48:25 32.8 C 7.4 g/m*3 32.8 C 0 km/h
1632 17-06-2003 18:10:25 32.3 C 7.2 g/m*3 32.3 C 0 km/h
1633 17-06-2003 18:32:25 32 C 9.11 g/m*3 32 C 0 km/h
1634 17-06-2003 18:54:25 31.5 C 10.52 g/m*3 31.5 C 0 km/h
1635 17-06-2003 19:16:25 30.1 C 10.98 g/m*3 30.1 C 0 km/h
1636 17-06-2003 19:38:25 28.9 C 11.14 g/m*3 28.9 C 0 km/h
1637 17-06-2003 20:00:25 27.5 C 11.11 g/m*3 27.5 C 0 km/h
1638 17-06-2003 20:22:25 27.1 C 10.87 g/m*3 27.1 C 0 km/h
1639 17-06-2003 20:44:25 26.1 C 10.28 g/m*3 26.1 C 0 km/h
1640 17-06-2003 21:06:25 25.4 C 10.83 g/m*3 25.4 C 0 km/h
1641 17-06-2003 21:28:25 24.5 C 10.52 g/m*3 24.5 C 0 km/h
1642 17-06-2003 21:50:25 22.9 C 11.24 g/m*3 22.9 C 0 km/h
1643 17-06-2003 22:12:25 20.4 C 13.09 g/m*3 20.4 C 0 km/h
1644 17-06-2003 22:34:25 20 C 13.31 g/m*3 20 C 0 km/h
1645 17-06-2003 22:56:25 20.3 C 13.01 g/m*3 20.3 C 0 km/h
1646 17-06-2003 23:18:25 19.9 C 12.89 g/m*3 19.9 C 0 km/h
1647 17-06-2003 23:40:25 20.1 C 12.52 g/m*3 20.1 C 0 km/h
1648 18-06-2003 00:02:25 20.2 C 12.76 g/m*3 20.2 C 0 km/h
1649 18-06-2003 00:24:25 19.7 C 12.57 g/m*3 19.7 C 0 km/h
1650 18-06-2003 00:46:25 19.5 C 12.42 g/m*3 19.5 C 0 km/h
Sensor: Nr:Datum:Temp:Abs-Feuchte:Windchill:Wind:
Aussen-T/F 1651 18-06-2003 01:08:25 19.3 C 12.27 g/m*3 19.3 C 0 km/h
1652 18-06-2003 01:30:25 19.3 C 12.44 g/m*3 19.3 C 0 km/h
1653 18-06-2003 01:52:25 19.1 C 12.62 g/m*3 19.1 C 0 km/h
1654 18-06-2003 02:14:25 18.7 C 12.65 g/m*3 18.7 C 0 km/h
1655 18-06-2003 02:36:25 18.7 C 12.81 g/m*3 18.7 C 0 km/h
1656 18-06-2003 02:58:25 18.8 C 12.88 g/m*3 18.8 C 0 km/h
1657 18-06-2003 03:20:25 18.5 C 12.66 g/m*3 18.5 C 0 km/h
1658 18-06-2003 03:42:25 18.4 C 12.9 g/m*3 18.4 C 0 km/h
1659 18-06-2003 04:04:25 18.5 C 12.82 g/m*3 18.5 C 0 km/h
1660 18-06-2003 04:26:25 18.8 C 12.88 g/m*3 18.8 C 0 km/h
1661 18-06-2003 04:48:25 18.2 C 13.06 g/m*3 18.2 C 0 km/h
1662 18-06-2003 05:10:25 18.5 C 12.97 g/m*3 18.5 C 0 km/h
1663 18-06-2003 05:32:25 18.6 C 12.73 g/m*3 18.6 C 0 km/h
1664 18-06-2003 05:54:25 17.7 C 13.28 g/m*3 17.7 C 0 km/h
1665 18-06-2003 06:16:25 17.6 C 13.35 g/m*3 17.6 C 0 km/h
1666 18-06-2003 06:38:25 17.5 C 12.67 g/m*3 17.5 C 0 km/h
1667 18-06-2003 07:00:25 17.6 C 12.6 g/m*3 17.6 C 0 km/h
1668 18-06-2003 07:22:25 17.7 C 12.52 g/m*3 17.7 C 0 km/h
1669 18-06-2003 07:44:25 17.8 C 12.14 g/m*3 17.8 C 0 km/h
1670 18-06-2003 08:06:25 17.8 C 12.14 g/m*3 17.8 C 0 km/h
1671 18-06-2003 08:28:25 17.7 C 12.07 g/m*3 17.7 C 0 km/h
1672 18-06-2003 08:50:25 17.8 C 12.14 g/m*3 17.8 C 0 km/h
1673 18-06-2003 09:12:25 18.3 C 12.04 g/m*3 18.3 C 0 km/h
1674 18-06-2003 09:34:25 18.6 C 11.94 g/m*3 18.6 C 0 km/h
1675 18-06-2003 09:56:25 18 C 11.67 g/m*3 18 C 0 km/h
Sensor: Nr:Datum:Temp:Abs-Feuchte:Windchill:Wind:
Aussen-T/F 1676 18-06-2003 10:18:25 18.4 C 11.8 g/m*3 18.4 C 0 km/h
1677 18-06-2003 10:40:25 19.9 C 11.85 g/m*3 19.9 C 0 km/h
1678 18-06-2003 11:02:25 20.2 C 11.37 g/m*3 20.2 C 0 km/h
1679 18-06-2003 11:24:25 19.9 C 11.68 g/m*3 19.9 C 0 km/h
1680 18-06-2003 11:46:25 19.7 C 11.55 g/m*3 19.7 C 0 km/h
1681 18-06-2003 12:08:25 19.9 C 11.85 g/m*3 19.9 C 0 km/h
1682 18-06-2003 12:30:25 19.9 C 12.2 g/m*3 19.9 C 0 km/h
1683 18-06-2003 12:52:25 21.7 C 11.06 g/m*3 21.7 C 0 km/h
1684 18-06-2003 13:14:25 22.8 C 10.77 g/m*3 22.8 C 0 km/h
1685 18-06-2003 13:36:25 22.5 C 10.79 g/m*3 22.5 C 0 km/h
1686 18-06-2003 13:58:25 23.1 C 10.75 g/m*3 23.1 C 0 km/h
1687 18-06-2003 14:20:25 22 C 10.67 g/m*3 22 C 0 km/h
1688 18-06-2003 14:42:25 21.3 C 11.56 g/m*3 21.3 C 0 km/h
1689 18-06-2003 15:04:25 21.9 C 11.77 g/m*3 21.9 C 0 km/h
1690 18-06-2003 15:26:25 23.1 C 11.78 g/m*3 23.1 C 0 km/h
1691 18-06-2003 15:48:25 20 C 12.44 g/m*3 20 C 0 km/h
1692 18-06-2003 16:10:25 20.9 C 14.93 g/m*3 20.9 C 0 km/h
1693 18-06-2003 16:32:25 20.4 C 14.15 g/m*3 20.4 C 0 km/h
1694 18-06-2003 16:54:25 20.1 C 13.91 g/m*3 20.1 C 0 km/h
1695 18-06-2003 17:16:25 22.5 C 13.78 g/m*3 22.5 C 0 km/h
1696 18-06-2003 17:38:25 24.3 C 12.17 g/m*3 24.3 C 0 km/h
1697 18-06-2003 18:00:25 25.8 C 11.07 g/m*3 25.8 C 0 km/h
1698 18-06-2003 18:22:25 25.7 C 10.77 g/m*3 25.7 C 0 km/h
1699 18-06-2003 18:44:25 26 C 10.47 g/m*3 26 C 0 km/h
1700 18-06-2003 19:06:25 24.3 C 11.95 g/m*3 24.3 C 0 km/h
Sensor: Nr:Datum:Temp:Abs-Feuchte:Windchill:Wind:
Aussen-T/F 1701 18-06-2003 19:28:25 25.5 C 9.47 g/m*3 25.5 C 0 km/h
1702 18-06-2003 19:50:25 24.3 C 10.4 g/m*3 24.3 C 0 km/h
1703 18-06-2003 20:12:25 23.5 C 10.15 g/m*3 23.5 C 0 km/h
1704 18-06-2003 20:34:25 23 C 10.48 g/m*3 23 C 0 km/h
1705 18-06-2003 20:56:25 22.7 C 10.71 g/m*3 22.7 C 0 km/h
1706 18-06-2003 21:18:25 22.2 C 10.8 g/m*3 22.2 C 0 km/h
1707 18-06-2003 21:40:25 21.9 C 11.19 g/m*3 21.9 C 0 km/h
1708 18-06-2003 22:02:25 21.5 C 10.94 g/m*3 21.5 C 0 km/h
1709 18-06-2003 22:24:25 21.2 C 10.75 g/m*3 21.2 C 0 km/h
1710 18-06-2003 22:46:25 20.8 C 11.05 g/m*3 20.8 C 0 km/h
1711 18-06-2003 23:08:25 20.5 C 10.85 g/m*3 20.5 C 0 km/h
1712 18-06-2003 23:30:25 20.2 C 10.84 g/m*3 20.2 C 0 km/h
1713 18-06-2003 23:52:25 19.8 C 10.93 g/m*3 19.8 C 0 km/h
1714 19-06-2003 00:14:25 19.6 C 11.14 g/m*3 19.6 C 0 km/h
1715 19-06-2003 00:36:25 19.6 C 10.8 g/m*3 19.6 C 0 km/h
1716 19-06-2003 00:58:25 19.5 C 10.91 g/m*3 19.5 C 0 km/h
1717 19-06-2003 01:20:25 19.2 C 11.05 g/m*3 19.2 C 0 km/h
1718 19-06-2003 01:42:25 19.1 C 10.98 g/m*3 19.1 C 0 km/h
1719 19-06-2003 02:04:25 19 C 11.08 g/m*3 19 C 0 km/h
1720 19-06-2003 02:26:25 18.4 C 11.48 g/m*3 18.4 C 0 km/h
1721 19-06-2003 02:48:25 18.5 C 10.92 g/m*3 18.5 C 0 km/h
1722 19-06-2003 03:10:25 18.6 C 10.82 g/m*3 18.6 C 0 km/h
1723 19-06-2003 03:32:25 18.5 C 10.44 g/m*3 18.5 C 0 km/h
1724 19-06-2003 03:54:25 18.5 C 9.81 g/m*3 18.5 C 0 km/h
1725 19-06-2003 04:16:25 18.4 C 9.59 g/m*3 18.4 C 0 km/h
Sensor: Nr:Datum:Temp:Abs-Feuchte:Windchill:Wind:
Aussen-T/F 1726 19-06-2003 04:38:25 17.9 C 9.92 g/m*3 17.9 C 0 km/h
1727 19-06-2003 05:00:25 17.8 C 10.32 g/m*3 17.8 C 0 km/h
1728 19-06-2003 05:22:25 17.9 C 10.23 g/m*3 17.9 C 0 km/h
1729 19-06-2003 05:44:25 18 C 10.14 g/m*3 18 C 0 km/h
1730 19-06-2003 06:06:25 18.2 C 9.79 g/m*3 18.2 C 0 km/h
1731 19-06-2003 06:28:25 18.3 C 9.69 g/m*3 18.3 C 0 km/h
1732 19-06-2003 06:50:25 18.2 C 9.95 g/m*3 18.2 C 0 km/h
1733 19-06-2003 07:12:25 18.4 C 10.07 g/m*3 18.4 C 0 km/h
1734 19-06-2003 07:34:25 18.5 C 10.13 g/m*3 18.5 C 0 km/h
1735 19-06-2003 07:56:25 18.7 C 10.25 g/m*3 18.7 C 0 km/h
1736 19-06-2003 08:18:25 18.9 C 10.37 g/m*3 18.9 C 0 km/h
1737 19-06-2003 08:40:25 19 C 10.43 g/m*3 19 C 0 km/h
1738 19-06-2003 09:02:25 19.5 C 10.74 g/m*3 19.5 C 0 km/h
1739 19-06-2003 09:24:25 19.9 C 11 g/m*3 19.9 C 0 km/h
1740 19-06-2003 09:46:25 19.6 C 10.97 g/m*3 19.6 C 0 km/h
1741 19-06-2003 10:08:25 19.4 C 11.35 g/m*3 19.4 C 0 km/h
1742 19-06-2003 10:30:25 20.2 C 11.89 g/m*3 20.2 C 0 km/h
1743 19-06-2003 10:52:25 20.6 C 11.28 g/m*3 20.6 C 0 km/h
1744 19-06-2003 11:14:25 21.2 C 11.49 g/m*3 21.2 C 0 km/h
1745 19-06-2003 11:36:25 20.8 C 11.23 g/m*3 20.8 C 0 km/h
1746 19-06-2003 11:58:25 20.9 C 11.66 g/m*3 20.9 C 0 km/h
1747 19-06-2003 12:20:25 20.9 C 11.66 g/m*3 20.9 C 0 km/h
1748 19-06-2003 12:42:25 21 C 11.36 g/m*3 21 C 0 km/h
1749 19-06-2003 13:04:25 21.2 C 11.49 g/m*3 21.2 C 0 km/h
1750 19-06-2003 13:26:25 22.6 C 11.25 g/m*3 22.6 C 0 km/h
Sensor: Nr:Datum:Temp:Abs-Feuchte:Windchill:Wind:
Aussen-T/F 1751 19-06-2003 13:48:25 21.7 C 11.64 g/m*3 21.7 C 0 km/h
1752 19-06-2003 14:10:25 22 C 11.65 g/m*3 22 C 0 km/h
1753 19-06-2003 14:32:25 22.7 C 11.72 g/m*3 22.7 C 0 km/h
1754 19-06-2003 14:54:25 22.8 C 11.58 g/m*3 22.8 C 0 km/h
1755 19-06-2003 15:16:25 23.4 C 10.51 g/m*3 23.4 C 0 km/h
1756 19-06-2003 15:38:25 24.2 C 10.12 g/m*3 24.2 C 0 km/h
1757 19-06-2003 16:00:25 24.6 C 10.35 g/m*3 24.6 C 0 km/h
1758 19-06-2003 16:22:25 24.4 C 10.68 g/m*3 24.4 C 0 km/h
1759 19-06-2003 16:44:25 24.4 C 10.46 g/m*3 24.4 C 0 km/h
1760 19-06-2003 17:06:25 24.4 C 10.68 g/m*3 24.4 C 0 km/h
1761 19-06-2003 17:28:25 23.7 C 10.48 g/m*3 23.7 C 0 km/h
1762 19-06-2003 17:50:25 23.9 C 11.47 g/m*3 23.9 C 0 km/h
1763 19-06-2003 18:12:25 23.9 C 12.11 g/m*3 23.9 C 0 km/h
1764 19-06-2003 18:34:25 23.6 C 12.12 g/m*3 23.6 C 0 km/h
1765 19-06-2003 18:56:25 23.3 C 12.13 g/m*3 23.3 C 0 km/h
1766 19-06-2003 19:18:25 23.1 C 12.2 g/m*3 23.1 C 0 km/h
1767 19-06-2003 19:40:25 22.7 C 12.32 g/m*3 22.7 C 0 km/h
1768 19-06-2003 20:02:25 22.5 C 12.18 g/m*3 22.5 C 0 km/h
1769 19-06-2003 20:24:25 22.3 C 12.24 g/m*3 22.3 C 0 km/h
1770 19-06-2003 20:46:25 22.1 C 11.52 g/m*3 22.1 C 0 km/h
1771 19-06-2003 21:08:25 21.9 C 11.96 g/m*3 21.9 C 0 km/h
1772 19-06-2003 21:30:25 21.8 C 11.7 g/m*3 21.8 C 0 km/h
1773 19-06-2003 21:52:25 21.8 C 11.9 g/m*3 21.8 C 0 km/h
1774 19-06-2003 22:14:25 21.1 C 11.79 g/m*3 21.1 C 0 km/h
1775 19-06-2003 22:36:25 20.6 C 12.35 g/m*3 20.6 C 0 km/h
Sensor: Nr:Datum:Temp:Abs-Feuchte:Windchill:Wind:
Aussen-T/F 1776 19-06-2003 22:58:25 20.5 C 12.28 g/m*3 20.5 C 0 km/h
1777 19-06-2003 23:20:25 20.1 C 12.52 g/m*3 20.1 C 0 km/h
1778 19-06-2003 23:42:25 20 C 12.44 g/m*3 20 C 0 km/h
1779 20-06-2003 00:04:25 20 C 12.44 g/m*3 20 C 0 km/h
1780 20-06-2003 00:26:25 20 C 12.44 g/m*3 20 C 0 km/h
1781 20-06-2003 01:10:25 20 C 12.44 g/m*3 20 C 0 km/h
1782 20-06-2003 01:32:25 19.9 C 12.54 g/m*3 19.9 C 0 km/h
1783 20-06-2003 01:54:25 19.9 C 12.71 g/m*3 19.9 C 0 km/h
1784 20-06-2003 02:16:25 19.9 C 12.71 g/m*3 19.9 C 0 km/h
1785 20-06-2003 02:38:25 19.7 C 12.57 g/m*3 19.7 C 0 km/h
1786 20-06-2003 03:00:25 19.1 C 12.95 g/m*3 19.1 C 0 km/h
1787 20-06-2003 03:22:25 19 C 13.04 g/m*3 19 C 0 km/h
1788 20-06-2003 03:44:25 19.1 C 12.95 g/m*3 19.1 C 0 km/h
1789 20-06-2003 04:06:25 18.4 C 13.05 g/m*3 18.4 C 0 km/h
1790 20-06-2003 04:28:25 18.8 C 12.24 g/m*3 18.8 C 0 km/h
1791 20-06-2003 04:50:25 18.9 C 11.99 g/m*3 18.9 C 0 km/h
1792 20-06-2003 05:12:25 18.5 C 11.71 g/m*3 18.5 C 0 km/h
1793 20-06-2003 05:34:25 18.6 C 11.14 g/m*3 18.6 C 0 km/h
1794 20-06-2003 05:56:25 18.5 C 10.92 g/m*3 18.5 C 0 km/h
1795 20-06-2003 06:18:25 18.3 C 11.26 g/m*3 18.3 C 0 km/h
1796 20-06-2003 06:40:25 18.5 C 11.08 g/m*3 18.5 C 0 km/h
1797 20-06-2003 07:02:25 18.4 C 11.01 g/m*3 18.4 C 0 km/h
1798 20-06-2003 07:24:25 18.5 C 11.39 g/m*3 18.5 C 0 km/h
1799 20-06-2003 07:46:25 17.5 C 8.8 g/m*3 17.5 C 0 km/h
1800 20-06-2003 08:08:25 17.5 C 8.65 g/m*3 17.5 C 0 km/h
Sensor: Nr:Datum:Temp:Abs-Feuchte:Windchill:Wind:
Aussen-T/F 1801 20-06-2003 08:30:25 17.6 C 8.55 g/m*3 17.6 C 0 km/h
1802 20-06-2003 08:52:25 17.5 C 8.5 g/m*3 17.5 C 0 km/h
1803 20-06-2003 09:14:25 17.9 C 8.55 g/m*3 17.9 C 0 km/h
1804 20-06-2003 09:36:25 18.3 C 8.29 g/m*3 18.3 C 0 km/h
1805 20-06-2003 09:58:25 18.7 C 8.33 g/m*3 18.7 C 0 km/h
1806 20-06-2003 10:20:25 19.8 C 8.88 g/m*3 19.8 C 0 km/h
1807 20-06-2003 10:42:25 19.9 C 8.59 g/m*3 19.9 C 0 km/h
1808 20-06-2003 11:04:25 20.4 C 8.49 g/m*3 20.4 C 0 km/h
1809 20-06-2003 11:26:25 21.4 C 8.44 g/m*3 21.4 C 0 km/h
1810 20-06-2003 11:48:25 22.1 C 8.2 g/m*3 22.1 C 0 km/h
1811 20-06-2003 12:10:25 22.7 C 7.27 g/m*3 22.7 C 0 km/h
1812 20-06-2003 12:32:25 22.5 C 7.59 g/m*3 22.5 C 0 km/h
1813 20-06-2003 12:54:25 23.2 C 7.28 g/m*3 23.2 C 0 km/h
1814 20-06-2003 13:16:25 23.4 C 6.73 g/m*3 23.4 C 0 km/h
1815 20-06-2003 13:38:25 23.1 C 6.41 g/m*3 23.1 C 0 km/h
1816 20-06-2003 14:00:25 24 C 6.53 g/m*3 24 C 0 km/h
1817 20-06-2003 14:22:25 25.1 C 6.48 g/m*3 25.1 C 0 km/h
1818 20-06-2003 14:44:25 23.9 C 6.71 g/m*3 23.9 C 0 km/h
1819 20-06-2003 15:06:25 25.7 C 7.18 g/m*3 25.7 C 0 km/h
1820 20-06-2003 15:28:25 25.2 C 5.82 g/m*3 25.2 C 0 km/h
1821 20-06-2003 15:50:25 24.2 C 6.16 g/m*3 24.2 C 0 km/h
1822 20-06-2003 16:12:25 25.4 C 6.59 g/m*3 25.4 C 0 km/h
1823 20-06-2003 16:34:25 25.5 C 6.39 g/m*3 25.5 C 0 km/h
1824 20-06-2003 16:56:25 25.5 C 6.87 g/m*3 25.5 C 0 km/h
1825 20-06-2003 17:18:25 25 C 6.45 g/m*3 25 C 0 km/h
Sensor: Nr:Datum:Temp:Abs-Feuchte:Windchill:Wind:
Aussen-T/F 1826 20-06-2003 17:40:25 25.2 C 6.52 g/m*3 25.2 C 0 km/h
1827 20-06-2003 18:02:25 25.4 C 6.36 g/m*3 25.4 C 0 km/h
1828 20-06-2003 18:24:25 24.8 C 6.15 g/m*3 24.8 C 0 km/h
1829 20-06-2003 18:46:25 25.1 C 6.02 g/m*3 25.1 C 0 km/h
1830 20-06-2003 19:08:25 24.3 C 5.97 g/m*3 24.3 C 0 km/h
1831 20-06-2003 19:30:25 23.8 C 6.24 g/m*3 23.8 C 0 km/h
1832 20-06-2003 19:52:25 22.6 C 6.43 g/m*3 22.6 C 0 km/h
1833 20-06-2003 20:14:25 22.5 C 6.39 g/m*3 22.5 C 0 km/h
1834 20-06-2003 20:36:25 21.5 C 6.6 g/m*3 21.5 C 0 km/h
1835 20-06-2003 20:58:25 20.8 C 6.7 g/m*3 20.8 C 0 km/h
1836 20-06-2003 21:20:25 19.5 C 6.71 g/m*3 19.5 C 0 km/h
1837 20-06-2003 21:42:25 18.5 C 6.65 g/m*3 18.5 C 0 km/h
1838 20-06-2003 22:04:25 18 C 6.76 g/m*3 18 C 0 km/h
1839 20-06-2003 22:26:25 17.3 C 6.48 g/m*3 17.3 C 0 km/h
1840 20-06-2003 22:48:25 16.8 C 6.58 g/m*3 16.8 C 0 km/h
1841 20-06-2003 23:10:25 16.6 C 6.64 g/m*3 16.6 C 0 km/h
1842 20-06-2003 23:32:25 16.4 C 6.7 g/m*3 16.4 C 0 km/h
1843 20-06-2003 23:54:25 15.8 C 6.6 g/m*3 15.8 C 0 km/h
1844 21-06-2003 00:16:25 15.5 C 6.61 g/m*3 15.5 C 0 km/h
1845 21-06-2003 00:38:25 15.1 C 6.71 g/m*3 15.1 C 0 km/h
1846 21-06-2003 01:00:25 14.7 C 6.8 g/m*3 14.7 C 0 km/h
1847 21-06-2003 01:22:25 14.5 C 6.84 g/m*3 14.5 C 0 km/h
1848 21-06-2003 01:44:25 14.1 C 7.04 g/m*3 14.1 C 0 km/h
1849 21-06-2003 02:06:25 13.7 C 7.34 g/m*3 13.7 C 0 km/h
1850 21-06-2003 02:28:25 13.3 C 7.51 g/m*3 13.3 C 0 km/h
Sensor: Nr:Datum:Temp:Abs-Feuchte:Windchill:Wind:
Aussen-T/F 1851 21-06-2003 02:50:25 12.7 C 7.46 g/m*3 12.7 C 0 km/h
1852 21-06-2003 03:12:25 12.2 C 7.45 g/m*3 12.2 C 0 km/h
1853 21-06-2003 03:34:25 11.8 C 7.47 g/m*3 11.8 C 0 km/h
1854 21-06-2003 03:56:25 11.5 C 7.44 g/m*3 11.5 C 0 km/h
1855 21-06-2003 04:18:25 11.1 C 7.55 g/m*3 11.1 C 0 km/h
1856 21-06-2003 04:40:25 10.7 C 7.56 g/m*3 10.7 C 0 km/h
1857 21-06-2003 05:02:25 10.3 C 7.47 g/m*3 10.3 C 0 km/h
1858 21-06-2003 05:24:25 10 C 7.42 g/m*3 10 C 0 km/h
1859 21-06-2003 05:46:25 9.8 C 7.52 g/m*3 9.8 C 0 km/h
1860 21-06-2003 06:08:25 9.8 C 7.61 g/m*3 9.8 C 0 km/h
1861 21-06-2003 06:30:25 9.8 C 7.61 g/m*3 9.8 C 0 km/h
1862 21-06-2003 06:52:25 9.9 C 7.66 g/m*3 9.9 C 0 km/h
1863 21-06-2003 07:14:25 10.1 C 7.56 g/m*3 10.1 C 0 km/h
1864 21-06-2003 07:36:25 10.5 C 7.76 g/m*3 10.5 C 0 km/h
1865 21-06-2003 07:58:25 11.1 C 7.76 g/m*3 11.1 C 0 km/h
1866 21-06-2003 08:20:25 11.7 C 7.74 g/m*3 11.7 C 0 km/h
1867 21-06-2003 08:42:25 12.4 C 7.54 g/m*3 12.4 C 0 km/h
1868 21-06-2003 09:04:25 13 C 7.6 g/m*3 13 C 0 km/h
1869 21-06-2003 09:26:25 14 C 7.6 g/m*3 14 C 0 km/h
1870 21-06-2003 09:48:25 15.1 C 7.74 g/m*3 15.1 C 0 km/h
1871 21-06-2003 10:10:25 16.5 C 7.44 g/m*3 16.5 C 0 km/h
1872 21-06-2003 10:32:25 17.2 C 6.59 g/m*3 17.2 C 0 km/h
1873 21-06-2003 10:54:25 17.9 C 6.26 g/m*3 17.9 C 0 km/h
1874 21-06-2003 11:16:25 18.5 C 6.01 g/m*3 18.5 C 0 km/h
1875 21-06-2003 11:38:25 19.8 C 6.32 g/m*3 19.8 C 0 km/h
Sensor: Nr:Datum:Temp:Abs-Feuchte:Windchill:Wind:
Aussen-T/F 1876 21-06-2003 12:00:25 20.3 C 6.16 g/m*3 20.3 C 0 km/h
1877 21-06-2003 12:22:25 21.8 C 5.95 g/m*3 21.8 C 0 km/h
1878 21-06-2003 12:44:25 23.3 C 6.27 g/m*3 23.3 C 0 km/h
1879 21-06-2003 13:06:25 24.1 C 5.69 g/m*3 24.1 C 0 km/h
1880 21-06-2003 13:28:25 23.4 C 5.68 g/m*3 23.4 C 0 km/h
1881 21-06-2003 13:50:25 25.6 C 5.95 g/m*3 25.6 C 0 km/h
1882 21-06-2003 14:12:25 25.1 C 5.79 g/m*3 25.1 C 0 km/h
1883 21-06-2003 14:34:25 25 C 6.45 g/m*3 25 C 0 km/h
1884 21-06-2003 14:56:25 25.3 C 5.85 g/m*3 25.3 C 0 km/h
1885 21-06-2003 15:18:25 26.1 C 6.12 g/m*3 26.1 C 0 km/h
1886 21-06-2003 15:40:25 26.7 C 5.57 g/m*3 26.7 C 0 km/h
1887 21-06-2003 16:02:25 24.6 C 5.63 g/m*3 24.6 C 0 km/h
1888 21-06-2003 16:24:25 24.7 C 5.88 g/m*3 24.7 C 0 km/h
1889 21-06-2003 16:46:25 26.7 C 6.07 g/m*3 26.7 C 0 km/h
1890 21-06-2003 17:08:25 27.5 C 5.82 g/m*3 27.5 C 0 km/h
1891 21-06-2003 17:30:25 26.4 C 5.73 g/m*3 26.4 C 0 km/h
1892 21-06-2003 17:52:25 26.9 C 5.89 g/m*3 26.9 C 0 km/h
1893 21-06-2003 18:14:25 28.1 C 5.74 g/m*3 28.1 C 0 km/h
1894 21-06-2003 18:36:25 26.8 C 5.85 g/m*3 26.8 C 0 km/h
1895 21-06-2003 18:58:25 25.1 C 6.02 g/m*3 25.1 C 0 km/h
1896 21-06-2003 19:20:25 26.9 C 6.65 g/m*3 26.9 C 0 km/h
1897 21-06-2003 19:42:25 27.3 C 6.28 g/m*3 27.3 C 0 km/h
1898 21-06-2003 20:04:25 26.4 C 6.47 g/m*3 26.4 C 0 km/h
1899 21-06-2003 20:26:25 25.7 C 6.7 g/m*3 25.7 C 0 km/h
1900 21-06-2003 20:48:25 24.5 C 6.94 g/m*3 24.5 C 0 km/h
Sensor: Nr:Datum:Temp:Abs-Feuchte:Windchill:Wind:
Aussen-T/F 1901 21-06-2003 21:10:25 23.4 C 7.15 g/m*3 23.4 C 0 km/h
1902 21-06-2003 21:32:25 21.9 C 8.1 g/m*3 21.9 C 0 km/h
1903 21-06-2003 21:54:25 20.1 C 7.47 g/m*3 20.1 C 0 km/h
1904 21-06-2003 22:16:25 18.9 C 7.61 g/m*3 18.9 C 0 km/h
1905 21-06-2003 22:38:25 18.1 C 7.57 g/m*3 18.1 C 0 km/h
1906 21-06-2003 23:00:25 17.8 C 7.59 g/m*3 17.8 C 0 km/h
1907 21-06-2003 23:22:25 17.5 C 7.6 g/m*3 17.5 C 0 km/h
1908 21-06-2003 23:44:25 17.2 C 7.76 g/m*3 17.2 C 0 km/h
1909 22-06-2003 00:06:25 16.8 C 7.72 g/m*3 16.8 C 0 km/h
1910 22-06-2003 00:28:25 16.6 C 8.19 g/m*3 16.6 C 0 km/h
1911 22-06-2003 00:50:25 16.4 C 7.82 g/m*3 16.4 C 0 km/h
1912 22-06-2003 01:12:25 16.2 C 7.86 g/m*3 16.2 C 0 km/h
1913 22-06-2003 01:34:25 15.9 C 7.99 g/m*3 15.9 C 0 km/h
1914 22-06-2003 01:56:25 15.8 C 8.08 g/m*3 15.8 C 0 km/h
1915 22-06-2003 02:18:25 15.1 C 8.13 g/m*3 15.1 C 0 km/h
1916 22-06-2003 02:40:25 14.8 C 8.11 g/m*3 14.8 C 0 km/h
1917 22-06-2003 03:02:25 14.3 C 8.11 g/m*3 14.3 C 0 km/h
1918 22-06-2003 03:24:25 14.1 C 8.13 g/m*3 14.1 C 0 km/h
1919 22-06-2003 03:46:25 13.7 C 8.17 g/m*3 13.7 C 0 km/h
1920 22-06-2003 04:08:25 13.4 C 8.02 g/m*3 13.4 C 0 km/h
1921 22-06-2003 04:30:25 13.1 C 7.99 g/m*3 13.1 C 0 km/h
1922 22-06-2003 04:52:25 12.9 C 8.11 g/m*3 12.9 C 0 km/h
1923 22-06-2003 05:14:25 12.5 C 8.03 g/m*3 12.5 C 0 km/h
1924 22-06-2003 05:36:25 12.4 C 7.98 g/m*3 12.4 C 0 km/h
1925 22-06-2003 05:58:25 12.4 C 8.3 g/m*3 12.4 C 0 km/h
Sensor: Nr:Datum:Temp:Abs-Feuchte:Windchill:Wind:
Aussen-T/F 1926 22-06-2003 06:20:25 12.4 C 8.41 g/m*3 12.4 C 0 km/h
1927 22-06-2003 06:42:25 12.8 C 8.51 g/m*3 12.8 C 0 km/h
1928 22-06-2003 07:04:25 13.1 C 8.44 g/m*3 13.1 C 0 km/h
1929 22-06-2003 07:26:25 13 C 8.62 g/m*3 13 C 0 km/h
1930 22-06-2003 07:48:25 13.9 C 8.75 g/m*3 13.9 C 0 km/h
1931 22-06-2003 08:10:25 14.3 C 8.85 g/m*3 14.3 C 0 km/h
1932 22-06-2003 08:32:25 14.7 C 9.07 g/m*3 14.7 C 0 km/h
1933 22-06-2003 08:54:25 15.5 C 9.25 g/m*3 15.5 C 0 km/h
1934 22-06-2003 09:16:25 17 C 9.55 g/m*3 17 C 0 km/h
1935 22-06-2003 09:38:25 18.6 C 9.55 g/m*3 18.6 C 0 km/h
1936 22-06-2003 10:00:25 19.9 C 9.79 g/m*3 19.9 C 0 km/h
1937 22-06-2003 10:22:25 20.9 C 8.56 g/m*3 20.9 C 0 km/h
1938 22-06-2003 10:44:25 22.3 C 8.89 g/m*3 22.3 C 0 km/h
1939 22-06-2003 11:06:25 23.2 C 7.9 g/m*3 23.2 C 0 km/h
1940 22-06-2003 11:28:25 24 C 8.05 g/m*3 24 C 0 km/h
1941 22-06-2003 11:50:25 25.2 C 7.92 g/m*3 25.2 C 0 km/h
1942 22-06-2003 12:12:25 26.8 C 7.89 g/m*3 26.8 C 0 km/h
1943 22-06-2003 12:34:25 27.2 C 7.29 g/m*3 27.2 C 0 km/h
1944 22-06-2003 12:56:25 28.7 C 7.63 g/m*3 28.7 C 0 km/h
1945 22-06-2003 13:18:25 30 C 7.58 g/m*3 30 C 0 km/h
1946 22-06-2003 13:40:25 30.1 C 7.62 g/m*3 30.1 C 0 km/h
1947 22-06-2003 14:02:25 30.2 C 8.28 g/m*3 30.2 C 0 km/h
1948 22-06-2003 14:24:25 30.2 C 8.28 g/m*3 30.2 C 0 km/h
1949 22-06-2003 14:46:25 30.1 C 8.84 g/m*3 30.1 C 0 km/h
1950 22-06-2003 15:08:25 30.4 C 9.3 g/m*3 30.4 C 0 km/h
Sensor: Nr:Datum:Temp:Abs-Feuchte:Windchill:Wind:
Aussen-T/F 1951 22-06-2003 15:30:25 31.4 C 8.17 g/m*3 31.4 C 0 km/h
1952 22-06-2003 15:52:25 31.7 C 6.98 g/m*3 31.7 C 0 km/h
1953 22-06-2003 16:14:25 31.8 C 7.68 g/m*3 31.8 C 0 km/h
1954 22-06-2003 16:36:25 32.4 C 7.93 g/m*3 32.4 C 0 km/h
1955 22-06-2003 16:58:25 32.4 C 7.59 g/m*3 32.4 C 0 km/h
1956 22-06-2003 17:20:25 32.1 C 7.81 g/m*3 32.1 C 0 km/h
1957 22-06-2003 17:42:25 31.8 C 10.02 g/m*3 31.8 C 0 km/h
1958 22-06-2003 18:04:25 32.6 C 8.71 g/m*3 32.6 C 0 km/h
1959 22-06-2003 18:26:25 33.3 C 7.96 g/m*3 33.3 C 0 km/h
1960 22-06-2003 18:48:25 32.9 C 7.44 g/m*3 32.9 C 0 km/h
1961 22-06-2003 19:10:25 32.7 C 9.81 g/m*3 32.7 C 0 km/h
1962 22-06-2003 19:32:25 30.7 C 10.71 g/m*3 30.7 C 0 km/h
1963 22-06-2003 19:54:25 29.8 C 11.1 g/m*3 29.8 C 0 km/h
1964 22-06-2003 20:16:25 28.5 C 10.06 g/m*3 28.5 C 0 km/h
1965 22-06-2003 20:38:25 29.2 C 9.87 g/m*3 29.2 C 0 km/h
1966 22-06-2003 21:00:25 28.5 C 10.9 g/m*3 28.5 C 0 km/h
1967 22-06-2003 21:22:25 26.7 C 10.88 g/m*3 26.7 C 0 km/h
1968 22-06-2003 21:44:25 25.9 C 10.41 g/m*3 25.9 C 0 km/h
1969 22-06-2003 22:06:25 24.7 C 10.41 g/m*3 24.7 C 0 km/h
1970 22-06-2003 22:28:25 23.9 C 10.38 g/m*3 23.9 C 0 km/h
1971 22-06-2003 22:50:25 23.5 C 10.36 g/m*3 23.5 C 0 km/h
1972 22-06-2003 23:12:25 22.9 C 10.22 g/m*3 22.9 C 0 km/h
1973 22-06-2003 23:34:25 22.5 C 10.19 g/m*3 22.5 C 0 km/h
1974 22-06-2003 23:56:25 22.3 C 9.87 g/m*3 22.3 C 0 km/h
1975 23-06-2003 00:18:25 21.7 C 10.11 g/m*3 21.7 C 0 km/h
Sensor: Nr:Datum:Temp:Abs-Feuchte:Windchill:Wind:
Aussen-T/F 1976 23-06-2003 00:40:25 21.3 C 10.25 g/m*3 21.3 C 0 km/h
1977 23-06-2003 01:02:25 20.8 C 10.5 g/m*3 20.8 C 0 km/h
1978 23-06-2003 01:24:25 20.4 C 10.61 g/m*3 20.4 C 0 km/h
1979 23-06-2003 01:46:25 20 C 10.71 g/m*3 20 C 0 km/h
1980 23-06-2003 02:08:25 19.5 C 10.91 g/m*3 19.5 C 0 km/h
1981 23-06-2003 02:30:25 19 C 10.59 g/m*3 19 C 0 km/h
1982 23-06-2003 02:52:25 18.5 C 10.92 g/m*3 18.5 C 0 km/h
1983 23-06-2003 03:14:25 18.1 C 10.97 g/m*3 18.1 C 0 km/h
1984 23-06-2003 03:36:25 17.9 C 10.99 g/m*3 17.9 C 0 km/h
1985 23-06-2003 03:58:25 17.5 C 11.03 g/m*3 17.5 C 0 km/h
1986 23-06-2003 04:20:25 17.1 C 10.92 g/m*3 17.1 C 0 km/h
1987 23-06-2003 04:42:25 16.9 C 10.93 g/m*3 16.9 C 0 km/h
1988 23-06-2003 05:04:25 16.7 C 10.8 g/m*3 16.7 C 0 km/h
1989 23-06-2003 05:26:25 16.7 C 11.08 g/m*3 16.7 C 0 km/h
1990 23-06-2003 05:48:25 16.5 C 10.95 g/m*3 16.5 C 0 km/h
1991 23-06-2003 06:10:25 16.6 C 11.02 g/m*3 16.6 C 0 km/h
1992 23-06-2003 06:32:25 16.9 C 11.22 g/m*3 16.9 C 0 km/h
1993 23-06-2003 06:54:25 18.3 C 10.79 g/m*3 18.3 C 0 km/h
1994 23-06-2003 07:16:25 20.4 C 10.26 g/m*3 20.4 C 0 km/h
1995 23-06-2003 07:38:25 20.2 C 11.02 g/m*3 20.2 C 0 km/h
1996 23-06-2003 08:00:25 19.5 C 11.58 g/m*3 19.5 C 0 km/h
1997 23-06-2003 08:22:25 19.9 C 11.85 g/m*3 19.9 C 0 km/h
1998 23-06-2003 08:44:25 21.2 C 10.56 g/m*3 21.2 C 0 km/h
1999 23-06-2003 09:06:25 22.2 C 10.41 g/m*3 22.2 C 0 km/h
2000 23-06-2003 09:28:25 23 C 10.69 g/m*3 23 C 0 km/h
Sensor: Nr:Datum:Temp:Abs-Feuchte:Windchill:Wind:
Aussen-T/F 2001 23-06-2003 09:50:25 24.7 C 10.64 g/m*3 24.7 C 0 km/h
2002 23-06-2003 10:12:25 24.8 C 10.7 g/m*3 24.8 C 0 km/h
2003 23-06-2003 10:34:25 24.9 C 11.45 g/m*3 24.9 C 0 km/h
2004 23-06-2003 10:56:25 25.5 C 11.13 g/m*3 25.5 C 0 km/h
2005 23-06-2003 11:18:25 27.1 C 11.65 g/m*3 27.1 C 0 km/h
2006 23-06-2003 11:40:25 28.6 C 11.8 g/m*3 28.6 C 0 km/h
2007 23-06-2003 12:02:25 28.1 C 12.85 g/m*3 28.1 C 0 km/h
2008 23-06-2003 12:24:25 28.9 C 12 g/m*3 28.9 C 0 km/h
2009 23-06-2003 12:46:25 28.7 C 12.15 g/m*3 28.7 C 0 km/h
2010 23-06-2003 13:08:25 30.2 C 11.96 g/m*3 30.2 C 0 km/h
2011 23-06-2003 13:30:25 29.2 C 11.91 g/m*3 29.2 C 0 km/h
2012 23-06-2003 13:52:25 30.7 C 11.34 g/m*3 30.7 C 0 km/h
2013 23-06-2003 14:14:25 30.7 C 11.34 g/m*3 30.7 C 0 km/h
2014 23-06-2003 14:36:25 31 C 11.2 g/m*3 31 C 0 km/h
2015 23-06-2003 14:58:25 30.6 C 10.96 g/m*3 30.6 C 0 km/h
2016 23-06-2003 15:20:25 30.3 C 9.86 g/m*3 30.3 C 0 km/h
2017 23-06-2003 15:42:25 29.5 C 10.03 g/m*3 29.5 C 0 km/h
2018 23-06-2003 16:04:25 28.6 C 10.4 g/m*3 28.6 C 0 km/h
2019 23-06-2003 16:26:25 28.2 C 11 g/m*3 28.2 C 0 km/h
2020 23-06-2003 16:48:25 28.2 C 11.27 g/m*3 28.2 C 0 km/h
2021 23-06-2003 17:10:25 28.6 C 11.24 g/m*3 28.6 C 0 km/h
2022 23-06-2003 17:32:25 28.2 C 11.27 g/m*3 28.2 C 0 km/h
2023 23-06-2003 17:54:25 28 C 11.69 g/m*3 28 C 0 km/h
2024 23-06-2003 18:16:25 28.3 C 11.89 g/m*3 28.3 C 0 km/h
2025 23-06-2003 18:38:25 28.2 C 12.1 g/m*3 28.2 C 0 km/h
Sensor: Nr:Datum:Temp:Abs-Feuchte:Windchill:Wind:
Aussen-T/F 2026 23-06-2003 19:00:25 28.1 C 12.3 g/m*3 28.1 C 0 km/h
2027 23-06-2003 19:22:25 27.1 C 11.39 g/m*3 27.1 C 0 km/h
2028 23-06-2003 19:44:25 27.9 C 11.36 g/m*3 27.9 C 0 km/h
2029 23-06-2003 20:06:25 27 C 10.29 g/m*3 27 C 0 km/h
2030 23-06-2003 20:28:25 26.8 C 10.18 g/m*3 26.8 C 0 km/h
2031 23-06-2003 20:50:25 26.1 C 8.81 g/m*3 26.1 C 0 km/h
2032 23-06-2003 21:12:25 25.2 C 8.85 g/m*3 25.2 C 0 km/h
2033 23-06-2003 21:34:25 24.4 C 8.9 g/m*3 24.4 C 0 km/h
2034 23-06-2003 21:56:25 23.3 C 9.2 g/m*3 23.3 C 0 km/h
2035 23-06-2003 22:18:25 22.6 C 9.04 g/m*3 22.6 C 0 km/h
2036 23-06-2003 23:02:25 21.6 C 8.91 g/m*3 21.6 C 0 km/h
2037 23-06-2003 23:24:25 21.1 C 8.84 g/m*3 21.1 C 0 km/h
2038 23-06-2003 23:46:25 20.8 C 9.23 g/m*3 20.8 C 0 km/h
2039 24-06-2003 00:08:25 20.3 C 9.15 g/m*3 20.3 C 0 km/h
2040 24-06-2003 00:30:25 19.6 C 9.12 g/m*3 19.6 C 0 km/h
2041 24-06-2003 00:52:25 19.4 C 9.34 g/m*3 19.4 C 0 km/h
2042 24-06-2003 01:14:25 19 C 9.45 g/m*3 19 C 0 km/h
2043 24-06-2003 01:36:25 18.5 C 9.49 g/m*3 18.5 C 0 km/h
2044 24-06-2003 01:58:25 18.1 C 9.73 g/m*3 18.1 C 0 km/h
2045 24-06-2003 02:20:25 17.6 C 9.75 g/m*3 17.6 C 0 km/h
2046 24-06-2003 02:42:25 17.2 C 9.81 g/m*3 17.2 C 0 km/h
2047 24-06-2003 03:04:25 16.8 C 9.87 g/m*3 16.8 C 0 km/h
2048 24-06-2003 03:26:25 16.2 C 10.07 g/m*3 16.2 C 0 km/h
2049 24-06-2003 03:48:25 15.7 C 10.03 g/m*3 15.7 C 0 km/h
2050 24-06-2003 04:10:25 15.4 C 9.85 g/m*3 15.4 C 0 km/h
Sensor: Nr:Datum:Temp:Abs-Feuchte:Windchill:Wind:
Aussen-T/F 2051 24-06-2003 04:32:25 15 C 9.87 g/m*3 15 C 0 km/h
2052 24-06-2003 04:54:25 14.5 C 9.95 g/m*3 14.5 C 0 km/h
2053 24-06-2003 05:16:25 14.2 C 10.01 g/m*3 14.2 C 0 km/h
2054 24-06-2003 05:38:25 14 C 9.89 g/m*3 14 C 0 km/h
2055 24-06-2003 06:00:25 14 C 9.89 g/m*3 14 C 0 km/h
2056 24-06-2003 06:22:25 14.1 C 9.83 g/m*3 14.1 C 0 km/h
2057 24-06-2003 06:44:25 14.3 C 9.95 g/m*3 14.3 C 0 km/h
2058 24-06-2003 07:06:25 14.6 C 10.01 g/m*3 14.6 C 0 km/h
2059 24-06-2003 07:28:25 15 C 10 g/m*3 15 C 0 km/h
2060 24-06-2003 07:50:25 15.4 C 10.25 g/m*3 15.4 C 0 km/h
2061 24-06-2003 08:12:25 15.8 C 10.36 g/m*3 15.8 C 0 km/h
2062 24-06-2003 08:34:25 16.4 C 10.19 g/m*3 16.4 C 0 km/h
2063 24-06-2003 08:56:25 17.2 C 10.4 g/m*3 17.2 C 0 km/h
2064 24-06-2003 09:18:25 17.9 C 10.38 g/m*3 17.9 C 0 km/h
2065 24-06-2003 09:40:25 19.1 C 10.33 g/m*3 19.1 C 0 km/h
2066 24-06-2003 10:02:25 20.8 C 10.5 g/m*3 20.8 C 0 km/h
2067 24-06-2003 10:24:25 21.4 C 9.56 g/m*3 21.4 C 0 km/h
2068 24-06-2003 10:46:25 22 C 9.7 g/m*3 22 C 0 km/h
2069 24-06-2003 11:08:25 23.6 C 9.57 g/m*3 23.6 C 0 km/h
2070 24-06-2003 11:30:25 23.2 C 9.36 g/m*3 23.2 C 0 km/h
2071 24-06-2003 11:52:25 25.2 C 9.54 g/m*3 25.2 C 0 km/h
2072 24-06-2003 12:14:25 26.4 C 9.46 g/m*3 26.4 C 0 km/h
2073 24-06-2003 12:36:25 26.3 C 8.91 g/m*3 26.3 C 0 km/h
2074 24-06-2003 12:58:25 27.8 C 9.41 g/m*3 27.8 C 0 km/h
2075 24-06-2003 13:20:25 26.9 C 8.19 g/m*3 26.9 C 0 km/h
Sensor: Nr:Datum:Temp:Abs-Feuchte:Windchill:Wind:
Aussen-T/F 2076 24-06-2003 13:42:25 29.1 C 7.8 g/m*3 29.1 C 0 km/h
2077 24-06-2003 14:04:25 28.1 C 8.48 g/m*3 28.1 C 0 km/h
2078 24-06-2003 14:26:25 29.4 C 8.51 g/m*3 29.4 C 0 km/h
2079 24-06-2003 14:48:25 29.6 C 8.9 g/m*3 29.6 C 0 km/h
2080 24-06-2003 15:10:25 29.5 C 7.97 g/m*3 29.5 C 0 km/h
2081 24-06-2003 15:32:25 30.7 C 8.19 g/m*3 30.7 C 0 km/h
2082 24-06-2003 15:54:25 30.3 C 9.25 g/m*3 30.3 C 0 km/h
2083 24-06-2003 16:16:25 30.4 C 8.68 g/m*3 30.4 C 0 km/h
2084 24-06-2003 16:38:25 30.1 C 8.23 g/m*3 30.1 C 0 km/h
2085 24-06-2003 17:00:25 30.1 C 8.84 g/m*3 30.1 C 0 km/h
2086 24-06-2003 17:22:25 28.5 C 8.66 g/m*3 28.5 C 0 km/h
2087 24-06-2003 17:44:25 28.3 C 9.12 g/m*3 28.3 C 0 km/h
2088 24-06-2003 18:06:25 29 C 9.19 g/m*3 29 C 0 km/h
2089 24-06-2003 18:28:25 28.3 C 9.4 g/m*3 28.3 C 0 km/h
2090 24-06-2003 18:50:25 28.6 C 8.99 g/m*3 28.6 C 0 km/h
2091 24-06-2003 19:12:25 28.4 C 8.9 g/m*3 28.4 C 0 km/h
2092 24-06-2003 19:34:25 27.8 C 8.61 g/m*3 27.8 C 0 km/h
2093 24-06-2003 19:56:25 26.5 C 8.76 g/m*3 26.5 C 0 km/h
2094 24-06-2003 20:18:25 25.7 C 8.86 g/m*3 25.7 C 0 km/h
2095 24-06-2003 20:40:25 24.6 C 8.78 g/m*3 24.6 C 0 km/h
2096 24-06-2003 21:02:25 24.1 C 8.75 g/m*3 24.1 C 0 km/h
2097 24-06-2003 21:24:25 23 C 8.63 g/m*3 23 C 0 km/h
2098 24-06-2003 21:46:25 22.7 C 8.89 g/m*3 22.7 C 0 km/h
2099 24-06-2003 22:08:25 21.8 C 8.83 g/m*3 21.8 C 0 km/h
2100 24-06-2003 22:30:25 21.5 C 8.86 g/m*3 21.5 C 0 km/h
Sensor: Nr:Datum:Temp:Abs-Feuchte:Windchill:Wind:
Aussen-T/F 2101 24-06-2003 22:52:25 20.9 C 8.92 g/m*3 20.9 C 0 km/h
2102 24-06-2003 23:14:25 20.5 C 8.9 g/m*3 20.5 C 0 km/h
2103 24-06-2003 23:36:25 20 C 8.99 g/m*3 20 C 0 km/h
2104 24-06-2003 23:58:25 19.4 C 9.01 g/m*3 19.4 C 0 km/h
2105 25-06-2003 00:20:25 19.1 C 8.85 g/m*3 19.1 C 0 km/h
2106 25-06-2003 00:42:25 18.7 C 8.97 g/m*3 18.7 C 0 km/h
2107 25-06-2003 01:04:25 18.4 C 9.12 g/m*3 18.4 C 0 km/h
2108 25-06-2003 01:26:25 18 C 9.06 g/m*3 18 C 0 km/h
2109 25-06-2003 01:48:25 17.6 C 9.15 g/m*3 17.6 C 0 km/h
2110 25-06-2003 02:10:25 17.3 C 9.13 g/m*3 17.3 C 0 km/h
2111 25-06-2003 02:32:25 16.5 C 9.27 g/m*3 16.5 C 0 km/h
2112 25-06-2003 02:54:25 16.2 C 9.24 g/m*3 16.2 C 0 km/h
2113 25-06-2003 03:16:25 16 C 9.26 g/m*3 16 C 0 km/h
2114 25-06-2003 03:38:25 15.6 C 9.31 g/m*3 15.6 C 0 km/h
2115 25-06-2003 04:00:25 15.2 C 9.22 g/m*3 15.2 C 0 km/h
2116 25-06-2003 04:22:25 14.8 C 9.25 g/m*3 14.8 C 0 km/h
2117 25-06-2003 04:44:25 14.4 C 9.27 g/m*3 14.4 C 0 km/h
2118 25-06-2003 05:06:25 14.1 C 9.22 g/m*3 14.1 C 0 km/h
2119 25-06-2003 05:28:25 13.8 C 9.17 g/m*3 13.8 C 0 km/h
2120 25-06-2003 05:50:25 13.8 C 9.29 g/m*3 13.8 C 0 km/h
2121 25-06-2003 06:12:25 13.9 C 9.35 g/m*3 13.9 C 0 km/h
2122 25-06-2003 06:34:25 13.8 C 9.29 g/m*3 13.8 C 0 km/h
2123 25-06-2003 06:56:25 14.2 C 9.52 g/m*3 14.2 C 0 km/h
2124 25-06-2003 07:18:25 14.4 C 9.52 g/m*3 14.4 C 0 km/h
2125 25-06-2003 07:40:25 14.8 C 9.5 g/m*3 14.8 C 0 km/h
Sensor: Nr:Datum:Temp:Abs-Feuchte:Windchill:Wind:
Aussen-T/F 2126 25-06-2003 08:02:25 15.1 C 9.29 g/m*3 15.1 C 0 km/h
2127 25-06-2003 08:24:25 15.5 C 9.39 g/m*3 15.5 C 0 km/h
2128 25-06-2003 08:46:25 15.8 C 9.29 g/m*3 15.8 C 0 km/h
2129 25-06-2003 09:08:25 16.2 C 9.1 g/m*3 16.2 C 0 km/h
2130 25-06-2003 09:30:25 17.6 C 9.45 g/m*3 17.6 C 0 km/h
2131 25-06-2003 09:52:25 18.8 C 9.02 g/m*3 18.8 C 0 km/h
2132 25-06-2003 10:14:25 19.9 C 8.93 g/m*3 19.9 C 0 km/h
2133 25-06-2003 10:36:25 20.6 C 8.77 g/m*3 20.6 C 0 km/h
2134 25-06-2003 10:58:25 21.5 C 9.05 g/m*3 21.5 C 0 km/h
2135 25-06-2003 11:20:25 21.6 C 8.53 g/m*3 21.6 C 0 km/h
2136 25-06-2003 11:42:25 23.3 C 8.57 g/m*3 23.3 C 0 km/h
2137 25-06-2003 12:04:25 23.7 C 8.13 g/m*3 23.7 C 0 km/h
2138 25-06-2003 12:26:25 25 C 7.14 g/m*3 25 C 0 km/h
2139 25-06-2003 12:48:25 25.8 C 7.22 g/m*3 25.8 C 0 km/h
2140 25-06-2003 13:10:25 27.1 C 6.73 g/m*3 27.1 C 0 km/h
2141 25-06-2003 13:32:25 26 C 6.33 g/m*3 26 C 0 km/h
2142 25-06-2003 13:54:25 26.8 C 6.62 g/m*3 26.8 C 0 km/h
2143 25-06-2003 14:16:25 27.4 C 6.84 g/m*3 27.4 C 0 km/h
2144 25-06-2003 14:38:25 28.1 C 7.11 g/m*3 28.1 C 0 km/h
2145 25-06-2003 15:00:25 27.7 C 7.49 g/m*3 27.7 C 0 km/h
2146 25-06-2003 15:22:25 29.5 C 7.38 g/m*3 29.5 C 0 km/h
2147 25-06-2003 15:44:25 29.5 C 6.79 g/m*3 29.5 C 0 km/h
2148 25-06-2003 16:06:25 29.4 C 6.75 g/m*3 29.4 C 0 km/h
2149 25-06-2003 16:28:25 29.7 C 6.86 g/m*3 29.7 C 0 km/h
2150 25-06-2003 16:50:25 30.1 C 6.4 g/m*3 30.1 C 0 km/h
Sensor: Nr:Datum:Temp:Abs-Feuchte:Windchill:Wind:
Aussen-T/F 2151 25-06-2003 17:12:25 30 C 6.37 g/m*3 30 C 0 km/h
2152 25-06-2003 17:34:25 30.4 C 6.51 g/m*3 30.4 C 0 km/h
2153 25-06-2003 17:56:25 30.3 C 7.09 g/m*3 30.3 C 0 km/h
2154 25-06-2003 18:18:25 30 C 6.97 g/m*3 30 C 0 km/h
2155 25-06-2003 18:40:25 30.5 C 6.23 g/m*3 30.5 C 0 km/h
2156 25-06-2003 19:02:25 30.8 C 6.33 g/m*3 30.8 C 0 km/h
2157 25-06-2003 19:24:25 28.6 C 6.18 g/m*3 28.6 C 0 km/h
2158 25-06-2003 19:46:25 27.2 C 6.51 g/m*3 27.2 C 0 km/h
2159 25-06-2003 20:08:25 26.2 C 7.14 g/m*3 26.2 C 0 km/h
2160 25-06-2003 20:30:25 25.9 C 7.26 g/m*3 25.9 C 0 km/h
2161 25-06-2003 20:52:25 26.7 C 7.85 g/m*3 26.7 C 0 km/h
2162 25-06-2003 21:14:25 25.6 C 8.57 g/m*3 25.6 C 0 km/h
2163 25-06-2003 21:36:25 24 C 8.49 g/m*3 24 C 0 km/h
2164 25-06-2003 21:58:25 23.1 C 8.48 g/m*3 23.1 C 0 km/h
2165 25-06-2003 22:20:25 22.3 C 8.69 g/m*3 22.3 C 0 km/h
2166 25-06-2003 22:42:25 21.8 C 8.63 g/m*3 21.8 C 0 km/h
2167 25-06-2003 23:04:25 20.8 C 8.87 g/m*3 20.8 C 0 km/h
2168 25-06-2003 23:26:25 20.4 C 9.02 g/m*3 20.4 C 0 km/h
2169 25-06-2003 23:48:25 20.1 C 8.87 g/m*3 20.1 C 0 km/h
2170 26-06-2003 00:10:25 19.8 C 8.88 g/m*3 19.8 C 0 km/h
2171 26-06-2003 00:32:25 19.3 C 9.12 g/m*3 19.3 C 0 km/h
2172 26-06-2003 00:54:25 18.7 C 9.29 g/m*3 18.7 C 0 km/h
2173 26-06-2003 01:16:25 18 C 9.06 g/m*3 18 C 0 km/h
2174 26-06-2003 01:38:25 17.7 C 9.35 g/m*3 17.7 C 0 km/h
2175 26-06-2003 02:00:25 17.3 C 9.28 g/m*3 17.3 C 0 km/h
Sensor: Nr:Datum:Temp:Abs-Feuchte:Windchill:Wind:
Aussen-T/F 2176 26-06-2003 02:22:25 16.9 C 9.35 g/m*3 16.9 C 0 km/h
2177 26-06-2003 02:44:25 16.5 C 9.55 g/m*3 16.5 C 0 km/h
2178 26-06-2003 03:06:25 16.2 C 9.38 g/m*3 16.2 C 0 km/h
2179 26-06-2003 03:28:25 16.1 C 9.05 g/m*3 16.1 C 0 km/h
2180 26-06-2003 03:50:25 15.9 C 9.07 g/m*3 15.9 C 0 km/h
2181 26-06-2003 04:12:25 15.6 C 9.04 g/m*3 15.6 C 0 km/h
2182 26-06-2003 04:34:25 15.3 C 9.01 g/m*3 15.3 C 0 km/h
2183 26-06-2003 04:56:25 15 C 8.98 g/m*3 15 C 0 km/h
2184 26-06-2003 05:18:25 14.7 C 8.94 g/m*3 14.7 C 0 km/h
2185 26-06-2003 05:40:25 14.5 C 8.95 g/m*3 14.5 C 0 km/h
2186 26-06-2003 06:02:25 14.4 C 9.15 g/m*3 14.4 C 0 km/h
2187 26-06-2003 06:24:25 14.5 C 9.33 g/m*3 14.5 C 0 km/h
2188 26-06-2003 06:46:25 14.5 C 9.2 g/m*3 14.5 C 0 km/h
2189 26-06-2003 07:08:25 14.8 C 9.5 g/m*3 14.8 C 0 km/h
2190 26-06-2003 07:30:25 15.4 C 9.59 g/m*3 15.4 C 0 km/h
2191 26-06-2003 07:52:25 15.8 C 9.42 g/m*3 15.8 C 0 km/h
2192 26-06-2003 08:14:25 16.8 C 9.15 g/m*3 16.8 C 0 km/h
2193 26-06-2003 08:36:25 17.9 C 9.31 g/m*3 17.9 C 0 km/h
2194 26-06-2003 08:58:25 19.1 C 9.18 g/m*3 19.1 C 0 km/h
2195 26-06-2003 09:20:25 19.7 C 9 g/m*3 19.7 C 0 km/h
2196 26-06-2003 09:42:25 20.6 C 8.95 g/m*3 20.6 C 0 km/h
2197 26-06-2003 10:04:25 21.6 C 9.1 g/m*3 21.6 C 0 km/h
2198 26-06-2003 10:26:25 22.3 C 9.28 g/m*3 22.3 C 0 km/h
2199 26-06-2003 10:48:25 23.6 C 9.36 g/m*3 23.6 C 0 km/h
2200 26-06-2003 11:10:25 24.8 C 9.56 g/m*3 24.8 C 0 km/h
Sensor: Nr:Datum:Temp:Abs-Feuchte:Windchill:Wind:
Aussen-T/F 2201 26-06-2003 11:32:25 25.3 C 8.9 g/m*3 25.3 C 0 km/h
2202 26-06-2003 11:54:25 26.2 C 8.62 g/m*3 26.2 C 0 km/h
2203 26-06-2003 12:16:25 27.7 C 8.83 g/m*3 27.7 C 0 km/h
2204 26-06-2003 12:38:25 28.2 C 7.97 g/m*3 28.2 C 0 km/h
2205 26-06-2003 13:00:25 30 C 8.19 g/m*3 30 C 0 km/h
2206 26-06-2003 13:22:25 30.4 C 7.75 g/m*3 30.4 C 0 km/h
2207 26-06-2003 13:44:25 30.6 C 7.2 g/m*3 30.6 C 0 km/h
2208 26-06-2003 14:06:25 31.2 C 7.44 g/m*3 31.2 C 0 km/h
2209 26-06-2003 14:28:25 30.1 C 7.93 g/m*3 30.1 C 0 km/h
2210 26-06-2003 14:50:25 30.7 C 7.24 g/m*3 30.7 C 0 km/h
2211 26-06-2003 15:12:25 31 C 7.36 g/m*3 31 C 0 km/h
2212 26-06-2003 15:34:25 31.6 C 6.94 g/m*3 31.6 C 0 km/h
2213 26-06-2003 15:56:25 31.5 C 6.57 g/m*3 31.5 C 0 km/h
2214 26-06-2003 16:18:25 32.4 C 6.9 g/m*3 32.4 C 0 km/h
2215 26-06-2003 16:40:25 32.5 C 6.93 g/m*3 32.5 C 0 km/h
2216 26-06-2003 17:02:25 32.4 C 6.9 g/m*3 32.4 C 0 km/h
2217 26-06-2003 17:24:25 32.5 C 6.93 g/m*3 32.5 C 0 km/h
2218 26-06-2003 17:46:25 32.5 C 6.93 g/m*3 32.5 C 0 km/h
2219 26-06-2003 18:08:25 32.1 C 6.79 g/m*3 32.1 C 0 km/h
2220 26-06-2003 18:30:25 32.7 C 7.01 g/m*3 32.7 C 0 km/h
2221 26-06-2003 18:52:25 31.3 C 7.81 g/m*3 31.3 C 0 km/h
2222 26-06-2003 19:14:25 30.9 C 8.91 g/m*3 30.9 C 0 km/h
2223 26-06-2003 19:36:25 30.6 C 8.14 g/m*3 30.6 C 0 km/h
2224 26-06-2003 19:58:25 30.4 C 7.75 g/m*3 30.4 C 0 km/h
2225 26-06-2003 20:20:25 30.1 C 7.93 g/m*3 30.1 C 0 km/h
Sensor: Nr:Datum:Temp:Abs-Feuchte:Windchill:Wind:
Aussen-T/F 2226 26-06-2003 20:42:25 29.4 C 7.93 g/m*3 29.4 C 0 km/h
2227 26-06-2003 21:04:25 28.1 C 8.2 g/m*3 28.1 C 0 km/h
2228 26-06-2003 21:26:25 26.1 C 8.08 g/m*3 26.1 C 0 km/h
2229 26-06-2003 21:48:25 25.2 C 6.98 g/m*3 25.2 C 0 km/h
2230 26-06-2003 22:10:25 24.3 C 6.86 g/m*3 24.3 C 0 km/h
2231 26-06-2003 22:32:25 23.7 C 7.49 g/m*3 23.7 C 0 km/h
2232 26-06-2003 22:54:25 23.2 C 7.9 g/m*3 23.2 C 0 km/h
2233 26-06-2003 23:16:25 22.5 C 8.19 g/m*3 22.5 C 0 km/h
2234 26-06-2003 23:38:25 22 C 8.35 g/m*3 22 C 0 km/h
2235 27-06-2003 00:00:25 21.5 C 8.49 g/m*3 21.5 C 0 km/h
2236 27-06-2003 00:22:25 20.9 C 8.38 g/m*3 20.9 C 0 km/h
2237 27-06-2003 00:44:25 20.2 C 8.04 g/m*3 20.2 C 0 km/h
2238 27-06-2003 01:06:25 19.9 C 7.9 g/m*3 19.9 C 0 km/h
2239 27-06-2003 01:28:25 19.6 C 7.77 g/m*3 19.6 C 0 km/h
2240 27-06-2003 01:50:25 19.2 C 7.75 g/m*3 19.2 C 0 km/h
2241 27-06-2003 02:12:25 18.9 C 8.1 g/m*3 18.9 C 0 km/h
2242 27-06-2003 02:34:25 18.5 C 8.07 g/m*3 18.5 C 0 km/h
2243 27-06-2003 02:56:25 18.1 C 8.03 g/m*3 18.1 C 0 km/h
2244 27-06-2003 03:18:25 17.9 C 8.09 g/m*3 17.9 C 0 km/h
2245 27-06-2003 03:40:25 17.9 C 8.09 g/m*3 17.9 C 0 km/h
2246 27-06-2003 04:02:25 17.7 C 8.15 g/m*3 17.7 C 0 km/h
2247 27-06-2003 04:24:25 17.2 C 8.2 g/m*3 17.2 C 0 km/h
2248 27-06-2003 04:46:25 16.7 C 8.24 g/m*3 16.7 C 0 km/h
2249 27-06-2003 05:08:25 16.4 C 8.37 g/m*3 16.4 C 0 km/h
2250 27-06-2003 05:30:25 16.1 C 8.22 g/m*3 16.1 C 0 km/h
Sensor: Nr:Datum:Temp:Abs-Feuchte:Windchill:Wind:
Aussen-T/F 2251 27-06-2003 05:52:25 16 C 8.45 g/m*3 16 C 0 km/h
2252 27-06-2003 06:14:25 16 C 8.72 g/m*3 16 C 0 km/h
2253 27-06-2003 06:35:25 16 C 8.99 g/m*3 16 C 0 km/h
2254 27-06-2003 06:57:25 16.2 C 9.1 g/m*3 16.2 C 0 km/h
2255 27-06-2003 07:19:25 16.6 C 9.46 g/m*3 16.6 C 0 km/h
2256 27-06-2003 07:41:25 16.8 C 9.15 g/m*3 16.8 C 0 km/h
2257 27-06-2003 08:03:25 17.4 C 9.48 g/m*3 17.4 C 0 km/h
2258 27-06-2003 08:25:25 18.1 C 9.58 g/m*3 18.1 C 0 km/h
2259 27-06-2003 08:47:25 18.8 C 9.02 g/m*3 18.8 C 0 km/h
2260 27-06-2003 09:09:25 19.6 C 9.12 g/m*3 19.6 C 0 km/h
2261 27-06-2003 09:31:25 20.7 C 9.18 g/m*3 20.7 C 0 km/h
2262 27-06-2003 09:53:25 21.9 C 9.26 g/m*3 21.9 C 0 km/h
2263 27-06-2003 10:15:25 22.9 C 9.2 g/m*3 22.9 C 0 km/h
2264 27-06-2003 10:37:25 24.1 C 8.97 g/m*3 24.1 C 0 km/h
2265 27-06-2003 10:59:25 24.7 C 9.05 g/m*3 24.7 C 0 km/h
2266 27-06-2003 11:21:25 25.8 C 8.67 g/m*3 25.8 C 0 km/h
2267 27-06-2003 11:43:25 26.6 C 9.06 g/m*3 26.6 C 0 km/h
2268 27-06-2003 12:05:25 28.1 C 8.75 g/m*3 28.1 C 0 km/h
2269 27-06-2003 12:27:25 28.9 C 8.86 g/m*3 28.9 C 0 km/h
2270 27-06-2003 12:49:25 28.9 C 8.86 g/m*3 28.9 C 0 km/h
2271 27-06-2003 13:11:25 30.6 C 8.77 g/m*3 30.6 C 0 km/h
2272 27-06-2003 13:33:25 30.4 C 9.3 g/m*3 30.4 C 0 km/h
2273 27-06-2003 13:55:25 30.7 C 8.5 g/m*3 30.7 C 0 km/h
2274 27-06-2003 14:17:25 30 C 8.79 g/m*3 30 C 0 km/h
2275 27-06-2003 14:39:25 31.2 C 8.41 g/m*3 31.2 C 0 km/h
Sensor: Nr:Datum:Temp:Abs-Feuchte:Windchill:Wind:
Aussen-T/F 2276 27-06-2003 15:01:25 31 C 8.96 g/m*3 31 C 0 km/h
2277 27-06-2003 15:23:25 31.9 C 9.07 g/m*3 31.9 C 0 km/h
2278 27-06-2003 15:45:25 31.7 C 8.31 g/m*3 31.7 C 0 km/h
2279 27-06-2003 16:07:25 30.5 C 8.72 g/m*3 30.5 C 0 km/h
2280 27-06-2003 16:29:25 30.3 C 10.79 g/m*3 30.3 C 0 km/h
2281 27-06-2003 16:51:25 28.1 C 10.12 g/m*3 28.1 C 0 km/h
2282 27-06-2003 17:13:25 25.8 C 11.8 g/m*3 25.8 C 0 km/h
2283 27-06-2003 17:35:25 26 C 11.2 g/m*3 26 C 0 km/h
2284 27-06-2003 17:57:25 25.4 C 10.83 g/m*3 25.4 C 0 km/h
2285 27-06-2003 18:19:25 25.2 C 10.71 g/m*3 25.2 C 0 km/h
2286 27-06-2003 18:41:25 24.2 C 11.44 g/m*3 24.2 C 0 km/h
2287 27-06-2003 19:03:25 23.9 C 12.11 g/m*3 23.9 C 0 km/h
2288 27-06-2003 19:25:25 23.2 C 12.27 g/m*3 23.2 C 0 km/h
2289 27-06-2003 19:47:25 22.9 C 12.26 g/m*3 22.9 C 0 km/h
2290 27-06-2003 20:09:25 22.8 C 12.8 g/m*3 22.8 C 0 km/h
2291 27-06-2003 20:53:25 22.4 C 12.31 g/m*3 22.4 C 0 km/h
2292 27-06-2003 21:15:25 22.4 C 12.11 g/m*3 22.4 C 0 km/h
2293 27-06-2003 21:37:25 22.1 C 11.91 g/m*3 22.1 C 0 km/h
2294 27-06-2003 21:59:25 21.9 C 11.96 g/m*3 21.9 C 0 km/h
2295 27-06-2003 22:21:25 21.8 C 12.09 g/m*3 21.8 C 0 km/h
2296 27-06-2003 22:43:25 21.7 C 12.21 g/m*3 21.7 C 0 km/h
2297 27-06-2003 23:05:25 21.2 C 12.23 g/m*3 21.2 C 0 km/h
2298 27-06-2003 23:27:25 21.1 C 12.34 g/m*3 21.1 C 0 km/h
2299 27-06-2003 23:49:25 21 C 12.46 g/m*3 21 C 0 km/h
2300 28-06-2003 00:11:25 20.8 C 12.31 g/m*3 20.8 C 0 km/h
Sensor: Nr:Datum:Temp:Abs-Feuchte:Windchill:Wind:
Aussen-T/F 2301 28-06-2003 00:33:25 20.6 C 12.53 g/m*3 20.6 C 0 km/h
2302 28-06-2003 00:55:25 20.2 C 12.76 g/m*3 20.2 C 0 km/h
2303 28-06-2003 01:17:25 20.4 C 12.74 g/m*3 20.4 C 0 km/h
2304 28-06-2003 01:39:25 20 C 12.79 g/m*3 20 C 0 km/h
2305 28-06-2003 02:01:25 19.9 C 13.06 g/m*3 19.9 C 0 km/h
2306 28-06-2003 02:23:25 19.7 C 13.08 g/m*3 19.7 C 0 km/h
2307 28-06-2003 02:45:25 19.7 C 13.08 g/m*3 19.7 C 0 km/h
2308 28-06-2003 03:07:25 19.5 C 13.26 g/m*3 19.5 C 0 km/h
2309 28-06-2003 03:29:25 19.5 C 13.26 g/m*3 19.5 C 0 km/h
2310 28-06-2003 03:51:25 19.4 C 12.68 g/m*3 19.4 C 0 km/h
2311 28-06-2003 04:13:25 19 C 12.55 g/m*3 19 C 0 km/h
2312 28-06-2003 04:35:25 18.8 C 12.56 g/m*3 18.8 C 0 km/h
2313 28-06-2003 04:57:25 18.8 C 12.88 g/m*3 18.8 C 0 km/h
2314 28-06-2003 05:19:25 18.8 C 13.21 g/m*3 18.8 C 0 km/h
2315 28-06-2003 05:41:25 19.3 C 13.1 g/m*3 19.3 C 0 km/h
2316 28-06-2003 06:03:25 19.3 C 13.1 g/m*3 19.3 C 0 km/h
2317 28-06-2003 06:25:25 19.3 C 13.1 g/m*3 19.3 C 0 km/h
2318 28-06-2003 06:47:25 19.2 C 13.03 g/m*3 19.2 C 0 km/h
2319 28-06-2003 07:09:25 19.2 C 13.03 g/m*3 19.2 C 0 km/h
2320 28-06-2003 07:31:25 19.3 C 13.1 g/m*3 19.3 C 0 km/h
2321 28-06-2003 07:53:25 19.6 C 12.83 g/m*3 19.6 C 0 km/h
2322 28-06-2003 08:15:25 19.4 C 12.85 g/m*3 19.4 C 0 km/h
2323 28-06-2003 08:37:25 20 C 12.62 g/m*3 20 C 0 km/h
2324 28-06-2003 08:59:25 20 C 12.44 g/m*3 20 C 0 km/h
2325 28-06-2003 09:21:25 20 C 11.92 g/m*3 20 C 0 km/h
Sensor: Nr:Datum:Temp:Abs-Feuchte:Windchill:Wind:
Aussen-T/F 2326 28-06-2003 09:43:25 20.4 C 12.03 g/m*3 20.4 C 0 km/h
2327 28-06-2003 10:05:25 20.7 C 11.88 g/m*3 20.7 C 0 km/h
2328 28-06-2003 10:27:25 21.1 C 11.79 g/m*3 21.1 C 0 km/h
2329 28-06-2003 10:49:25 23.2 C 11.85 g/m*3 23.2 C 0 km/h
2330 28-06-2003 11:11:25 23.4 C 11.57 g/m*3 23.4 C 0 km/h
2331 28-06-2003 11:33:25 23.5 C 11.84 g/m*3 23.5 C 0 km/h
2332 28-06-2003 11:55:25 24.1 C 11.6 g/m*3 24.1 C 0 km/h
2333 28-06-2003 12:17:25 25.7 C 11.49 g/m*3 25.7 C 0 km/h
2334 28-06-2003 12:39:25 25.8 C 11.32 g/m*3 25.8 C 0 km/h
2335 28-06-2003 13:01:25 26.3 C 10.89 g/m*3 26.3 C 0 km/h
2336 28-06-2003 13:23:25 27.8 C 9.95 g/m*3 27.8 C 0 km/h
2337 28-06-2003 13:45:25 26.2 C 10.34 g/m*3 26.2 C 0 km/h
2338 28-06-2003 14:07:25 26.4 C 10.46 g/m*3 26.4 C 0 km/h
2339 28-06-2003 14:29:25 25.5 C 10.65 g/m*3 25.5 C 0 km/h
2340 28-06-2003 14:51:25 24.5 C 10.97 g/m*3 24.5 C 0 km/h
2341 28-06-2003 15:13:25 26.1 C 10.53 g/m*3 26.1 C 0 km/h
2342 28-06-2003 15:35:25 26.8 C 10.18 g/m*3 26.8 C 0 km/h
2343 28-06-2003 15:57:25 27.5 C 10.32 g/m*3 27.5 C 0 km/h
2344 28-06-2003 16:19:25 28.3 C 9.95 g/m*3 28.3 C 0 km/h
2345 28-06-2003 16:41:25 28.4 C 10.01 g/m*3 28.4 C 0 km/h
2346 28-06-2003 17:03:25 30 C 9.7 g/m*3 30 C 0 km/h
2347 28-06-2003 17:25:25 30.4 C 9.92 g/m*3 30.4 C 0 km/h
2348 28-06-2003 17:47:25 30.6 C 9.71 g/m*3 30.6 C 0 km/h
2349 28-06-2003 18:09:25 30 C 9.7 g/m*3 30 C 0 km/h
2350 28-06-2003 18:31:25 28.7 C 9.89 g/m*3 28.7 C 0 km/h
Sensor: Nr:Datum:Temp:Abs-Feuchte:Windchill:Wind:
Aussen-T/F 2351 28-06-2003 18:53:25 26.8 C 9.93 g/m*3 26.8 C 0 km/h
2352 28-06-2003 19:15:25 26.6 C 10.32 g/m*3 26.6 C 0 km/h
2353 28-06-2003 19:37:25 25.8 C 10.35 g/m*3 25.8 C 0 km/h
2354 28-06-2003 19:59:25 26.7 C 10.12 g/m*3 26.7 C 0 km/h
2355 28-06-2003 20:21:25 25.7 C 10.29 g/m*3 25.7 C 0 km/h
2356 28-06-2003 20:43:25 24.5 C 10.52 g/m*3 24.5 C 0 km/h
2357 28-06-2003 21:05:25 23.6 C 10.63 g/m*3 23.6 C 0 km/h
2358 28-06-2003 21:27:25 23.5 C 11 g/m*3 23.5 C 0 km/h
2359 28-06-2003 21:49:25 22.8 C 11.18 g/m*3 22.8 C 0 km/h
2360 28-06-2003 22:11:25 21.7 C 11.06 g/m*3 21.7 C 0 km/h
2361 28-06-2003 22:33:25 21 C 10.99 g/m*3 21 C 0 km/h
2362 28-06-2003 22:55:25 20.6 C 11.1 g/m*3 20.6 C 0 km/h
2363 28-06-2003 23:17:25 20.5 C 11.03 g/m*3 20.5 C 0 km/h
2364 28-06-2003 23:39:25 20.4 C 11.14 g/m*3 20.4 C 0 km/h
2365 29-06-2003 00:01:25 19.8 C 11.27 g/m*3 19.8 C 0 km/h
2366 29-06-2003 00:23:25 19.6 C 11.31 g/m*3 19.6 C 0 km/h
2367 29-06-2003 00:45:25 19.3 C 11.28 g/m*3 19.3 C 0 km/h
2368 29-06-2003 01:07:25 19.2 C 11.21 g/m*3 19.2 C 0 km/h
2369 29-06-2003 01:29:25 19.2 C 11.05 g/m*3 19.2 C 0 km/h
2370 29-06-2003 01:51:25 19.1 C 11.15 g/m*3 19.1 C 0 km/h
2371 29-06-2003 02:13:25 18.9 C 11.18 g/m*3 18.9 C 0 km/h
2372 29-06-2003 02:35:25 18.7 C 10.73 g/m*3 18.7 C 0 km/h
2373 29-06-2003 02:57:25 18.3 C 10.79 g/m*3 18.3 C 0 km/h
2374 29-06-2003 03:19:25 18.4 C 10.54 g/m*3 18.4 C 0 km/h
2375 29-06-2003 03:41:25 18 C 9.98 g/m*3 18 C 0 km/h
Sensor: Nr:Datum:Temp:Abs-Feuchte:Windchill:Wind:
Aussen-T/F 2376 29-06-2003 04:03:25 17.7 C 10.11 g/m*3 17.7 C 0 km/h
2377 29-06-2003 04:25:25 17.5 C 10.29 g/m*3 17.5 C 0 km/h
2378 29-06-2003 04:47:25 17.1 C 10.19 g/m*3 17.1 C 0 km/h
2379 29-06-2003 05:09:25 16.6 C 10.45 g/m*3 16.6 C 0 km/h
2380 29-06-2003 05:31:25 16.2 C 10.07 g/m*3 16.2 C 0 km/h
2381 29-06-2003 05:53:25 16.1 C 10.28 g/m*3 16.1 C 0 km/h
2382 29-06-2003 06:15:25 15.9 C 10.56 g/m*3 15.9 C 0 km/h
2383 29-06-2003 06:37:25 16 C 10.63 g/m*3 16 C 0 km/h
2384 29-06-2003 06:59:25 16.1 C 10.55 g/m*3 16.1 C 0 km/h
2385 29-06-2003 07:21:25 16.2 C 10.62 g/m*3 16.2 C 0 km/h
2386 29-06-2003 07:43:25 16.5 C 10.81 g/m*3 16.5 C 0 km/h
2387 29-06-2003 08:05:25 17.7 C 10.71 g/m*3 17.7 C 0 km/h
2388 29-06-2003 08:27:25 19 C 10.1 g/m*3 19 C 0 km/h
2389 29-06-2003 08:49:25 18.9 C 10.53 g/m*3 18.9 C 0 km/h
2390 29-06-2003 09:11:25 19.7 C 11.04 g/m*3 19.7 C 0 km/h
2391 29-06-2003 09:33:25 21 C 11.17 g/m*3 21 C 0 km/h
2392 29-06-2003 09:55:25 22.4 C 11.52 g/m*3 22.4 C 0 km/h
2393 29-06-2003 10:17:25 23.5 C 11.42 g/m*3 23.5 C 0 km/h
2394 29-06-2003 10:39:25 24.5 C 11.19 g/m*3 24.5 C 0 km/h
2395 29-06-2003 11:01:25 25.6 C 10.95 g/m*3 25.6 C 0 km/h
2396 29-06-2003 11:23:25 26.5 C 10.51 g/m*3 26.5 C 0 km/h
2397 29-06-2003 11:45:25 27.5 C 10.05 g/m*3 27.5 C 0 km/h
2398 29-06-2003 12:07:25 29 C 10.05 g/m*3 29 C 0 km/h
2399 29-06-2003 12:29:25 30 C 10.01 g/m*3 30 C 0 km/h
2400 29-06-2003 12:51:25 29.6 C 9.5 g/m*3 29.6 C 0 km/h
Sensor: Nr:Datum:Temp:Abs-Feuchte:Windchill:Wind:
Aussen-T/F 2401 29-06-2003 13:13:25 29.9 C 9.35 g/m*3 29.9 C 0 km/h
2402 29-06-2003 13:35:25 29.2 C 9.29 g/m*3 29.2 C 0 km/h
2403 29-06-2003 13:57:25 30.6 C 8.77 g/m*3 30.6 C 0 km/h
2404 29-06-2003 14:19:25 30.1 C 8.84 g/m*3 30.1 C 0 km/h
2405 29-06-2003 14:41:25 31.1 C 8.69 g/m*3 31.1 C 0 km/h
2406 29-06-2003 15:03:25 32 C 7.43 g/m*3 32 C 0 km/h
2407 29-06-2003 15:25:25 30.9 C 8.28 g/m*3 30.9 C 0 km/h
2408 29-06-2003 15:47:25 31.2 C 8.41 g/m*3 31.2 C 0 km/h
2409 29-06-2003 16:09:25 30.9 C 7.96 g/m*3 30.9 C 0 km/h
2410 29-06-2003 16:31:25 32.2 C 8.53 g/m*3 32.2 C 0 km/h
2411 29-06-2003 16:53:25 32 C 8.1 g/m*3 32 C 0 km/h
2412 29-06-2003 17:21:02 32.8 C 7.04 g/m*3 32.8 C 0 km/h
2413 29-06-2003 17:27:02 32.9 C 7.08 g/m*3 32.9 C 0 km/h
2414 29-06-2003 17:33:01 33.3 C 7.23 g/m*3 33.3 C 0 km/h
2415 29-06-2003 17:39:01 32.7 C 7.01 g/m*3 32.7 C 0 km/h
2416 29-06-2003 17:45:01 32.8 C 7.04 g/m*3 32.8 C 0 km/h
2417 29-06-2003 17:51:01 33.1 C 7.16 g/m*3 33.1 C 0 km/h
2418 29-06-2003 17:57:01 33.3 C 7.23 g/m*3 33.3 C 0 km/h
2419 29-06-2003 18:03:01 32.9 C 7.08 g/m*3 32.9 C 0 km/h
2420 29-06-2003 18:09:01 32.6 C 7.32 g/m*3 32.6 C 0 km/h
2421 29-06-2003 18:15:01 32 C 8.1 g/m*3 32 C 0 km/h
2422 29-06-2003 18:21:01 31.9 C 8.73 g/m*3 31.9 C 0 km/h
2423 29-06-2003 18:27:01 31.7 C 7.64 g/m*3 31.7 C 0 km/h
2424 29-06-2003 18:33:02 31.5 C 9.2 g/m*3 31.5 C 0 km/h
2425 29-06-2003 18:39:02 31.4 C 9.81 g/m*3 31.4 C 0 km/h
Sensor: Nr:Datum:Temp:Abs-Feuchte:Windchill:Wind:
Aussen-T/F 2426 29-06-2003 18:45:02 31.3 C 10.08 g/m*3 31.3 C 0 km/h
2427 29-06-2003 18:51:02 31 C 8.64 g/m*3 31 C 0 km/h
2428 29-06-2003 19:03:02 31.3 C 8.13 g/m*3 31.3 C 0 km/h
2429 29-06-2003 19:09:02 31.4 C 8.17 g/m*3 31.4 C 0 km/h
2430 29-06-2003 19:15:02 31.3 C 7.81 g/m*3 31.3 C 0 km/h
2431 29-06-2003 19:21:02 31.3 C 7.81 g/m*3 31.3 C 0 km/h
2432 29-06-2003 19:27:02 31.3 C 7.81 g/m*3 31.3 C 0 km/h
2433 29-06-2003 19:33:01 31 C 8 g/m*3 31 C 0 km/h
2434 29-06-2003 19:39:01 30.7 C 8.19 g/m*3 30.7 C 0 km/h
2435 29-06-2003 19:45:01 30.8 C 8.55 g/m*3 30.8 C 0 km/h
2436 29-06-2003 19:51:01 30.6 C 8.14 g/m*3 30.6 C 0 km/h
2437 29-06-2003 19:57:01 30.6 C 8.77 g/m*3 30.6 C 0 km/h
2438 29-06-2003 20:03:02 30.6 C 8.77 g/m*3 30.6 C 0 km/h
2439 29-06-2003 20:09:02 30.2 C 9.2 g/m*3 30.2 C 0 km/h
2440 29-06-2003 20:15:02 29.8 C 9.6 g/m*3 29.8 C 0 km/h
2441 29-06-2003 20:21:02 29.8 C 10.5 g/m*3 29.8 C 0 km/h
2442 29-06-2003 20:27:02 30 C 10.31 g/m*3 30 C 0 km/h
2443 29-06-2003 20:33:02 29.9 C 9.65 g/m*3 29.9 C 0 km/h
2444 29-06-2003 20:39:02 29.8 C 10.2 g/m*3 29.8 C 0 km/h
2445 29-06-2003 20:45:02 29.7 C 10.14 g/m*3 29.7 C 0 km/h
2446 29-06-2003 20:51:02 29.6 C 10.39 g/m*3 29.6 C 0 km/h
2447 29-06-2003 20:57:02 29.1 C 10.11 g/m*3 29.1 C 0 km/h
2448 29-06-2003 21:03:02 28.5 C 10.62 g/m*3 28.5 C 0 km/h
2449 29-06-2003 21:09:02 27.6 C 10.64 g/m*3 27.6 C 0 km/h
2450 29-06-2003 21:15:02 26.6 C 10.32 g/m*3 26.6 C 0 km/h
Sensor: Nr:Datum:Temp:Abs-Feuchte:Windchill:Wind:
Aussen-T/F 2451 29-06-2003 21:21:02 26.2 C 10.59 g/m*3 26.2 C 0 km/h
2452 29-06-2003 21:27:02 25.8 C 10.35 g/m*3 25.8 C 0 km/h
2453 29-06-2003 21:34:01 25.6 C 10.24 g/m*3 25.6 C 0 km/h
2454 29-06-2003 21:40:01 25.4 C 10.12 g/m*3 25.4 C 0 km/h
2455 29-06-2003 21:46:01 24.9 C 10.3 g/m*3 24.9 C 0 km/h
2456 29-06-2003 21:52:01 24.8 C 10.24 g/m*3 24.8 C 0 km/h
2457 29-06-2003 21:58:01 24.8 C 10.47 g/m*3 24.8 C 0 km/h
2458 29-06-2003 22:04:01 24.5 C 10.07 g/m*3 24.5 C 0 km/h
2459 29-06-2003 22:10:01 24.5 C 10.3 g/m*3 24.5 C 0 km/h
2460 29-06-2003 22:16:01 24.3 C 9.96 g/m*3 24.3 C 0 km/h
2461 29-06-2003 22:22:01 23.9 C 10.38 g/m*3 23.9 C 0 km/h
2462 29-06-2003 22:28:01 23.8 C 10.33 g/m*3 23.8 C 0 km/h
2463 29-06-2003 22:34:01 23.7 C 10.27 g/m*3 23.7 C 0 km/h
2464 29-06-2003 22:40:01 23.6 C 10.21 g/m*3 23.6 C 0 km/h
2465 29-06-2003 22:46:01 23.3 C 10.25 g/m*3 23.3 C 0 km/h
2466 29-06-2003 22:52:01 23.1 C 9.92 g/m*3 23.1 C 0 km/h
2467 29-06-2003 22:58:01 23 C 10.07 g/m*3 23 C 0 km/h
2468 29-06-2003 23:04:01 22.8 C 9.75 g/m*3 22.8 C 0 km/h
2469 29-06-2003 23:10:01 22.8 C 9.35 g/m*3 22.8 C 0 km/h
2470 29-06-2003 23:16:01 22.8 C 9.35 g/m*3 22.8 C 0 km/h
2471 29-06-2003 23:22:01 22.7 C 9.5 g/m*3 22.7 C 0 km/h
2472 29-06-2003 23:28:01 22.4 C 9.14 g/m*3 22.4 C 0 km/h
2473 29-06-2003 23:34:01 22.3 C 9.48 g/m*3 22.3 C 0 km/h
2474 29-06-2003 23:40:01 22.1 C 8.98 g/m*3 22.1 C 0 km/h
2475 29-06-2003 23:46:01 21.9 C 9.26 g/m*3 21.9 C 0 km/h
Sensor: Nr:Datum:Temp:Abs-Feuchte:Windchill:Wind:
Aussen-T/F 2476 29-06-2003 23:52:01 21.9 C 9.26 g/m*3 21.9 C 0 km/h
2477 29-06-2003 23:58:01 21.8 C 9.02 g/m*3 21.8 C 0 km/h
2478 30-06-2003 00:04:01 21.6 C 9.1 g/m*3 21.6 C 0 km/h
2479 30-06-2003 00:10:01 21.6 C 8.91 g/m*3 21.6 C 0 km/h
2480 30-06-2003 00:16:01 21.6 C 8.91 g/m*3 21.6 C 0 km/h
2481 30-06-2003 00:22:01 21.4 C 8.62 g/m*3 21.4 C 0 km/h
2482 30-06-2003 00:28:01 21.3 C 8.76 g/m*3 21.3 C 0 km/h
2483 30-06-2003 00:34:01 21.1 C 8.84 g/m*3 21.1 C 0 km/h
2484 30-06-2003 00:40:01 20.9 C 8.74 g/m*3 20.9 C 0 km/h
2485 30-06-2003 00:46:01 20.8 C 9.05 g/m*3 20.8 C 0 km/h
2486 30-06-2003 00:52:01 20.7 C 9.18 g/m*3 20.7 C 0 km/h
2487 30-06-2003 00:58:01 20.6 C 9.13 g/m*3 20.6 C 0 km/h
2488 30-06-2003 01:04:01 20.5 C 9.25 g/m*3 20.5 C 0 km/h
2489 30-06-2003 01:10:01 20.4 C 9.2 g/m*3 20.4 C 0 km/h
2490 30-06-2003 01:16:01 20.3 C 9.5 g/m*3 20.3 C 0 km/h
2491 30-06-2003 01:22:01 20.2 C 9.09 g/m*3 20.2 C 0 km/h
2492 30-06-2003 01:28:01 20 C 9.33 g/m*3 20 C 0 km/h
2493 30-06-2003 01:34:01 19.8 C 9.57 g/m*3 19.8 C 0 km/h
2494 30-06-2003 01:40:01 19.7 C 9.51 g/m*3 19.7 C 0 km/h
2495 30-06-2003 01:46:01 19.5 C 9.4 g/m*3 19.5 C 0 km/h
2496 30-06-2003 01:52:01 19.5 C 9.4 g/m*3 19.5 C 0 km/h
2497 30-06-2003 01:58:01 19.4 C 9.51 g/m*3 19.4 C 0 km/h
2498 30-06-2003 02:04:01 19.3 C 9.45 g/m*3 19.3 C 0 km/h
2499 30-06-2003 02:10:01 19 C 9.45 g/m*3 19 C 0 km/h
2500 30-06-2003 02:16:01 18.9 C 9.56 g/m*3 18.9 C 0 km/h
Sensor: Nr:Datum:Temp:Abs-Feuchte:Windchill:Wind:
Aussen-T/F 2501 30-06-2003 02:22:01 18.8 C 9.66 g/m*3 18.8 C 0 km/h
2502 30-06-2003 02:28:01 18.8 C 9.66 g/m*3 18.8 C 0 km/h
2503 30-06-2003 02:34:01 18.8 C 9.66 g/m*3 18.8 C 0 km/h
2504 30-06-2003 02:40:01 18.6 C 9.71 g/m*3 18.6 C 0 km/h
2505 30-06-2003 02:46:01 18.5 C 9.65 g/m*3 18.5 C 0 km/h
2506 30-06-2003 02:52:01 18.5 C 9.81 g/m*3 18.5 C 0 km/h
2507 30-06-2003 02:58:01 18.3 C 9.69 g/m*3 18.3 C 0 km/h
2508 30-06-2003 03:04:01 18.2 C 9.64 g/m*3 18.2 C 0 km/h
2509 30-06-2003 03:10:01 18.3 C 9.69 g/m*3 18.3 C 0 km/h
2510 30-06-2003 03:16:01 18 C 9.68 g/m*3 18 C 0 km/h
2511 30-06-2003 03:22:01 17.9 C 9.92 g/m*3 17.9 C 0 km/h
2512 30-06-2003 03:28:01 17.7 C 9.81 g/m*3 17.7 C 0 km/h
2513 30-06-2003 03:34:01 17.7 C 9.96 g/m*3 17.7 C 0 km/h
2514 30-06-2003 03:40:01 17.7 C 9.96 g/m*3 17.7 C 0 km/h
2515 30-06-2003 03:46:01 17.6 C 9.9 g/m*3 17.6 C 0 km/h
2516 30-06-2003 03:52:01 17.5 C 9.84 g/m*3 17.5 C 0 km/h
2517 30-06-2003 03:58:01 17.6 C 10.05 g/m*3 17.6 C 0 km/h
2518 30-06-2003 04:04:01 17.7 C 9.96 g/m*3 17.7 C 0 km/h
2519 30-06-2003 04:10:01 17.7 C 9.96 g/m*3 17.7 C 0 km/h
2520 30-06-2003 04:16:01 17.5 C 9.99 g/m*3 17.5 C 0 km/h
2521 30-06-2003 04:22:01 17.4 C 10.08 g/m*3 17.4 C 0 km/h
2522 30-06-2003 04:28:01 17.4 C 10.08 g/m*3 17.4 C 0 km/h
2523 30-06-2003 04:34:01 17.4 C 10.08 g/m*3 17.4 C 0 km/h
2524 30-06-2003 04:40:01 17.4 C 10.08 g/m*3 17.4 C 0 km/h
2525 30-06-2003 04:46:01 17.5 C 10.14 g/m*3 17.5 C 0 km/h
Sensor: Nr:Datum:Temp:Abs-Feuchte:Windchill:Wind:
Aussen-T/F 2526 30-06-2003 04:52:01 17.1 C 9.9 g/m*3 17.1 C 0 km/h
2527 30-06-2003 04:58:01 17.5 C 10.14 g/m*3 17.5 C 0 km/h
2528 30-06-2003 05:04:01 17.4 C 10.23 g/m*3 17.4 C 0 km/h
2529 30-06-2003 05:10:01 17.4 C 10.23 g/m*3 17.4 C 0 km/h
2530 30-06-2003 05:16:01 17.4 C 10.23 g/m*3 17.4 C 0 km/h
2531 30-06-2003 05:22:01 17.4 C 10.23 g/m*3 17.4 C 0 km/h
2532 30-06-2003 05:28:01 17.3 C 10.16 g/m*3 17.3 C 0 km/h
2533 30-06-2003 05:34:01 17.3 C 10.31 g/m*3 17.3 C 0 km/h
2534 30-06-2003 05:40:01 17.2 C 10.25 g/m*3 17.2 C 0 km/h
2535 30-06-2003 05:46:01 17.2 C 10.25 g/m*3 17.2 C 0 km/h
2536 30-06-2003 05:52:01 17.2 C 10.4 g/m*3 17.2 C 0 km/h
2537 30-06-2003 05:58:01 17.2 C 10.25 g/m*3 17.2 C 0 km/h
2538 30-06-2003 06:04:01 17.3 C 10.31 g/m*3 17.3 C 0 km/h
2539 30-06-2003 06:10:01 17.4 C 10.37 g/m*3 17.4 C 0 km/h
2540 30-06-2003 06:16:01 17.5 C 10.44 g/m*3 17.5 C 0 km/h
2541 30-06-2003 06:22:01 17.4 C 10.52 g/m*3 17.4 C 0 km/h
2542 30-06-2003 06:28:01 17.3 C 10.46 g/m*3 17.3 C 0 km/h
2543 30-06-2003 06:34:01 17.2 C 10.4 g/m*3 17.2 C 0 km/h
2544 30-06-2003 06:40:01 17.1 C 10.34 g/m*3 17.1 C 0 km/h
2545 30-06-2003 06:46:01 17.1 C 10.48 g/m*3 17.1 C 0 km/h
2546 30-06-2003 06:52:01 17.2 C 10.54 g/m*3 17.2 C 0 km/h
2547 30-06-2003 06:58:01 17.3 C 10.61 g/m*3 17.3 C 0 km/h
2548 30-06-2003 07:04:01 17.3 C 10.61 g/m*3 17.3 C 0 km/h
2549 30-06-2003 07:10:01 17.3 C 10.61 g/m*3 17.3 C 0 km/h
2550 30-06-2003 07:16:01 17.3 C 10.61 g/m*3 17.3 C 0 km/h
Sensor: Nr:Datum:Temp:Abs-Feuchte:Windchill:Wind:
Aussen-T/F 2551 30-06-2003 07:22:01 17.5 C 10.73 g/m*3 17.5 C 0 km/h
2552 30-06-2003 07:28:01 17.7 C 10.86 g/m*3 17.7 C 0 km/h
2553 30-06-2003 07:34:01 17.7 C 10.86 g/m*3 17.7 C 0 km/h
2554 30-06-2003 07:40:01 18.1 C 10.82 g/m*3 18.1 C 0 km/h
2555 30-06-2003 07:46:01 18.1 C 10.82 g/m*3 18.1 C 0 km/h
2556 30-06-2003 07:52:01 18.3 C 10.79 g/m*3 18.3 C 0 km/h
2557 30-06-2003 07:58:01 18.3 C 10.79 g/m*3 18.3 C 0 km/h
2558 30-06-2003 08:04:01 18.6 C 10.98 g/m*3 18.6 C 0 km/h
2559 30-06-2003 08:10:01 18.7 C 10.89 g/m*3 18.7 C 0 km/h
2560 30-06-2003 08:16:01 18.9 C 11.02 g/m*3 18.9 C 0 km/h
2561 30-06-2003 08:22:01 19 C 10.92 g/m*3 19 C 0 km/h
2562 30-06-2003 08:28:01 19.4 C 11.18 g/m*3 19.4 C 0 km/h
2563 30-06-2003 08:34:01 20.2 C 11.19 g/m*3 20.2 C 0 km/h
2564 30-06-2003 08:40:01 20.8 C 11.05 g/m*3 20.8 C 0 km/h
2565 30-06-2003 08:46:01 21.4 C 11.06 g/m*3 21.4 C 0 km/h
2566 30-06-2003 08:52:01 21.7 C 11.06 g/m*3 21.7 C 0 km/h
2567 30-06-2003 08:58:01 22 C 11.06 g/m*3 22 C 0 km/h
2568 30-06-2003 09:04:01 22.3 C 10.86 g/m*3 22.3 C 0 km/h
2569 30-06-2003 09:10:01 22.5 C 10.99 g/m*3 22.5 C 0 km/h
2570 30-06-2003 09:16:01 22.6 C 10.65 g/m*3 22.6 C 0 km/h
2571 30-06-2003 09:22:01 22.8 C 10.77 g/m*3 22.8 C 0 km/h
2572 30-06-2003 09:28:01 23 C 10.69 g/m*3 23 C 0 km/h
2573 30-06-2003 09:34:01 23.3 C 10.66 g/m*3 23.3 C 0 km/h
2574 30-06-2003 09:40:01 23.4 C 10.72 g/m*3 23.4 C 0 km/h
2575 30-06-2003 09:46:01 23.7 C 10.69 g/m*3 23.7 C 0 km/h
Sensor: Nr:Datum:Temp:Abs-Feuchte:Windchill:Wind:
Aussen-T/F 2576 30-06-2003 09:52:01 23.9 C 10.6 g/m*3 23.9 C 0 km/h
2577 30-06-2003 09:58:01 24.2 C 10.56 g/m*3 24.2 C 0 km/h
2578 30-06-2003 10:04:01 24.1 C 10.5 g/m*3 24.1 C 0 km/h
2579 30-06-2003 10:10:01 24.1 C 10.72 g/m*3 24.1 C 0 km/h
2580 30-06-2003 10:16:01 24.1 C 10.72 g/m*3 24.1 C 0 km/h
2581 30-06-2003 10:22:01 24.3 C 10.62 g/m*3 24.3 C 0 km/h
2582 30-06-2003 10:28:01 24.4 C 10.68 g/m*3 24.4 C 0 km/h
2583 30-06-2003 10:34:01 24.1 C 10.5 g/m*3 24.1 C 0 km/h
2584 30-06-2003 10:40:01 24.3 C 10.62 g/m*3 24.3 C 0 km/h
2585 30-06-2003 10:46:01 24.6 C 11.03 g/m*3 24.6 C 0 km/h
2586 30-06-2003 10:52:01 25.1 C 10.88 g/m*3 25.1 C 0 km/h
2587 30-06-2003 10:58:01 24.5 C 10.52 g/m*3 24.5 C 0 km/h
2588 30-06-2003 11:04:01 24.6 C 11.03 g/m*3 24.6 C 0 km/h
2589 30-06-2003 11:10:01 24.8 C 11.38 g/m*3 24.8 C 0 km/h
2590 30-06-2003 11:16:01 25 C 11.28 g/m*3 25 C 0 km/h
2591 30-06-2003 11:22:01 25.1 C 11.81 g/m*3 25.1 C 0 km/h
2592 30-06-2003 11:28:01 25 C 11.05 g/m*3 25 C 0 km/h
2593 30-06-2003 11:34:01 24.9 C 11.45 g/m*3 24.9 C 0 km/h
2594 30-06-2003 11:40:01 25 C 11.51 g/m*3 25 C 0 km/h
2595 30-06-2003 11:46:01 25.2 C 11.41 g/m*3 25.2 C 0 km/h
2596 30-06-2003 11:52:01 25.1 C 11.57 g/m*3 25.1 C 0 km/h
2597 30-06-2003 11:58:01 25 C 12.2 g/m*3 25 C 0 km/h
2598 30-06-2003 12:04:01 24.8 C 12.52 g/m*3 24.8 C 0 km/h
2599 30-06-2003 12:10:01 24.8 C 12.75 g/m*3 24.8 C 0 km/h
2600 30-06-2003 12:16:01 24.9 C 12.36 g/m*3 24.9 C 0 km/h
Sensor: Nr:Datum:Temp:Abs-Feuchte:Windchill:Wind:
Aussen-T/F 2601 30-06-2003 12:22:01 24.8 C 12.75 g/m*3 24.8 C 0 km/h
2602 30-06-2003 12:28:01 24.6 C 13.05 g/m*3 24.6 C 0 km/h
2603 30-06-2003 12:34:01 24.8 C 13.43 g/m*3 24.8 C 0 km/h
2604 30-06-2003 12:40:01 25 C 12.43 g/m*3 25 C 0 km/h
2605 30-06-2003 12:46:01 25.3 C 12.88 g/m*3 25.3 C 0 km/h
2606 30-06-2003 12:52:01 25.5 C 12.55 g/m*3 25.5 C 0 km/h
2607 30-06-2003 12:58:01 25.6 C 12.62 g/m*3 25.6 C 0 km/h
2608 30-06-2003 13:04:01 25.6 C 12.38 g/m*3 25.6 C 0 km/h
2609 30-06-2003 13:10:01 25.9 C 12.59 g/m*3 25.9 C 0 km/h
2610 30-06-2003 13:16:01 26.3 C 12.63 g/m*3 26.3 C 0 km/h
2611 30-06-2003 13:22:01 27.1 C 12.16 g/m*3 27.1 C 0 km/h
2612 30-06-2003 13:28:01 26.9 C 12.03 g/m*3 26.9 C 0 km/h
2613 30-06-2003 13:34:01 27 C 12.1 g/m*3 27 C 0 km/h
2614 30-06-2003 13:40:01 27.8 C 12.1 g/m*3 27.8 C 0 km/h
2615 30-06-2003 13:46:01 28.4 C 11.95 g/m*3 28.4 C 0 km/h
2616 30-06-2003 13:52:01 29.2 C 11.61 g/m*3 29.2 C 0 km/h
2617 30-06-2003 13:58:01 29.1 C 11.84 g/m*3 29.1 C 0 km/h
2618 30-06-2003 14:04:01 28.6 C 11.8 g/m*3 28.6 C 0 km/h
2619 30-06-2003 14:10:01 28.4 C 11.95 g/m*3 28.4 C 0 km/h
2620 30-06-2003 14:16:01 28.5 C 12.02 g/m*3 28.5 C 0 km/h
2621 30-06-2003 14:22:01 28.7 C 11.87 g/m*3 28.7 C 0 km/h
2622 30-06-2003 14:28:01 28.5 C 11.74 g/m*3 28.5 C 0 km/h
2623 30-06-2003 14:34:01 27.4 C 11.31 g/m*3 27.4 C 0 km/h
2624 30-06-2003 14:40:01 27 C 11.58 g/m*3 27 C 0 km/h
2625 30-06-2003 14:46:01 26.4 C 11.7 g/m*3 26.4 C 0 km/h
Sensor: Nr:Datum:Temp:Abs-Feuchte:Windchill:Wind:
Aussen-T/F 2626 30-06-2003 14:52:01 26 C 11.69 g/m*3 26 C 0 km/h
2627 30-06-2003 14:58:01 25.7 C 11.97 g/m*3 25.7 C 0 km/h
2628 30-06-2003 15:04:58 25.4 C 12.01 g/m*3 25.4 C 0 km/h
2629 30-06-2003 15:10:58 25.5 C 12.31 g/m*3 25.5 C 0 km/h
2630 30-06-2003 15:16:58 24.9 C 12.13 g/m*3 24.9 C 0 km/h
2631 30-06-2003 15:22:58 24.5 C 12.53 g/m*3 24.5 C 0 km/h
2632 30-06-2003 15:28:58 23.4 C 13.04 g/m*3 23.4 C 0 km/h
2633 30-06-2003 15:34:58 22.2 C 14.14 g/m*3 22.2 C 0 km/h
2634 30-06-2003 15:40:58 21.9 C 14.67 g/m*3 21.9 C 0 km/h
2635 30-06-2003 15:46:02 22.2 C 15.12 g/m*3 22.2 C 0 km/h
2636 30-06-2003 15:52:02 22.6 C 15.47 g/m*3 22.6 C 0 km/h
2637 30-06-2003 15:58:02 23 C 15.42 g/m*3 23 C 0 km/h
2638 30-06-2003 16:04:02 23.3 C 15.47 g/m*3 23.3 C 0 km/h
2639 30-06-2003 16:10:02 23.3 C 14.84 g/m*3 23.3 C 0 km/h
2640 30-06-2003 16:16:02 23 C 14.39 g/m*3 23 C 0 km/h
2641 30-06-2003 16:22:02 22.4 C 15.49 g/m*3 22.4 C 0 km/h
2642 30-06-2003 16:28:02 21.5 C 15.84 g/m*3 21.5 C 0 km/h
2643 30-06-2003 16:34:01 21.6 C 16.31 g/m*3 21.6 C 0 km/h
2644 30-06-2003 16:40:01 21.9 C 16.79 g/m*3 21.9 C 0 km/h
2645 30-06-2003 16:46:01 22.2 C 16.69 g/m*3 22.2 C 0 km/h
2646 30-06-2003 16:52:01 22.4 C 16.28 g/m*3 22.4 C 0 km/h
2647 30-06-2003 16:58:01 22.8 C 16.87 g/m*3 22.8 C 0 km/h
2648 30-06-2003 17:04:02 23.7 C 16.68 g/m*3 23.7 C 0 km/h
2649 30-06-2003 17:10:02 23.5 C 15.44 g/m*3 23.5 C 0 km/h
2650 30-06-2003 17:16:02 23.3 C 15.68 g/m*3 23.3 C 0 km/h
Sensor: Nr:Datum:Temp:Abs-Feuchte:Windchill:Wind:
Aussen-T/F 2651 30-06-2003 17:22:02 23.1 C 15.71 g/m*3 23.1 C 0 km/h
2652 30-06-2003 17:28:02 23.5 C 16.5 g/m*3 23.5 C 0 km/h
2653 30-06-2003 17:34:00 23.7 C 15.83 g/m*3 23.7 C 0 km/h
2654 30-06-2003 17:40:00 23.8 C 15.49 g/m*3 23.8 C 0 km/h
2655 30-06-2003 17:46:00 24 C 16.1 g/m*3 24 C 0 km/h
2656 30-06-2003 17:52:00 24.1 C 16.19 g/m*3 24.1 C 0 km/h
2657 30-06-2003 17:58:00 25.2 C 16.06 g/m*3 25.2 C 0 km/h
2658 30-06-2003 18:04:01 26.2 C 15.51 g/m*3 26.2 C 0 km/h
2659 30-06-2003 18:10:01 26.7 C 15.19 g/m*3 26.7 C 0 km/h
2660 30-06-2003 18:16:01 26.5 C 14.77 g/m*3 26.5 C 0 km/h
2661 30-06-2003 18:22:01 26.2 C 14.77 g/m*3 26.2 C 0 km/h
2662 30-06-2003 18:28:01 25.4 C 14.83 g/m*3 25.4 C 0 km/h
2663 30-06-2003 18:34:00 25.4 C 15.3 g/m*3 25.4 C 0 km/h
2664 30-06-2003 18:40:00 25.3 C 15.92 g/m*3 25.3 C 0 km/h
2665 30-06-2003 18:46:00 25.2 C 16.06 g/m*3 25.2 C 0 km/h
2666 30-06-2003 18:52:00 25.8 C 16.37 g/m*3 25.8 C 0 km/h
2667 30-06-2003 18:58:00 27 C 15.18 g/m*3 27 C 0 km/h
2668 30-06-2003 19:04:00 27.3 C 14.39 g/m*3 27.3 C 0 km/h
2669 30-06-2003 19:10:00 27.5 C 14.29 g/m*3 27.5 C 0 km/h
2670 30-06-2003 19:16:00 26.8 C 14.76 g/m*3 26.8 C 0 km/h
2671 30-06-2003 19:22:00 26.4 C 14.69 g/m*3 26.4 C 0 km/h
2672 30-06-2003 19:28:00 25.9 C 15.74 g/m*3 25.9 C 0 km/h
2673 30-06-2003 19:34:01 25.5 C 15.63 g/m*3 25.5 C 0 km/h
2674 30-06-2003 19:40:01 25.1 C 15.51 g/m*3 25.1 C 0 km/h
2675 30-06-2003 19:46:01 24.7 C 15.16 g/m*3 24.7 C 0 km/h
Sensor: Nr:Datum:Temp:Abs-Feuchte:Windchill:Wind:
Aussen-T/F 2676 30-06-2003 19:52:01 24.5 C 15.44 g/m*3 24.5 C 0 km/h
2677 30-06-2003 19:58:01 24.1 C 15.1 g/m*3 24.1 C 0 km/h
2678 30-06-2003 20:04:01 24 C 15.01 g/m*3 24 C 0 km/h
2679 30-06-2003 20:10:01 24.1 C 15.1 g/m*3 24.1 C 0 km/h
2680 30-06-2003 20:16:01 23.9 C 15.58 g/m*3 23.9 C 0 km/h
2681 30-06-2003 20:22:01 23.6 C 15.1 g/m*3 23.6 C 0 km/h
2682 30-06-2003 20:28:01 23.4 C 15.14 g/m*3 23.4 C 0 km/h
2683 30-06-2003 20:40:01 22.6 C 15.27 g/m*3 22.6 C 0 km/h
2684 30-06-2003 20:46:01 22.6 C 15.47 g/m*3 22.6 C 0 km/h
2685 30-06-2003 20:52:01 22.8 C 15.65 g/m*3 22.8 C 0 km/h
2686 30-06-2003 20:58:01 22.9 C 15.33 g/m*3 22.9 C 0 km/h
2687 30-06-2003 21:04:01 22.9 C 15.12 g/m*3 22.9 C 0 km/h
2688 30-06-2003 21:10:01 22.9 C 14.92 g/m*3 22.9 C 0 km/h
2689 30-06-2003 21:16:01 22.9 C 14.92 g/m*3 22.9 C 0 km/h
2690 30-06-2003 21:22:01 22.9 C 14.92 g/m*3 22.9 C 0 km/h
2691 30-06-2003 21:28:01 22.9 C 14.92 g/m*3 22.9 C 0 km/h
2692 30-06-2003 21:34:01 22.9 C 14.92 g/m*3 22.9 C 0 km/h
2693 30-06-2003 21:40:01 22.9 C 14.71 g/m*3 22.9 C 0 km/h
2694 30-06-2003 21:46:01 22.8 C 14.83 g/m*3 22.8 C 0 km/h
2695 30-06-2003 21:52:01 22.6 C 14.66 g/m*3 22.6 C 0 km/h
2696 30-06-2003 21:58:01 22.5 C 14.58 g/m*3 22.5 C 0 km/h
2697 30-06-2003 22:04:02 22.5 C 14.58 g/m*3 22.5 C 0 km/h
2698 30-06-2003 22:10:02 22.4 C 14.5 g/m*3 22.4 C 0 km/h
2699 30-06-2003 22:16:02 22.4 C 14.5 g/m*3 22.4 C 0 km/h
2700 30-06-2003 22:22:02 22.2 C 14.14 g/m*3 22.2 C 0 km/h
Sensor: Nr:Datum:Temp:Abs-Feuchte:Windchill:Wind:
Aussen-T/F 2701 30-06-2003 22:28:02 22.1 C 14.05 g/m*3 22.1 C 0 km/h
2702 30-06-2003 22:34:02 22 C 13.78 g/m*3 22 C 0 km/h
2703 30-06-2003 22:40:02 22 C 13.78 g/m*3 22 C 0 km/h
2704 30-06-2003 22:46:02 22 C 13.78 g/m*3 22 C 0 km/h
2705 30-06-2003 22:52:02 21.9 C 14.09 g/m*3 21.9 C 0 km/h
2706 30-06-2003 22:58:02 21.8 C 14.01 g/m*3 21.8 C 0 km/h
2707 30-06-2003 23:05:02 21.9 C 14.09 g/m*3 21.9 C 0 km/h
2708 30-06-2003 23:11:02 21.8 C 13.81 g/m*3 21.8 C 0 km/h
2709 30-06-2003 23:17:02 21.8 C 14.01 g/m*3 21.8 C 0 km/h
2710 30-06-2003 23:23:02 21.6 C 13.85 g/m*3 21.6 C 0 km/h
2711 30-06-2003 23:29:02 21.3 C 13.79 g/m*3 21.3 C 0 km/h
2712 30-06-2003 23:35:02 21.1 C 13.63 g/m*3 21.1 C 0 km/h
2713 30-06-2003 23:41:02 21 C 13.74 g/m*3 21 C 0 km/h
2714 30-06-2003 23:47:02 20.8 C 13.76 g/m*3 20.8 C 0 km/h
2715 30-06-2003 23:53:02 20.7 C 13.68 g/m*3 20.7 C 0 km/h
2716 30-06-2003 23:59:02 20.7 C 13.68 g/m*3 20.7 C 0 km/h
2717 01-07-2003 00:05:02 20.7 C 13.68 g/m*3 20.7 C 0 km/h
2718 01-07-2003 00:11:02 20.6 C 13.42 g/m*3 20.6 C 0 km/h
2719 01-07-2003 00:17:02 20.5 C 13.35 g/m*3 20.5 C 0 km/h
2720 01-07-2003 00:23:02 20.5 C 13.52 g/m*3 20.5 C 0 km/h
2721 01-07-2003 00:29:02 20.4 C 13.44 g/m*3 20.4 C 0 km/h
2722 01-07-2003 00:35:02 20 C 13.31 g/m*3 20 C 0 km/h
2723 01-07-2003 00:41:02 19.8 C 13.49 g/m*3 19.8 C 0 km/h
2724 01-07-2003 00:47:02 19.7 C 13.58 g/m*3 19.7 C 0 km/h
2725 01-07-2003 00:53:02 19.7 C 13.58 g/m*3 19.7 C 0 km/h
Sensor: Nr:Datum:Temp:Abs-Feuchte:Windchill:Wind:
Aussen-T/F 2726 01-07-2003 00:59:02 19.7 C 13.58 g/m*3 19.7 C 0 km/h
2727 01-07-2003 01:05:02 19.7 C 13.58 g/m*3 19.7 C 0 km/h
2728 01-07-2003 01:11:02 19.7 C 13.41 g/m*3 19.7 C 0 km/h
2729 01-07-2003 01:17:02 19.6 C 13.34 g/m*3 19.6 C 0 km/h
2730 01-07-2003 01:23:02 19.5 C 13.43 g/m*3 19.5 C 0 km/h
2731 01-07-2003 01:29:02 19.5 C 13.26 g/m*3 19.5 C 0 km/h
2732 01-07-2003 01:35:02 19.9 C 13.06 g/m*3 19.9 C 0 km/h
2733 01-07-2003 01:41:02 20.2 C 12.76 g/m*3 20.2 C 0 km/h
2734 01-07-2003 01:47:02 20.3 C 12.66 g/m*3 20.3 C 0 km/h
2735 01-07-2003 01:53:02 20.3 C 12.49 g/m*3 20.3 C 0 km/h
2736 01-07-2003 01:59:02 20.3 C 12.49 g/m*3 20.3 C 0 km/h
2737 01-07-2003 02:05:02 20.4 C 12.56 g/m*3 20.4 C 0 km/h
2738 01-07-2003 02:11:02 20.3 C 12.49 g/m*3 20.3 C 0 km/h
2739 01-07-2003 02:17:02 20.2 C 12.41 g/m*3 20.2 C 0 km/h
2740 01-07-2003 02:23:02 20.1 C 12.34 g/m*3 20.1 C 0 km/h
2741 01-07-2003 02:29:02 20 C 12.1 g/m*3 20 C 0 km/h
2742 01-07-2003 02:35:02 19.8 C 12.13 g/m*3 19.8 C 0 km/h
2743 01-07-2003 02:41:02 19.7 C 12.06 g/m*3 19.7 C 0 km/h
2744 01-07-2003 02:47:02 19.5 C 12.08 g/m*3 19.5 C 0 km/h
2745 01-07-2003 02:53:02 19.4 C 11.85 g/m*3 19.4 C 0 km/h
2746 01-07-2003 02:59:02 19.2 C 11.87 g/m*3 19.2 C 0 km/h
2747 01-07-2003 03:05:02 19.1 C 11.8 g/m*3 19.1 C 0 km/h
2748 01-07-2003 03:11:02 19 C 11.73 g/m*3 19 C 0 km/h
2749 01-07-2003 03:17:02 18.9 C 11.66 g/m*3 18.9 C 0 km/h
2750 01-07-2003 03:23:02 18.7 C 11.69 g/m*3 18.7 C 0 km/h
Sensor: Nr:Datum:Temp:Abs-Feuchte:Windchill:Wind:
Aussen-T/F 2751 01-07-2003 03:29:02 18.6 C 11.62 g/m*3 18.6 C 0 km/h
2752 01-07-2003 03:35:02 18.5 C 11.55 g/m*3 18.5 C 0 km/h
2753 01-07-2003 03:41:02 18.5 C 11.55 g/m*3 18.5 C 0 km/h
2754 01-07-2003 03:47:02 18.4 C 11.32 g/m*3 18.4 C 0 km/h
2755 01-07-2003 03:53:02 18.3 C 10.94 g/m*3 18.3 C 0 km/h
2756 01-07-2003 03:59:02 18.2 C 10.88 g/m*3 18.2 C 0 km/h
2757 01-07-2003 04:05:02 18.1 C 10.66 g/m*3 18.1 C 0 km/h
2758 01-07-2003 04:11:02 18 C 10.6 g/m*3 18 C 0 km/h
2759 01-07-2003 04:17:02 17.9 C 10.69 g/m*3 17.9 C 0 km/h
2760 01-07-2003 04:23:02 17.8 C 10.62 g/m*3 17.8 C 0 km/h
2761 01-07-2003 04:29:02 17.6 C 10.5 g/m*3 17.6 C 0 km/h
2762 01-07-2003 04:35:02 17.5 C 10.59 g/m*3 17.5 C 0 km/h
2763 01-07-2003 04:41:02 17.6 C 10.65 g/m*3 17.6 C 0 km/h
2764 01-07-2003 04:47:02 17.5 C 10.88 g/m*3 17.5 C 0 km/h
2765 01-07-2003 04:53:02 17.4 C 10.82 g/m*3 17.4 C 0 km/h
2766 01-07-2003 04:59:02 17.5 C 11.03 g/m*3 17.5 C 0 km/h
2767 01-07-2003 05:05:02 17.5 C 10.88 g/m*3 17.5 C 0 km/h
2768 01-07-2003 05:11:02 17.6 C 10.35 g/m*3 17.6 C 0 km/h
2769 01-07-2003 05:17:02 17.5 C 10.29 g/m*3 17.5 C 0 km/h
2770 01-07-2003 05:23:02 17.3 C 10.16 g/m*3 17.3 C 0 km/h
2771 01-07-2003 05:29:02 17.2 C 10.25 g/m*3 17.2 C 0 km/h
2772 01-07-2003 05:35:02 17 C 10.27 g/m*3 17 C 0 km/h
2773 01-07-2003 05:41:02 16.8 C 10.44 g/m*3 16.8 C 0 km/h
2774 01-07-2003 05:47:02 16.7 C 10.52 g/m*3 16.7 C 0 km/h
2775 01-07-2003 05:53:02 16.6 C 10.45 g/m*3 16.6 C 0 km/h
Sensor: Nr:Datum:Temp:Abs-Feuchte:Windchill:Wind:
Aussen-T/F 2776 01-07-2003 05:59:02 16.6 C 10.45 g/m*3 16.6 C 0 km/h
2777 01-07-2003 06:05:02 16.6 C 10.59 g/m*3 16.6 C 0 km/h
2778 01-07-2003 06:11:02 16.4 C 10.47 g/m*3 16.4 C 0 km/h
2779 01-07-2003 06:17:02 16.4 C 10.47 g/m*3 16.4 C 0 km/h
2780 01-07-2003 06:23:02 16.5 C 10.53 g/m*3 16.5 C 0 km/h
2781 01-07-2003 06:29:02 16.5 C 10.53 g/m*3 16.5 C 0 km/h
2782 01-07-2003 06:35:02 16.7 C 10.66 g/m*3 16.7 C 0 km/h
2783 01-07-2003 06:41:02 16.8 C 10.58 g/m*3 16.8 C 0 km/h
2784 01-07-2003 06:47:02 16.8 C 10.58 g/m*3 16.8 C 0 km/h
2785 01-07-2003 06:53:02 16.8 C 10.44 g/m*3 16.8 C 0 km/h
2786 01-07-2003 06:59:02 17 C 10.27 g/m*3 17 C 0 km/h
2787 01-07-2003 07:05:02 17.2 C 10.25 g/m*3 17.2 C 0 km/h
2788 01-07-2003 07:11:02 17.3 C 10.31 g/m*3 17.3 C 0 km/h
2789 01-07-2003 07:17:02 17.4 C 10.37 g/m*3 17.4 C 0 km/h
2790 01-07-2003 07:23:02 17.4 C 10.37 g/m*3 17.4 C 0 km/h
2791 01-07-2003 07:29:02 17.5 C 10.44 g/m*3 17.5 C 0 km/h
2792 01-07-2003 07:35:02 17.5 C 10.44 g/m*3 17.5 C 0 km/h
2793 01-07-2003 07:41:02 17.2 C 10.4 g/m*3 17.2 C 0 km/h
2794 01-07-2003 07:47:02 17.3 C 10.61 g/m*3 17.3 C 0 km/h
2795 01-07-2003 07:53:02 17.6 C 10.8 g/m*3 17.6 C 0 km/h
2796 01-07-2003 07:59:02 17.6 C 10.8 g/m*3 17.6 C 0 km/h
2797 01-07-2003 08:05:02 17.7 C 10.86 g/m*3 17.7 C 0 km/h
2798 01-07-2003 08:11:02 17.7 C 10.71 g/m*3 17.7 C 0 km/h
2799 01-07-2003 08:17:02 17.7 C 10.71 g/m*3 17.7 C 0 km/h
2800 01-07-2003 08:23:02 17.6 C 10.5 g/m*3 17.6 C 0 km/h
Sensor: Nr:Datum:Temp:Abs-Feuchte:Windchill:Wind:
Aussen-T/F 2801 01-07-2003 08:29:02 17.7 C 10.56 g/m*3 17.7 C 0 km/h
2802 01-07-2003 08:35:00 17.6 C 10.35 g/m*3 17.6 C 0 km/h
2803 01-07-2003 08:41:00 17.7 C 10.41 g/m*3 17.7 C 0 km/h
2804 01-07-2003 08:47:00 17.7 C 10.26 g/m*3 17.7 C 0 km/h
2805 01-07-2003 08:53:00 17.7 C 10.26 g/m*3 17.7 C 0 km/h
2806 01-07-2003 08:59:00 17.6 C 10.05 g/m*3 17.6 C 0 km/h
2807 01-07-2003 09:05:00 17.6 C 10.2 g/m*3 17.6 C 0 km/h
2808 01-07-2003 09:11:00 17.5 C 10.14 g/m*3 17.5 C 0 km/h
2809 01-07-2003 09:17:00 17.5 C 9.99 g/m*3 17.5 C 0 km/h
2810 01-07-2003 09:23:00 17.9 C 10.23 g/m*3 17.9 C 0 km/h
2811 01-07-2003 09:29:00 18.3 C 10.16 g/m*3 18.3 C 0 km/h
2812 01-07-2003 09:35:00 18.1 C 9.73 g/m*3 18.1 C 0 km/h
2813 01-07-2003 09:41:00 18.2 C 9.79 g/m*3 18.2 C 0 km/h
2814 01-07-2003 09:47:00 18.5 C 9.81 g/m*3 18.5 C 0 km/h
2815 01-07-2003 09:53:00 18.6 C 9.71 g/m*3 18.6 C 0 km/h
2816 01-07-2003 09:59:00 18.7 C 9.77 g/m*3 18.7 C 0 km/h
2817 01-07-2003 10:05:01 18.8 C 9.82 g/m*3 18.8 C 0 km/h
2818 01-07-2003 10:11:01 19 C 9.78 g/m*3 19 C 0 km/h
2819 01-07-2003 10:17:01 19.3 C 9.95 g/m*3 19.3 C 0 km/h
2820 01-07-2003 10:23:01 19.1 C 9.67 g/m*3 19.1 C 0 km/h
2821 01-07-2003 10:29:01 19.4 C 9.84 g/m*3 19.4 C 0 km/h
2822 01-07-2003 10:35:01 19.4 C 9.51 g/m*3 19.4 C 0 km/h
2823 01-07-2003 10:41:01 19.6 C 9.62 g/m*3 19.6 C 0 km/h
2824 01-07-2003 10:47:01 19.6 C 9.62 g/m*3 19.6 C 0 km/h
2825 01-07-2003 10:53:01 19.4 C 9.34 g/m*3 19.4 C 0 km/h
Sensor: Nr:Datum:Temp:Abs-Feuchte:Windchill:Wind:
Aussen-T/F 2826 01-07-2003 10:59:01 19.3 C 9.45 g/m*3 19.3 C 0 km/h
2827 01-07-2003 11:05:01 19.5 C 9.57 g/m*3 19.5 C 0 km/h
2828 01-07-2003 11:11:01 19.7 C 9.51 g/m*3 19.7 C 0 km/h
2829 01-07-2003 11:17:01 19.9 C 9.62 g/m*3 19.9 C 0 km/h
2830 01-07-2003 11:23:01 20.5 C 9.43 g/m*3 20.5 C 0 km/h
2831 01-07-2003 11:29:01 20.9 C 9.83 g/m*3 20.9 C 0 km/h
2832 01-07-2003 11:35:01 21.1 C 9.21 g/m*3 21.1 C 0 km/h
2833 01-07-2003 11:41:01 21.8 C 9.59 g/m*3 21.8 C 0 km/h
2834 01-07-2003 11:47:01 22.5 C 9.39 g/m*3 22.5 C 0 km/h
2835 01-07-2003 11:53:01 21.9 C 9.26 g/m*3 21.9 C 0 km/h
2836 01-07-2003 11:59:01 21.9 C 9.26 g/m*3 21.9 C 0 km/h
2837 01-07-2003 12:05:02 22 C 9.12 g/m*3 22 C 0 km/h
2838 01-07-2003 12:11:02 21.2 C 8.71 g/m*3 21.2 C 0 km/h
2839 01-07-2003 12:17:02 21.1 C 8.84 g/m*3 21.1 C 0 km/h
2840 01-07-2003 12:23:02 21.9 C 9.07 g/m*3 21.9 C 0 km/h
2841 01-07-2003 12:29:02 22.2 C 8.44 g/m*3 22.2 C 0 km/h
2842 01-07-2003 12:35:01 22 C 8.54 g/m*3 22 C 0 km/h
2843 01-07-2003 12:41:01 22.5 C 8.39 g/m*3 22.5 C 0 km/h
2844 01-07-2003 12:47:01 22.1 C 7.81 g/m*3 22.1 C 0 km/h
2845 01-07-2003 12:53:01 22.1 C 8 g/m*3 22.1 C 0 km/h
2846 01-07-2003 12:59:01 22 C 8.15 g/m*3 22 C 0 km/h
2847 01-07-2003 13:05:01 21.8 C 8.25 g/m*3 21.8 C 0 km/h
2848 01-07-2003 13:11:01 21.7 C 8.39 g/m*3 21.7 C 0 km/h
2849 01-07-2003 13:17:01 23.2 C 8.52 g/m*3 23.2 C 0 km/h
2850 01-07-2003 13:23:01 22.6 C 8.44 g/m*3 22.6 C 0 km/h
Sensor: Nr:Datum:Temp:Abs-Feuchte:Windchill:Wind:
Aussen-T/F 2851 01-07-2003 13:29:01 23.7 C 8.13 g/m*3 23.7 C 0 km/h
2852 01-07-2003 13:35:01 23.9 C 8 g/m*3 23.9 C 0 km/h
2853 01-07-2003 13:41:01 23.5 C 7.82 g/m*3 23.5 C 0 km/h
2854 01-07-2003 13:47:01 23.6 C 7.87 g/m*3 23.6 C 0 km/h
2855 01-07-2003 13:53:01 23.8 C 8.17 g/m*3 23.8 C 0 km/h
2856 01-07-2003 13:59:01 23.6 C 8.08 g/m*3 23.6 C 0 km/h
2857 01-07-2003 14:05:01 23.2 C 8.11 g/m*3 23.2 C 0 km/h
2858 01-07-2003 14:11:01 23.2 C 8.32 g/m*3 23.2 C 0 km/h
2859 01-07-2003 14:17:01 23.8 C 8.39 g/m*3 23.8 C 0 km/h
2860 01-07-2003 14:23:01 24 C 7.83 g/m*3 24 C 0 km/h
2861 01-07-2003 14:29:01 23.4 C 7.99 g/m*3 23.4 C 0 km/h
2862 01-07-2003 14:35:02 23.2 C 8.11 g/m*3 23.2 C 0 km/h
2863 01-07-2003 14:41:02 22.7 C 8.08 g/m*3 22.7 C 0 km/h
2864 01-07-2003 14:47:02 22 C 8.35 g/m*3 22 C 0 km/h
2865 01-07-2003 14:53:02 21.9 C 8.88 g/m*3 21.9 C 0 km/h
2866 01-07-2003 14:59:02 21.6 C 8.72 g/m*3 21.6 C 0 km/h
2867 01-07-2003 15:05:01 22 C 8.93 g/m*3 22 C 0 km/h
2868 01-07-2003 15:11:01 22.6 C 9.04 g/m*3 22.6 C 0 km/h
2869 01-07-2003 15:17:01 22.8 C 8.94 g/m*3 22.8 C 0 km/h
2870 01-07-2003 15:23:01 23.5 C 9.09 g/m*3 23.5 C 0 km/h
2871 01-07-2003 15:29:01 23.8 C 9.03 g/m*3 23.8 C 0 km/h
2872 01-07-2003 15:35:02 24.4 C 8.9 g/m*3 24.4 C 0 km/h
2873 01-07-2003 15:41:02 24.2 C 8.8 g/m*3 24.2 C 0 km/h
2874 01-07-2003 15:47:02 23.9 C 9.09 g/m*3 23.9 C 0 km/h
2875 01-07-2003 15:53:02 23.4 C 8.83 g/m*3 23.4 C 0 km/h
Sensor: Nr:Datum:Temp:Abs-Feuchte:Windchill:Wind:
Aussen-T/F 2876 01-07-2003 15:59:02 23.1 C 9.1 g/m*3 23.1 C 0 km/h
2877 01-07-2003 16:05:02 23.6 C 9.36 g/m*3 23.6 C 0 km/h
2878 01-07-2003 16:11:02 22.7 C 9.5 g/m*3 22.7 C 0 km/h
2879 01-07-2003 16:17:02 22.5 C 9.59 g/m*3 22.5 C 0 km/h
2880 01-07-2003 16:23:02 22.8 C 10.16 g/m*3 22.8 C 0 km/h
2881 01-07-2003 16:29:02 22.6 C 10.04 g/m*3 22.6 C 0 km/h
2882 01-07-2003 16:35:01 22.4 C 10.72 g/m*3 22.4 C 0 km/h
2883 01-07-2003 16:41:01 22.6 C 10.85 g/m*3 22.6 C 0 km/h
2884 01-07-2003 16:47:01 22.9 C 10.01 g/m*3 22.9 C 0 km/h
2885 01-07-2003 16:53:01 23.8 C 9.9 g/m*3 23.8 C 0 km/h
2886 01-07-2003 16:59:01 25 C 9.9 g/m*3 25 C 0 km/h
2887 01-07-2003 17:05:02 25.1 C 9.49 g/m*3 25.1 C 0 km/h
2888 01-07-2003 17:11:02 24.5 C 9.62 g/m*3 24.5 C 0 km/h
2889 01-07-2003 17:17:02 23.9 C 9.74 g/m*3 23.9 C 0 km/h
2890 01-07-2003 17:23:02 23.6 C 9.57 g/m*3 23.6 C 0 km/h
2891 01-07-2003 17:29:02 23.6 C 10.42 g/m*3 23.6 C 0 km/h
2892 01-07-2003 17:35:01 23.1 C 10.96 g/m*3 23.1 C 0 km/h
2893 01-07-2003 17:41:01 22.4 C 10.33 g/m*3 22.4 C 0 km/h
2894 01-07-2003 17:47:01 22.4 C 10.13 g/m*3 22.4 C 0 km/h
2895 01-07-2003 17:53:01 22.3 C 10.27 g/m*3 22.3 C 0 km/h
2896 01-07-2003 17:59:01 22 C 10.29 g/m*3 22 C 0 km/h
2897 01-07-2003 18:05:01 21.2 C 11.49 g/m*3 21.2 C 0 km/h
2898 01-07-2003 18:11:01 20 C 11.23 g/m*3 20 C 0 km/h
2899 01-07-2003 18:17:01 19 C 12.55 g/m*3 19 C 0 km/h
2900 01-07-2003 18:23:01 18.7 C 12.81 g/m*3 18.7 C 0 km/h
Sensor: Nr:Datum:Temp:Abs-Feuchte:Windchill:Wind:
Aussen-T/F 2901 01-07-2003 18:29:01 18.9 C 13.61 g/m*3 18.9 C 0 km/h
2902 01-07-2003 18:35:02 18.5 C 12.66 g/m*3 18.5 C 0 km/h
2903 01-07-2003 18:41:02 18.1 C 12.52 g/m*3 18.1 C 0 km/h
2904 01-07-2003 18:47:02 16.8 C 11.44 g/m*3 16.8 C 0 km/h
2905 01-07-2003 18:53:02 16 C 10.9 g/m*3 16 C 0 km/h
2906 01-07-2003 18:59:02 15.7 C 11.11 g/m*3 15.7 C 0 km/h
2907 01-07-2003 19:05:01 15.9 C 11.51 g/m*3 15.9 C 0 km/h
2908 01-07-2003 19:11:01 16.2 C 12 g/m*3 16.2 C 0 km/h
2909 01-07-2003 19:17:01 17.1 C 12.81 g/m*3 17.1 C 0 km/h
2910 01-07-2003 19:23:01 17.3 C 12.67 g/m*3 17.3 C 0 km/h
2911 01-07-2003 19:29:01 18.2 C 13.21 g/m*3 18.2 C 0 km/h
2912 01-07-2003 19:35:00 18.7 C 12.33 g/m*3 18.7 C 0 km/h
2913 01-07-2003 19:41:00 18.7 C 11.53 g/m*3 18.7 C 0 km/h
2914 01-07-2003 19:47:00 19.5 C 11.58 g/m*3 19.5 C 0 km/h
2915 01-07-2003 19:53:00 19.9 C 11.34 g/m*3 19.9 C 0 km/h
2916 01-07-2003 19:59:00 20 C 11.06 g/m*3 20 C 0 km/h
2917 01-07-2003 20:05:01 20.4 C 11.14 g/m*3 20.4 C 0 km/h
2918 01-07-2003 20:11:01 19.9 C 10.65 g/m*3 19.9 C 0 km/h
2919 01-07-2003 20:17:01 19.7 C 10.7 g/m*3 19.7 C 0 km/h
2920 01-07-2003 20:23:01 19.1 C 10.33 g/m*3 19.1 C 0 km/h
2921 01-07-2003 20:29:01 18.8 C 10.63 g/m*3 18.8 C 0 km/h
2922 01-07-2003 20:35:01 19 C 10.76 g/m*3 19 C 0 km/h
2923 01-07-2003 20:41:01 19.5 C 11.08 g/m*3 19.5 C 0 km/h
2924 01-07-2003 20:47:01 19.5 C 10.74 g/m*3 19.5 C 0 km/h
2925 01-07-2003 20:53:01 19.2 C 10.72 g/m*3 19.2 C 0 km/h
Sensor: Nr:Datum:Temp:Abs-Feuchte:Windchill:Wind:
Aussen-T/F 2926 01-07-2003 20:59:01 18.5 C 10.6 g/m*3 18.5 C 0 km/h
2927 01-07-2003 21:05:01 17.9 C 11.15 g/m*3 17.9 C 0 km/h
2928 01-07-2003 21:11:01 17.2 C 11.28 g/m*3 17.2 C 0 km/h
2929 01-07-2003 21:17:01 16.8 C 11.29 g/m*3 16.8 C 0 km/h
2930 01-07-2003 21:23:01 16.6 C 11.02 g/m*3 16.6 C 0 km/h
2931 01-07-2003 21:29:01 16.6 C 11.16 g/m*3 16.6 C 0 km/h
2932 01-07-2003 21:35:01 16.6 C 11.44 g/m*3 16.6 C 0 km/h
2933 01-07-2003 21:41:01 16.7 C 11.37 g/m*3 16.7 C 0 km/h
2934 01-07-2003 21:47:01 16.6 C 11.02 g/m*3 16.6 C 0 km/h
2935 01-07-2003 21:53:01 16.5 C 10.95 g/m*3 16.5 C 0 km/h
2936 01-07-2003 21:59:01 16.4 C 10.47 g/m*3 16.4 C 0 km/h
2937 01-07-2003 22:05:02 16.3 C 10.41 g/m*3 16.3 C 0 km/h
2938 01-07-2003 22:17:02 16.1 C 10.14 g/m*3 16.1 C 0 km/h
2939 01-07-2003 22:23:02 16 C 10.08 g/m*3 16 C 0 km/h
2940 01-07-2003 22:29:02 16.2 C 10.2 g/m*3 16.2 C 0 km/h
2941 01-07-2003 22:36:02 16.1 C 10.01 g/m*3 16.1 C 0 km/h
2942 01-07-2003 22:42:02 16 C 10.08 g/m*3 16 C 0 km/h
2943 01-07-2003 22:48:02 15.9 C 10.16 g/m*3 15.9 C 0 km/h
2944 01-07-2003 22:54:02 15.9 C 10.02 g/m*3 15.9 C 0 km/h
2945 01-07-2003 23:00:02 15.8 C 9.96 g/m*3 15.8 C 0 km/h
2946 01-07-2003 23:06:02 15.7 C 10.03 g/m*3 15.7 C 0 km/h
2947 01-07-2003 23:12:02 15.6 C 10.11 g/m*3 15.6 C 0 km/h
2948 01-07-2003 23:18:02 15.5 C 10.05 g/m*3 15.5 C 0 km/h
2949 01-07-2003 23:24:02 15.4 C 10.12 g/m*3 15.4 C 0 km/h
2950 01-07-2003 23:30:02 15.4 C 10.12 g/m*3 15.4 C 0 km/h
Sensor: Nr:Datum:Temp:Abs-Feuchte:Windchill:Wind:
Aussen-T/F 2951 01-07-2003 23:36:02 15.3 C 10.06 g/m*3 15.3 C 0 km/h
2952 01-07-2003 23:42:02 15.4 C 9.99 g/m*3 15.4 C 0 km/h
2953 01-07-2003 23:48:02 15.4 C 9.99 g/m*3 15.4 C 0 km/h
2954 01-07-2003 23:54:02 15.4 C 9.99 g/m*3 15.4 C 0 km/h
2955 02-07-2003 00:00:08 15.2 C 9.99 g/m*3 15.2 C 0 km/h
2956 02-07-2003 00:06:08 15.1 C 10.06 g/m*3 15.1 C 0 km/h
2957 02-07-2003 00:12:08 15 C 10 g/m*3 15 C 0 km/h
2958 02-07-2003 00:18:08 15.1 C 10.06 g/m*3 15.1 C 0 km/h
2959 02-07-2003 00:24:08 15.2 C 10.12 g/m*3 15.2 C 0 km/h
2960 02-07-2003 00:30:08 15.2 C 10.12 g/m*3 15.2 C 0 km/h
2961 02-07-2003 00:36:08 15.1 C 10.06 g/m*3 15.1 C 0 km/h
2962 02-07-2003 00:42:08 15.2 C 9.99 g/m*3 15.2 C 0 km/h
2963 02-07-2003 00:48:08 15.4 C 10.12 g/m*3 15.4 C 0 km/h
2964 02-07-2003 00:54:08 15.4 C 9.99 g/m*3 15.4 C 0 km/h
2965 02-07-2003 01:00:08 15.5 C 10.05 g/m*3 15.5 C 0 km/h
2966 02-07-2003 01:06:08 15.5 C 10.05 g/m*3 15.5 C 0 km/h
2967 02-07-2003 01:12:08 15.5 C 10.05 g/m*3 15.5 C 0 km/h
2968 02-07-2003 01:18:08 15.6 C 10.11 g/m*3 15.6 C 0 km/h
2969 02-07-2003 01:24:08 15.6 C 10.11 g/m*3 15.6 C 0 km/h
2970 02-07-2003 01:30:08 15.6 C 9.97 g/m*3 15.6 C 0 km/h
2971 02-07-2003 01:36:08 15.6 C 9.97 g/m*3 15.6 C 0 km/h
2972 02-07-2003 01:42:08 15.5 C 9.91 g/m*3 15.5 C 0 km/h
2973 02-07-2003 01:48:08 15.4 C 9.85 g/m*3 15.4 C 0 km/h
2974 02-07-2003 01:54:08 15.4 C 9.85 g/m*3 15.4 C 0 km/h
2975 02-07-2003 02:00:08 15.4 C 9.85 g/m*3 15.4 C 0 km/h
Sensor: Nr:Datum:Temp:Abs-Feuchte:Windchill:Wind:
Aussen-T/F 2976 02-07-2003 02:06:08 15.5 C 9.78 g/m*3 15.5 C 0 km/h
2977 02-07-2003 02:12:08 15.5 C 9.78 g/m*3 15.5 C 0 km/h
2978 02-07-2003 02:18:08 15.4 C 9.72 g/m*3 15.4 C 0 km/h
2979 02-07-2003 02:24:08 15.4 C 9.72 g/m*3 15.4 C 0 km/h
2980 02-07-2003 02:30:08 15.2 C 9.73 g/m*3 15.2 C 0 km/h
2981 02-07-2003 02:36:08 15.1 C 9.68 g/m*3 15.1 C 0 km/h
2982 02-07-2003 02:42:08 15.1 C 9.68 g/m*3 15.1 C 0 km/h
2983 02-07-2003 02:48:08 15.2 C 9.73 g/m*3 15.2 C 0 km/h
2984 02-07-2003 02:54:08 15.2 C 9.73 g/m*3 15.2 C 0 km/h
2985 02-07-2003 03:00:08 15.3 C 9.79 g/m*3 15.3 C 0 km/h
2986 02-07-2003 03:06:08 15.3 C 9.92 g/m*3 15.3 C 0 km/h
2987 02-07-2003 03:12:08 15.1 C 9.8 g/m*3 15.1 C 0 km/h
2988 02-07-2003 03:18:08 15.1 C 9.8 g/m*3 15.1 C 0 km/h
2989 02-07-2003 03:24:08 15 C 9.87 g/m*3 15 C 0 km/h
2990 02-07-2003 03:30:08 15 C 9.75 g/m*3 15 C 0 km/h
2991 02-07-2003 03:36:08 15.1 C 9.8 g/m*3 15.1 C 0 km/h
2992 02-07-2003 03:42:08 15.1 C 9.8 g/m*3 15.1 C 0 km/h
2993 02-07-2003 03:48:08 15.1 C 9.68 g/m*3 15.1 C 0 km/h
2994 02-07-2003 03:54:08 15.2 C 9.73 g/m*3 15.2 C 0 km/h
2995 02-07-2003 04:00:08 15.1 C 9.68 g/m*3 15.1 C 0 km/h
2996 02-07-2003 04:06:08 15.1 C 9.68 g/m*3 15.1 C 0 km/h
2997 02-07-2003 04:12:08 15.1 C 9.68 g/m*3 15.1 C 0 km/h
2998 02-07-2003 04:18:08 15.1 C 9.68 g/m*3 15.1 C 0 km/h
2999 02-07-2003 04:24:08 15.1 C 9.68 g/m*3 15.1 C 0 km/h
3000 02-07-2003 04:30:08 15 C 9.62 g/m*3 15 C 0 km/h
Sensor: Nr:Datum:Temp:Abs-Feuchte:Windchill:Wind:
Aussen-T/F 3001 02-07-2003 04:36:08 15 C 9.62 g/m*3 15 C 0 km/h
3002 02-07-2003 04:42:08 15 C 9.62 g/m*3 15 C 0 km/h
3003 02-07-2003 04:48:08 15.1 C 9.68 g/m*3 15.1 C 0 km/h
3004 02-07-2003 04:54:08 15.1 C 9.68 g/m*3 15.1 C 0 km/h
3005 02-07-2003 05:00:08 15 C 9.62 g/m*3 15 C 0 km/h
3006 02-07-2003 05:06:08 15 C 9.62 g/m*3 15 C 0 km/h
3007 02-07-2003 05:12:08 15 C 9.62 g/m*3 15 C 0 km/h
3008 02-07-2003 05:18:08 15 C 9.62 g/m*3 15 C 0 km/h
3009 02-07-2003 05:24:08 15 C 9.49 g/m*3 15 C 0 km/h
3010 02-07-2003 05:30:08 15.1 C 9.55 g/m*3 15.1 C 0 km/h
3011 02-07-2003 05:36:08 15 C 9.49 g/m*3 15 C 0 km/h
3012 02-07-2003 05:42:08 15 C 9.49 g/m*3 15 C 0 km/h
3013 02-07-2003 05:48:08 15.1 C 9.55 g/m*3 15.1 C 0 km/h
3014 02-07-2003 05:54:08 15.1 C 9.55 g/m*3 15.1 C 0 km/h
3015 02-07-2003 06:00:08 15.2 C 9.61 g/m*3 15.2 C 0 km/h
3016 02-07-2003 06:06:08 15.2 C 9.61 g/m*3 15.2 C 0 km/h
3017 02-07-2003 06:12:08 15.3 C 9.66 g/m*3 15.3 C 0 km/h
3018 02-07-2003 06:18:08 15.4 C 9.59 g/m*3 15.4 C 0 km/h
3019 02-07-2003 06:24:08 15.5 C 9.65 g/m*3 15.5 C 0 km/h
3020 02-07-2003 06:30:08 15.5 C 9.65 g/m*3 15.5 C 0 km/h
3021 02-07-2003 06:36:08 15.5 C 9.78 g/m*3 15.5 C 0 km/h
3022 02-07-2003 06:42:08 15.5 C 9.78 g/m*3 15.5 C 0 km/h
3023 02-07-2003 06:48:08 15.5 C 9.91 g/m*3 15.5 C 0 km/h
3024 02-07-2003 06:54:08 15.6 C 9.97 g/m*3 15.6 C 0 km/h
3025 02-07-2003 07:00:08 15.6 C 9.84 g/m*3 15.6 C 0 km/h
Sensor: Nr:Datum:Temp:Abs-Feuchte:Windchill:Wind:
Aussen-T/F 3026 02-07-2003 07:06:08 15.7 C 9.77 g/m*3 15.7 C 0 km/h
3027 02-07-2003 07:12:08 15.7 C 9.77 g/m*3 15.7 C 0 km/h
3028 02-07-2003 07:18:08 15.7 C 9.77 g/m*3 15.7 C 0 km/h
3029 02-07-2003 07:24:08 15.8 C 9.69 g/m*3 15.8 C 0 km/h
3030 02-07-2003 07:30:08 15.8 C 9.69 g/m*3 15.8 C 0 km/h
3031 02-07-2003 07:36:08 15.9 C 9.75 g/m*3 15.9 C 0 km/h
3032 02-07-2003 07:42:08 15.8 C 9.69 g/m*3 15.8 C 0 km/h
3033 02-07-2003 07:48:08 15.8 C 9.69 g/m*3 15.8 C 0 km/h
3034 02-07-2003 07:54:08 15.8 C 9.69 g/m*3 15.8 C 0 km/h
3035 02-07-2003 08:00:08 16 C 9.67 g/m*3 16 C 0 km/h
3036 02-07-2003 08:06:08 16 C 9.67 g/m*3 16 C 0 km/h
3037 02-07-2003 08:12:08 16 C 9.81 g/m*3 16 C 0 km/h
3038 02-07-2003 08:18:08 16.1 C 9.73 g/m*3 16.1 C 0 km/h
3039 02-07-2003 08:24:08 16.2 C 9.65 g/m*3 16.2 C 0 km/h
3040 02-07-2003 08:30:08 16.4 C 9.63 g/m*3 16.4 C 0 km/h
3041 02-07-2003 08:36:08 16.6 C 9.75 g/m*3 16.6 C 0 km/h
3042 02-07-2003 08:42:08 16.6 C 9.75 g/m*3 16.6 C 0 km/h
3043 02-07-2003 08:48:08 16.8 C 9.72 g/m*3 16.8 C 0 km/h
3044 02-07-2003 08:54:08 16.8 C 9.72 g/m*3 16.8 C 0 km/h
3045 02-07-2003 09:00:08 16.8 C 9.72 g/m*3 16.8 C 0 km/h
3046 02-07-2003 09:06:08 16.9 C 9.64 g/m*3 16.9 C 0 km/h
3047 02-07-2003 09:12:08 16.9 C 9.64 g/m*3 16.9 C 0 km/h
3048 02-07-2003 09:18:08 17 C 9.55 g/m*3 17 C 0 km/h
3049 02-07-2003 09:24:08 17 C 9.41 g/m*3 17 C 0 km/h
3050 02-07-2003 09:30:08 17.3 C 9.58 g/m*3 17.3 C 0 km/h
Sensor: Nr:Datum:Temp:Abs-Feuchte:Windchill:Wind:
Aussen-T/F 3051 02-07-2003 09:36:01 17.5 C 9.54 g/m*3 17.5 C 0 km/h
3052 02-07-2003 09:42:01 17.9 C 9.47 g/m*3 17.9 C 0 km/h
3053 02-07-2003 09:48:01 17.8 C 9.41 g/m*3 17.8 C 0 km/h
3054 02-07-2003 09:54:01 17.9 C 9.47 g/m*3 17.9 C 0 km/h
3055 02-07-2003 10:00:01 17.7 C 9.51 g/m*3 17.7 C 0 km/h
3056 02-07-2003 10:06:00 17.7 C 9.51 g/m*3 17.7 C 0 km/h
3057 02-07-2003 10:12:00 17.5 C 9.39 g/m*3 17.5 C 0 km/h
3058 02-07-2003 10:18:00 17.9 C 9.47 g/m*3 17.9 C 0 km/h
3059 02-07-2003 10:24:00 18.3 C 9.38 g/m*3 18.3 C 0 km/h
3060 02-07-2003 10:30:00 18.8 C 9.5 g/m*3 18.8 C 0 km/h
3061 02-07-2003 10:36:01 19.1 C 9.34 g/m*3 19.1 C 0 km/h
3062 02-07-2003 10:42:01 19.5 C 9.57 g/m*3 19.5 C 0 km/h
3063 02-07-2003 10:48:01 19.5 C 9.23 g/m*3 19.5 C 0 km/h
3064 02-07-2003 10:54:01 19.9 C 9.62 g/m*3 19.9 C 0 km/h
3065 02-07-2003 11:00:01 19.7 C 9.34 g/m*3 19.7 C 0 km/h
3066 02-07-2003 11:06:01 20.1 C 9.56 g/m*3 20.1 C 0 km/h
3067 02-07-2003 11:12:01 20.5 C 9.43 g/m*3 20.5 C 0 km/h
3068 02-07-2003 11:18:01 19.9 C 9.28 g/m*3 19.9 C 0 km/h
3069 02-07-2003 11:24:01 20.6 C 9.49 g/m*3 20.6 C 0 km/h
3070 02-07-2003 11:30:01 20.6 C 9.66 g/m*3 20.6 C 0 km/h
3071 02-07-2003 11:36:01 20.7 C 9.36 g/m*3 20.7 C 0 km/h
3072 02-07-2003 11:42:01 21.1 C 9.03 g/m*3 21.1 C 0 km/h
3073 02-07-2003 11:48:01 21 C 8.79 g/m*3 21 C 0 km/h
3074 02-07-2003 11:54:01 20.6 C 8.95 g/m*3 20.6 C 0 km/h
3075 02-07-2003 12:00:01 20.4 C 9.2 g/m*3 20.4 C 0 km/h
Sensor: Nr:Datum:Temp:Abs-Feuchte:Windchill:Wind:
Aussen-T/F 3076 02-07-2003 12:06:02 20.3 C 8.97 g/m*3 20.3 C 0 km/h
3077 02-07-2003 12:12:02 21.2 C 8.71 g/m*3 21.2 C 0 km/h
3078 02-07-2003 12:18:02 21.2 C 8.71 g/m*3 21.2 C 0 km/h
3079 02-07-2003 12:24:02 22 C 8.93 g/m*3 22 C 0 km/h
3080 02-07-2003 12:30:02 22.5 C 8.59 g/m*3 22.5 C 0 km/h
3081 02-07-2003 12:36:01 21.9 C 8.3 g/m*3 21.9 C 0 km/h
3082 02-07-2003 12:42:01 22.5 C 8.79 g/m*3 22.5 C 0 km/h
3083 02-07-2003 12:48:01 23.3 C 8.57 g/m*3 23.3 C 0 km/h
3084 02-07-2003 12:54:01 23.1 C 8.27 g/m*3 23.1 C 0 km/h
3085 02-07-2003 13:00:01 22.7 C 8.69 g/m*3 22.7 C 0 km/h
3086 02-07-2003 13:06:01 23.3 C 8.36 g/m*3 23.3 C 0 km/h
3087 02-07-2003 13:12:01 23.3 C 8.15 g/m*3 23.3 C 0 km/h
3088 02-07-2003 13:18:01 23.6 C 8.51 g/m*3 23.6 C 0 km/h
3089 02-07-2003 13:24:01 24.3 C 8.19 g/m*3 24.3 C 0 km/h
3090 02-07-2003 13:30:01 24.2 C 8.36 g/m*3 24.2 C 0 km/h
3091 02-07-2003 13:36:01 24.4 C 8.01 g/m*3 24.4 C 0 km/h
3092 02-07-2003 13:42:01 23 C 7.4 g/m*3 23 C 0 km/h
3093 02-07-2003 13:48:01 23.2 C 7.48 g/m*3 23.2 C 0 km/h
3094 02-07-2003 13:54:01 23.4 C 7.36 g/m*3 23.4 C 0 km/h
3095 02-07-2003 14:00:01 23.2 C 7.69 g/m*3 23.2 C 0 km/h
3096 02-07-2003 14:06:01 23.2 C 7.48 g/m*3 23.2 C 0 km/h
3097 02-07-2003 14:12:01 22.9 C 7.56 g/m*3 22.9 C 0 km/h
3098 02-07-2003 14:18:01 22.6 C 7.63 g/m*3 22.6 C 0 km/h
3099 02-07-2003 14:24:01 22.5 C 7.99 g/m*3 22.5 C 0 km/h
3100 02-07-2003 14:30:01 22.7 C 8.08 g/m*3 22.7 C 0 km/h
Sensor: Nr:Datum:Temp:Abs-Feuchte:Windchill:Wind:
Aussen-T/F 3101 02-07-2003 14:36:01 22.8 C 8.13 g/m*3 22.8 C 0 km/h
3102 02-07-2003 14:42:01 22.2 C 8.05 g/m*3 22.2 C 0 km/h
3103 02-07-2003 14:48:01 22.9 C 8.38 g/m*3 22.9 C 0 km/h
3104 02-07-2003 14:54:01 23.6 C 8.08 g/m*3 23.6 C 0 km/h
3105 02-07-2003 15:00:01 24 C 7.83 g/m*3 24 C 0 km/h
3106 02-07-2003 15:06:07 23.2 C 7.28 g/m*3 23.2 C 0 km/h
3107 02-07-2003 15:12:07 23.4 C 7.57 g/m*3 23.4 C 0 km/h
3108 02-07-2003 15:18:07 23.4 C 7.57 g/m*3 23.4 C 0 km/h
3109 02-07-2003 15:24:07 24 C 7.83 g/m*3 24 C 0 km/h
3110 02-07-2003 15:30:07 23.6 C 7.44 g/m*3 23.6 C 0 km/h
3111 02-07-2003 15:36:01 22.7 C 7.48 g/m*3 22.7 C 0 km/h
3112 02-07-2003 15:42:01 22.3 C 7.5 g/m*3 22.3 C 0 km/h
3113 02-07-2003 15:48:01 22.6 C 7.83 g/m*3 22.6 C 0 km/h
3114 02-07-2003 15:54:01 23 C 7.6 g/m*3 23 C 0 km/h
3115 02-07-2003 16:00:01 23.4 C 7.99 g/m*3 23.4 C 0 km/h
3116 02-07-2003 16:06:01 24.2 C 7.92 g/m*3 24.2 C 0 km/h
3117 02-07-2003 16:12:01 24.8 C 7.51 g/m*3 24.8 C 0 km/h
3118 02-07-2003 16:18:01 24.3 C 7.3 g/m*3 24.3 C 0 km/h
3119 02-07-2003 16:24:01 24.5 C 7.61 g/m*3 24.5 C 0 km/h
3120 02-07-2003 16:30:01 25.2 C 7.68 g/m*3 25.2 C 0 km/h
3121 02-07-2003 16:36:00 25.7 C 7.9 g/m*3 25.7 C 0 km/h
3122 02-07-2003 16:42:00 24.8 C 7.74 g/m*3 24.8 C 0 km/h
3123 02-07-2003 16:48:00 24.8 C 7.97 g/m*3 24.8 C 0 km/h
3124 02-07-2003 16:54:00 24.6 C 7.65 g/m*3 24.6 C 0 km/h
3125 02-07-2003 17:00:00 23.8 C 7.74 g/m*3 23.8 C 0 km/h
Sensor: Nr:Datum:Temp:Abs-Feuchte:Windchill:Wind:
Aussen-T/F 3126 02-07-2003 17:06:02 23.3 C 7.95 g/m*3 23.3 C 0 km/h
3127 02-07-2003 17:12:02 21.9 C 7.72 g/m*3 21.9 C 0 km/h
3128 02-07-2003 17:18:02 20.5 C 7.65 g/m*3 20.5 C 0 km/h
3129 02-07-2003 17:24:02 20.3 C 8.09 g/m*3 20.3 C 0 km/h
3130 02-07-2003 17:30:02 19.6 C 8.1 g/m*3 19.6 C 0 km/h
3131 02-07-2003 17:36:02 19.5 C 8.56 g/m*3 19.5 C 0 km/h
3132 02-07-2003 17:42:02 18.7 C 8.97 g/m*3 18.7 C 0 km/h
3133 02-07-2003 17:48:02 19.2 C 9.07 g/m*3 19.2 C 0 km/h
3134 02-07-2003 17:54:02 19.5 C 8.89 g/m*3 19.5 C 0 km/h
3135 02-07-2003 18:00:02 19.1 C 9.34 g/m*3 19.1 C 0 km/h
3136 02-07-2003 18:06:02 17.2 C 10.84 g/m*3 17.2 C 0 km/h
3137 02-07-2003 18:12:02 16.4 C 10.89 g/m*3 16.4 C 0 km/h
3138 02-07-2003 18:18:02 16.3 C 11.24 g/m*3 16.3 C 0 km/h
3139 02-07-2003 18:24:02 16.4 C 11.17 g/m*3 16.4 C 0 km/h
3140 02-07-2003 18:30:02 16.8 C 11.15 g/m*3 16.8 C 0 km/h
3141 02-07-2003 18:36:01 16.9 C 11.08 g/m*3 16.9 C 0 km/h
3142 02-07-2003 18:42:01 17 C 10.71 g/m*3 17 C 0 km/h
3143 02-07-2003 18:48:01 17 C 10.27 g/m*3 17 C 0 km/h
3144 02-07-2003 18:54:01 16.8 C 10.15 g/m*3 16.8 C 0 km/h
3145 02-07-2003 19:00:01 16.8 C 10.29 g/m*3 16.8 C 0 km/h
3146 02-07-2003 19:06:00 16.8 C 10.29 g/m*3 16.8 C 0 km/h
3147 02-07-2003 19:12:00 17 C 10.27 g/m*3 17 C 0 km/h
3148 02-07-2003 19:18:00 17 C 10.27 g/m*3 17 C 0 km/h
3149 02-07-2003 19:24:00 17.2 C 9.96 g/m*3 17.2 C 0 km/h
3150 02-07-2003 19:30:00 17.3 C 10.16 g/m*3 17.3 C 0 km/h
Sensor: Nr:Datum:Temp:Abs-Feuchte:Windchill:Wind:
Aussen-T/F 3151 02-07-2003 19:36:01 17.4 C 9.78 g/m*3 17.4 C 0 km/h
3152 02-07-2003 19:42:01 18.3 C 9.85 g/m*3 18.3 C 0 km/h
3153 02-07-2003 19:48:01 18.6 C 9.87 g/m*3 18.6 C 0 km/h
3154 02-07-2003 19:54:01 19.2 C 9.73 g/m*3 19.2 C 0 km/h
3155 02-07-2003 20:00:01 19 C 9.61 g/m*3 19 C 0 km/h
3156 02-07-2003 20:06:02 18.9 C 9.88 g/m*3 18.9 C 0 km/h
3157 02-07-2003 20:12:02 18.5 C 9.97 g/m*3 18.5 C 0 km/h
3158 02-07-2003 20:18:02 18.2 C 9.95 g/m*3 18.2 C 0 km/h
3159 02-07-2003 20:24:02 18 C 9.83 g/m*3 18 C 0 km/h
3160 02-07-2003 20:30:02 17.9 C 10.08 g/m*3 17.9 C 0 km/h
3161 02-07-2003 20:36:01 17.9 C 10.23 g/m*3 17.9 C 0 km/h
3162 02-07-2003 20:42:01 17.6 C 10.35 g/m*3 17.6 C 0 km/h
3163 02-07-2003 20:48:01 17.2 C 10.1 g/m*3 17.2 C 0 km/h
3164 02-07-2003 20:54:01 17.2 C 9.96 g/m*3 17.2 C 0 km/h
3165 02-07-2003 21:00:01 17.1 C 9.9 g/m*3 17.1 C 0 km/h
3166 02-07-2003 21:06:01 17.1 C 9.9 g/m*3 17.1 C 0 km/h
3167 02-07-2003 21:12:01 17.2 C 9.81 g/m*3 17.2 C 0 km/h
3168 02-07-2003 21:18:01 17.2 C 9.81 g/m*3 17.2 C 0 km/h
3169 02-07-2003 21:24:01 16.6 C 10.31 g/m*3 16.6 C 0 km/h
3170 02-07-2003 21:30:01 16.1 C 10.69 g/m*3 16.1 C 0 km/h
3171 02-07-2003 21:36:01 15.8 C 10.63 g/m*3 15.8 C 0 km/h
3172 02-07-2003 21:42:01 15.8 C 10.77 g/m*3 15.8 C 0 km/h
3173 02-07-2003 21:48:01 15.9 C 10.7 g/m*3 15.9 C 0 km/h
3174 02-07-2003 21:54:01 16 C 10.63 g/m*3 16 C 0 km/h
3175 02-07-2003 22:00:01 15.9 C 10.43 g/m*3 15.9 C 0 km/h
Sensor: Nr:Datum:Temp:Abs-Feuchte:Windchill:Wind:
Aussen-T/F 3176 02-07-2003 22:06:01 15.8 C 10.5 g/m*3 15.8 C 0 km/h
3177 02-07-2003 22:12:01 15.7 C 10.57 g/m*3 15.7 C 0 km/h
3178 02-07-2003 22:18:01 15.6 C 10.64 g/m*3 15.6 C 0 km/h
3179 02-07-2003 22:24:01 15.5 C 10.71 g/m*3 15.5 C 0 km/h
3180 02-07-2003 22:30:01 15.4 C 10.64 g/m*3 15.4 C 0 km/h
3181 02-07-2003 22:36:00 15.4 C 10.64 g/m*3 15.4 C 0 km/h
3182 02-07-2003 22:42:00 15.2 C 10.64 g/m*3 15.2 C 0 km/h
3183 02-07-2003 22:48:00 15.2 C 10.77 g/m*3 15.2 C 0 km/h
3184 02-07-2003 22:54:00 15.1 C 10.71 g/m*3 15.1 C 0 km/h
3185 02-07-2003 23:00:00 15.1 C 10.71 g/m*3 15.1 C 0 km/h
3186 02-07-2003 23:06:01 15.1 C 10.71 g/m*3 15.1 C 0 km/h
3187 02-07-2003 23:12:01 15.2 C 10.77 g/m*3 15.2 C 0 km/h
3188 02-07-2003 23:18:01 15.3 C 10.71 g/m*3 15.3 C 0 km/h
3189 02-07-2003 23:24:01 15.4 C 10.64 g/m*3 15.4 C 0 km/h
3190 02-07-2003 23:30:01 15.4 C 10.64 g/m*3 15.4 C 0 km/h
3191 02-07-2003 23:36:01 15.4 C 10.64 g/m*3 15.4 C 0 km/h
3192 02-07-2003 23:42:01 15.3 C 10.58 g/m*3 15.3 C 0 km/h
3193 02-07-2003 23:54:01 15.2 C 10.64 g/m*3 15.2 C 0 km/h
3194 03-07-2003 00:00:01 15.2 C 10.64 g/m*3 15.2 C 0 km/h
3195 03-07-2003 00:06:02 15.1 C 10.58 g/m*3 15.1 C 0 km/h
3196 03-07-2003 00:12:02 15.1 C 10.58 g/m*3 15.1 C 0 km/h
3197 03-07-2003 00:18:02 15.2 C 10.64 g/m*3 15.2 C 0 km/h
3198 03-07-2003 00:24:02 15.2 C 10.64 g/m*3 15.2 C 0 km/h
3199 03-07-2003 00:30:02 15.2 C 10.64 g/m*3 15.2 C 0 km/h
3200 03-07-2003 00:37:02 15.3 C 10.71 g/m*3 15.3 C 0 km/h
Sensor: Nr:Datum:Temp:Abs-Feuchte:Windchill:Wind:
Aussen-T/F 3201 03-07-2003 00:43:02 15.3 C 10.71 g/m*3 15.3 C 0 km/h
3202 03-07-2003 00:49:02 15.3 C 10.71 g/m*3 15.3 C 0 km/h
3203 03-07-2003 00:55:02 15.2 C 10.64 g/m*3 15.2 C 0 km/h
3204 03-07-2003 01:01:02 15.2 C 10.64 g/m*3 15.2 C 0 km/h
3205 03-07-2003 01:07:02 15.2 C 10.64 g/m*3 15.2 C 0 km/h
3206 03-07-2003 01:13:02 15.2 C 10.64 g/m*3 15.2 C 0 km/h
3207 03-07-2003 01:19:02 15.1 C 10.58 g/m*3 15.1 C 0 km/h
3208 03-07-2003 01:25:02 15 C 10.51 g/m*3 15 C 0 km/h
3209 03-07-2003 01:31:02 15.1 C 10.58 g/m*3 15.1 C 0 km/h
3210 03-07-2003 01:37:02 15 C 10.51 g/m*3 15 C 0 km/h
3211 03-07-2003 01:43:02 15.1 C 10.58 g/m*3 15.1 C 0 km/h
3212 03-07-2003 01:49:02 15.1 C 10.58 g/m*3 15.1 C 0 km/h
3213 03-07-2003 01:55:02 15.2 C 10.64 g/m*3 15.2 C 0 km/h
3214 03-07-2003 02:01:02 15.2 C 10.64 g/m*3 15.2 C 0 km/h
3215 03-07-2003 02:07:02 15.2 C 10.51 g/m*3 15.2 C 0 km/h
3216 03-07-2003 02:13:02 15.1 C 10.58 g/m*3 15.1 C 0 km/h
3217 03-07-2003 02:19:02 15.2 C 10.64 g/m*3 15.2 C 0 km/h
3218 03-07-2003 02:25:02 15.1 C 10.58 g/m*3 15.1 C 0 km/h
3219 03-07-2003 02:31:02 15.2 C 10.51 g/m*3 15.2 C 0 km/h
3220 03-07-2003 02:37:02 15.1 C 10.45 g/m*3 15.1 C 0 km/h
3221 03-07-2003 02:43:02 15.1 C 10.45 g/m*3 15.1 C 0 km/h
3222 03-07-2003 02:49:02 15.1 C 10.32 g/m*3 15.1 C 0 km/h
3223 03-07-2003 02:55:02 15.1 C 10.32 g/m*3 15.1 C 0 km/h
3224 03-07-2003 03:01:02 15.1 C 10.32 g/m*3 15.1 C 0 km/h
3225 03-07-2003 03:07:02 15.1 C 10.32 g/m*3 15.1 C 0 km/h
Sensor: Nr:Datum:Temp:Abs-Feuchte:Windchill:Wind:
Aussen-T/F 3226 03-07-2003 03:13:02 15.1 C 10.32 g/m*3 15.1 C 0 km/h
3227 03-07-2003 03:19:02